Wetterdaten: Samstag, 23.05.2020
Datum Zeit Temp. 2m Temp +5 cm Feuchte A. Luftdruck Regen Wind Richtung Richtung Sonnenschein UV Solar Taupunkt Windchill Windben
23.05.2020 00:00 12,6 C 11,7 C 89 % 1022,3 hPa 0,0 l/m 8,0 km/h (2 Bft) S-SW 202 0 min 0,0 UV-I 0 W/m 10,8 C 11,6 C 12,9 km/h (3 Bft)
23.05.2020 00:01 12,6 C 11,1 C 89 % 1022,3 hPa 0,0 l/m 9,7 km/h (2 Bft) S-SW 202 0 min 0,0 UV-I 0 W/m 10,8 C 10,6 C 14,5 km/h (3 Bft)
23.05.2020 00:02 12,5 C 11,1 C 89 % 1022,1 hPa 0,0 l/m 6,4 km/h (2 Bft) S-SW 202 0 min 0,0 UV-I 0 W/m 10,7 C 12,5 C 12,9 km/h (3 Bft)
23.05.2020 00:03 12,5 C 11,1 C 89 % 1022,1 hPa 0,0 l/m 8,0 km/h (2 Bft) S-SW 202 0 min 0,0 UV-I 0 W/m 10,7 C 11,5 C 11,3 km/h (2 Bft)
23.05.2020 00:04 12,4 C 11,1 C 89 % 1022,1 hPa 0,0 l/m 8,0 km/h (2 Bft) S-SW 202 0 min 0,0 UV-I 0 W/m 10,6 C 11,4 C 12,9 km/h (3 Bft)
23.05.2020 00:05 12,5 C 11,1 C 89 % 1022,2 hPa 0,0 l/m 8,0 km/h (2 Bft) S-SW 202 0 min 0,0 UV-I 0 W/m 10,7 C 11,5 C 9,7 km/h (2 Bft)
23.05.2020 00:06 12,4 C 11,1 C 89 % 1022,2 hPa 0,2 l/m 8,0 km/h (2 Bft) SW 225 0 min 0,0 UV-I 0 W/m 10,6 C 11,4 C 11,3 km/h (2 Bft)
23.05.2020 00:07 12,4 C 11,1 C 89 % 1022,2 hPa 0,0 l/m 4,8 km/h (1 Bft) SW 225 0 min 0,0 UV-I 0 W/m 10,6 C 12,4 C 9,7 km/h (2 Bft)
23.05.2020 00:08 12,4 C 11,1 C 90 % 1022,2 hPa 0,0 l/m 4,8 km/h (1 Bft) SW 225 0 min 0,0 UV-I 0 W/m 10,8 C 12,4 C 9,7 km/h (2 Bft)
23.05.2020 00:09 12,3 C 11,1 C 90 % 1022,2 hPa 0,0 l/m 8,0 km/h (2 Bft) S-SW 202 0 min 0,0 UV-I 0 W/m 10,7 C 11,3 C 9,7 km/h (2 Bft)
23.05.2020 00:10 12,3 C 11,1 C 90 % 1022,2 hPa 0,0 l/m 6,4 km/h (2 Bft) S-SW 202 0 min 0,0 UV-I 0 W/m 10,7 C 12,3 C 11,3 km/h (2 Bft)
23.05.2020 00:11 12,3 C 11,1 C 90 % 1022,2 hPa 0,2 l/m 8,0 km/h (2 Bft) S-SW 202 0 min 0,0 UV-I 0 W/m 10,7 C 11,3 C 11,3 km/h (2 Bft)
23.05.2020 00:12 12,2 C 11,1 C 90 % 1022,2 hPa 0,0 l/m 8,0 km/h (2 Bft) S-SW 202 0 min 0,0 UV-I 0 W/m 10,6 C 11,2 C 12,9 km/h (3 Bft)
23.05.2020 00:13 12,2 C 11,1 C 90 % 1022,2 hPa 0,0 l/m 8,0 km/h (2 Bft) S-SW 202 0 min 0,0 UV-I 0 W/m 10,6 C 11,2 C 11,3 km/h (2 Bft)
23.05.2020 00:14 12,2 C 11,1 C 90 % 1022,2 hPa 0,0 l/m 8,0 km/h (2 Bft) S-SW 202 0 min 0,0 UV-I 0 W/m 10,6 C 11,2 C 9,7 km/h (2 Bft)
23.05.2020 00:15 12,2 C 11,1 C 90 % 1022,2 hPa 0,0 l/m 4,8 km/h (1 Bft) W-SW 247 0 min 0,0 UV-I 0 W/m 10,6 C 12,2 C 8,0 km/h (2 Bft)
23.05.2020 00:16 12,2 C 11,1 C 90 % 1022,1 hPa 0,0 l/m 8,0 km/h (2 Bft) S-SW 202 0 min 0,0 UV-I 0 W/m 10,6 C 11,2 C 12,9 km/h (3 Bft)
23.05.2020 00:17 12,2 C 11,1 C 90 % 1022,1 hPa 0,0 l/m 8,0 km/h (2 Bft) S-SW 202 0 min 0,0 UV-I 0 W/m 10,6 C 11,2 C 9,7 km/h (2 Bft)
23.05.2020 00:18 12,1 C 11,1 C 90 % 1022,0 hPa 0,2 l/m 6,4 km/h (2 Bft) S-SW 202 0 min 0,0 UV-I 0 W/m 10,5 C 12,1 C 9,7 km/h (2 Bft)
23.05.2020 00:19 12,1 C 11,1 C 90 % 1022,1 hPa 0,0 l/m 6,4 km/h (2 Bft) S-SW 202 0 min 0,0 UV-I 0 W/m 10,5 C 12,1 C 8,0 km/h (2 Bft)
23.05.2020 00:20 12,1 C 11,1 C 90 % 1022,1 hPa 0,0 l/m 4,8 km/h (1 Bft) S-SW 202 0 min 0,0 UV-I 0 W/m 10,5 C 12,1 C 6,4 km/h (2 Bft)
23.05.2020 00:21 12,1 C 11,1 C 90 % 1022,0 hPa 0,0 l/m 6,4 km/h (2 Bft) SW 225 0 min 0,0 UV-I 0 W/m 10,5 C 12,1 C 12,9 km/h (3 Bft)
23.05.2020 00:22 12,0 C 11,1 C 90 % 1022,0 hPa 0,0 l/m 6,4 km/h (2 Bft) S-SW 202 0 min 0,0 UV-I 0 W/m 10,4 C 12,0 C 9,7 km/h (2 Bft)
23.05.2020 00:23 12,0 C 11,1 C 90 % 1022,1 hPa 0,0 l/m 4,8 km/h (1 Bft) SW 225 0 min 0,0 UV-I 0 W/m 10,4 C 12,0 C 6,4 km/h (2 Bft)
23.05.2020 00:24 11,9 C 11,1 C 90 % 1022,1 hPa 0,0 l/m 8,0 km/h (2 Bft) SW 225 0 min 0,0 UV-I 0 W/m 10,3 C 10,8 C 9,7 km/h (2 Bft)
23.05.2020 00:25 11,9 C 11,1 C 90 % 1022,1 hPa 0,0 l/m 4,8 km/h (1 Bft) SW 225 0 min 0,0 UV-I 0 W/m 10,3 C 11,9 C 6,4 km/h (2 Bft)
23.05.2020 00:26 11,9 C 11,1 C 90 % 1022,1 hPa 0,2 l/m 4,8 km/h (1 Bft) SW 225 0 min 0,0 UV-I 0 W/m 10,3 C 11,9 C 6,4 km/h (2 Bft)
23.05.2020 00:27 11,9 C 11,1 C 90 % 1022,1 hPa 0,0 l/m 6,4 km/h (2 Bft) W-SW 247 0 min 0,0 UV-I 0 W/m 10,3 C 11,9 C 8,0 km/h (2 Bft)
23.05.2020 00:28 11,8 C 11,1 C 90 % 1022,1 hPa 0,0 l/m 4,8 km/h (1 Bft) SW 225 0 min 0,0 UV-I 0 W/m 10,2 C 11,8 C 6,4 km/h (2 Bft)
23.05.2020 00:29 11,8 C 11,1 C 90 % 1022,1 hPa 0,0 l/m 4,8 km/h (1 Bft) SW 225 0 min 0,0 UV-I 0 W/m 10,2 C 11,8 C 9,7 km/h (2 Bft)
23.05.2020 00:30 11,8 C 11,1 C 90 % 1022,1 hPa 0,0 l/m 4,8 km/h (1 Bft) SW 225 0 min 0,0 UV-I 0 W/m 10,2 C 11,8 C 6,4 km/h (2 Bft)
23.05.2020 00:31 11,8 C 11,1 C 90 % 1022,1 hPa 0,0 l/m 6,4 km/h (2 Bft) W-SW 247 0 min 0,0 UV-I 0 W/m 10,2 C 11,8 C 12,9 km/h (3 Bft)
23.05.2020 00:32 11,8 C 11,1 C 90 % 1022,1 hPa 0,0 l/m 6,4 km/h (2 Bft) W-SW 247 0 min 0,0 UV-I 0 W/m 10,2 C 11,8 C 12,9 km/h (3 Bft)
23.05.2020 00:33 11,8 C 11,1 C 90 % 1022,2 hPa 0,0 l/m 6,4 km/h (2 Bft) SW 225 0 min 0,0 UV-I 0 W/m 10,2 C 11,8 C 11,3 km/h (2 Bft)
23.05.2020 00:34 11,8 C 11,1 C 90 % 1022,2 hPa 0,0 l/m 4,8 km/h (1 Bft) SW 225 0 min 0,0 UV-I 0 W/m 10,2 C 11,8 C 6,4 km/h (2 Bft)
23.05.2020 00:35 11,7 C 11,1 C 90 % 1022,2 hPa 0,0 l/m 4,8 km/h (1 Bft) SW 225 0 min 0,0 UV-I 0 W/m 10,1 C 11,7 C 6,4 km/h (2 Bft)
23.05.2020 00:36 11,8 C 10,6 C 90 % 1022,3 hPa 0,0 l/m 4,8 km/h (1 Bft) SW 225 0 min 0,0 UV-I 0 W/m 10,2 C 11,8 C 8,0 km/h (2 Bft)
23.05.2020 00:37 11,7 C 10,6 C 90 % 1022,2 hPa 0,2 l/m 4,8 km/h (1 Bft) SW 225 0 min 0,0 UV-I 0 W/m 10,1 C 11,7 C 6,4 km/h (2 Bft)
23.05.2020 00:38 11,7 C 10,6 C 90 % 1022,1 hPa 0,0 l/m 6,4 km/h (2 Bft) S-SW 202 0 min 0,0 UV-I 0 W/m 10,1 C 11,7 C 8,0 km/h (2 Bft)
23.05.2020 00:39 11,7 C 10,6 C 90 % 1022,0 hPa 0,0 l/m 6,4 km/h (2 Bft) SW 225 0 min 0,0 UV-I 0 W/m 10,1 C 11,7 C 9,7 km/h (2 Bft)
23.05.2020 00:40 11,6 C 10,6 C 90 % 1022,1 hPa 0,0 l/m 6,4 km/h (2 Bft) S-SW 202 0 min 0,0 UV-I 0 W/m 10,0 C 11,6 C 8,0 km/h (2 Bft)
23.05.2020 00:41 11,6 C 10,6 C 90 % 1022,0 hPa 0,0 l/m 3,2 km/h (1 Bft) S-SW 202 0 min 0,0 UV-I 0 W/m 10,0 C 11,6 C 6,4 km/h (2 Bft)
23.05.2020 00:42 11,6 C 10,6 C 90 % 1022,0 hPa 0,0 l/m 4,8 km/h (1 Bft) SW 225 0 min 0,0 UV-I 0 W/m 10,0 C 11,6 C 6,4 km/h (2 Bft)
23.05.2020 00:43 11,5 C 10,6 C 90 % 1022,0 hPa 0,0 l/m 4,8 km/h (1 Bft) SW 225 0 min 0,0 UV-I 0 W/m 9,9 C 11,5 C 6,4 km/h (2 Bft)
23.05.2020 00:44 11,6 C 10,6 C 90 % 1022,1 hPa 0,0 l/m 3,2 km/h (1 Bft) SW 225 0 min 0,0 UV-I 0 W/m 10,0 C 11,6 C 4,8 km/h (1 Bft)
23.05.2020 00:45 11,5 C 10,6 C 90 % 1022,0 hPa 0,0 l/m 3,2 km/h (1 Bft) SW 225 0 min 0,0 UV-I 0 W/m 9,9 C 11,5 C 8,0 km/h (2 Bft)
23.05.2020 00:46 11,5 C 10,6 C 90 % 1022,1 hPa 0,0 l/m 8,0 km/h (2 Bft) S-SW 202 0 min 0,0 UV-I 0 W/m 9,9 C 10,4 C 9,7 km/h (2 Bft)
23.05.2020 00:47 11,5 C 10,6 C 90 % 1022,1 hPa 0,0 l/m 4,8 km/h (1 Bft) SW 225 0 min 0,0 UV-I 0 W/m 9,9 C 11,5 C 6,4 km/h (2 Bft)
23.05.2020 00:48 11,4 C 10,6 C 90 % 1022,1 hPa 0,0 l/m 8,0 km/h (2 Bft) SW 225 0 min 0,0 UV-I 0 W/m 9,8 C 10,3 C 9,7 km/h (2 Bft)
23.05.2020 00:49 11,4 C 10,6 C 90 % 1022,1 hPa 0,0 l/m 6,4 km/h (2 Bft) S-SW 202 0 min 0,0 UV-I 0 W/m 9,8 C 11,4 C 9,7 km/h (2 Bft)
23.05.2020 00:50 11,4 C 10,6 C 90 % 1022,2 hPa 0,0 l/m 6,4 km/h (2 Bft) S-SW 202 0 min 0,0 UV-I 0 W/m 9,8 C 11,4 C 9,7 km/h (2 Bft)
23.05.2020 00:51 11,4 C 10,6 C 90 % 1022,1 hPa 0,0 l/m 6,4 km/h (2 Bft) S-SW 202 0 min 0,0 UV-I 0 W/m 9,8 C 11,4 C 8,0 km/h (2 Bft)
23.05.2020 00:52 11,4 C 10,6 C 90 % 1022,0 hPa 0,0 l/m 6,4 km/h (2 Bft) S-SW 202 0 min 0,0 UV-I 0 W/m 9,8 C 11,4 C 8,0 km/h (2 Bft)
23.05.2020 00:53 11,3 C 10,6 C 90 % 1022,1 hPa 0,0 l/m 6,4 km/h (2 Bft) SW 225 0 min 0,0 UV-I 0 W/m 9,7 C 11,3 C 8,0 km/h (2 Bft)
23.05.2020 00:54 11,3 C 10,6 C 90 % 1022,0 hPa 0,0 l/m 4,8 km/h (1 Bft) S-SW 202 0 min 0,0 UV-I 0 W/m 9,7 C 11,3 C 8,0 km/h (2 Bft)
23.05.2020 00:55 11,3 C 10,6 C 90 % 1022,0 hPa 0,0 l/m 6,4 km/h (2 Bft) SW 225 0 min 0,0 UV-I 0 W/m 9,7 C 11,3 C 9,7 km/h (2 Bft)
23.05.2020 00:56 11,3 C 10,6 C 90 % 1022,0 hPa 0,0 l/m 4,8 km/h (1 Bft) S-SW 202 0 min 0,0 UV-I 0 W/m 9,7 C 11,3 C 6,4 km/h (2 Bft)
23.05.2020 00:57 11,3 C 10,6 C 91 % 1022,1 hPa 0,0 l/m 6,4 km/h (2 Bft) S-SW 202 0 min 0,0 UV-I 0 W/m 9,9 C 11,3 C 8,0 km/h (2 Bft)
23.05.2020 00:58 11,3 C 10,6 C 91 % 1022,1 hPa 0,0 l/m 4,8 km/h (1 Bft) SW 225 0 min 0,0 UV-I 0 W/m 9,9 C 11,3 C 8,0 km/h (2 Bft)
23.05.2020 00:59 11,3 C 10,6 C 91 % 1022,1 hPa 0,0 l/m 4,8 km/h (1 Bft) S-SW 202 0 min 0,0 UV-I 0 W/m 9,9 C 11,3 C 8,0 km/h (2 Bft)
23.05.2020 01:00 11,3 C 10,6 C 90 % 1022,0 hPa 0,0 l/m 4,8 km/h (1 Bft) S-SW 202 0 min 0,0 UV-I 0 W/m 9,7 C 11,3 C 8,0 km/h (2 Bft)
23.05.2020 01:01 11,3 C 10,6 C 90 % 1022,1 hPa 0,0 l/m 6,4 km/h (2 Bft) S-SW 202 0 min 0,0 UV-I 0 W/m 9,7 C 11,3 C 8,0 km/h (2 Bft)
23.05.2020 01:02 11,2 C 10,6 C 90 % 1022,1 hPa 0,0 l/m 8,0 km/h (2 Bft) S-SW 202 0 min 0,0 UV-I 0 W/m 9,6 C 10,1 C 12,9 km/h (3 Bft)
23.05.2020 01:03 11,2 C 10,6 C 90 % 1022,0 hPa 0,0 l/m 6,4 km/h (2 Bft) S-SW 202 0 min 0,0 UV-I 0 W/m 9,6 C 11,2 C 11,3 km/h (2 Bft)
23.05.2020 01:04 11,2 C 10,6 C 90 % 1022,0 hPa 0,0 l/m 8,0 km/h (2 Bft) S-SW 202 0 min 0,0 UV-I 0 W/m 9,6 C 10,1 C 11,3 km/h (2 Bft)
23.05.2020 01:05 11,2 C 10,6 C 90 % 1022,1 hPa 0,0 l/m 9,7 km/h (2 Bft) S-SW 202 0 min 0,0 UV-I 0 W/m 9,6 C 9,1 C 11,3 km/h (2 Bft)
23.05.2020 01:06 11,1 C 10,0 C 90 % 1022,1 hPa 0,0 l/m 9,7 km/h (2 Bft) S-SW 202 0 min 0,0 UV-I 0 W/m 9,5 C 9,0 C 11,3 km/h (2 Bft)
23.05.2020 01:07 11,1 C 10,0 C 90 % 1022,0 hPa 0,0 l/m 6,4 km/h (2 Bft) S-SW 202 0 min 0,0 UV-I 0 W/m 9,5 C 11,1 C 9,7 km/h (2 Bft)
23.05.2020 01:08 11,1 C 10,0 C 90 % 1022,1 hPa 0,0 l/m 8,0 km/h (2 Bft) SW 225 0 min 0,0 UV-I 0 W/m 9,5 C 10,0 C 12,9 km/h (3 Bft)
23.05.2020 01:09 11,1 C 10,0 C 89 % 1022,0 hPa 0,0 l/m 6,4 km/h (2 Bft) SW 225 0 min 0,0 UV-I 0 W/m 9,4 C 11,1 C 9,7 km/h (2 Bft)
23.05.2020 01:10 11,1 C 10,0 C 89 % 1022,1 hPa 0,0 l/m 6,4 km/h (2 Bft) SW 225 0 min 0,0 UV-I 0 W/m 9,4 C 11,1 C 11,3 km/h (2 Bft)
23.05.2020 01:11 11,1 C 10,0 C 89 % 1022,1 hPa 0,0 l/m 9,7 km/h (2 Bft) SW 225 0 min 0,0 UV-I 0 W/m 9,4 C 9,0 C 14,5 km/h (3 Bft)
23.05.2020 01:12 11,1 C 10,0 C 89 % 1022,1 hPa 0,0 l/m 8,0 km/h (2 Bft) S-SW 202 0 min 0,0 UV-I 0 W/m 9,4 C 10,0 C 11,3 km/h (2 Bft)
23.05.2020 01:13 11,1 C 10,0 C 89 % 1022,1 hPa 0,0 l/m 9,7 km/h (2 Bft) S-SW 202 0 min 0,0 UV-I 0 W/m 9,4 C 9,0 C 11,3 km/h (2 Bft)
23.05.2020 01:14 11,1 C 10,0 C 89 % 1022,1 hPa 0,0 l/m 6,4 km/h (2 Bft) S-SW 202 0 min 0,0 UV-I 0 W/m 9,4 C 11,1 C 9,7 km/h (2 Bft)
23.05.2020 01:15 11,0 C 10,0 C 89 % 1022,2 hPa 0,0 l/m 6,4 km/h (2 Bft) S-SW 202 0 min 0,0 UV-I 0 W/m 9,3 C 11,0 C 9,7 km/h (2 Bft)
23.05.2020 01:16 11,0 C 10,0 C 89 % 1022,1 hPa 0,0 l/m 8,0 km/h (2 Bft) S-SW 202 0 min 0,0 UV-I 0 W/m 9,3 C 9,9 C 9,7 km/h (2 Bft)
23.05.2020 01:17 11,0 C 10,0 C 89 % 1022,1 hPa 0,0 l/m 6,4 km/h (2 Bft) S-SW 202 0 min 0,0 UV-I 0 W/m 9,3 C 11,0 C 9,7 km/h (2 Bft)
23.05.2020 01:18 11,0 C 10,0 C 89 % 1022,1 hPa 0,0 l/m 8,0 km/h (2 Bft) SW 225 0 min 0,0 UV-I 0 W/m 9,3 C 9,9 C 11,3 km/h (2 Bft)
23.05.2020 01:19 11,0 C 10,0 C 89 % 1022,1 hPa 0,0 l/m 6,4 km/h (2 Bft) S-SW 202 0 min 0,0 UV-I 0 W/m 9,3 C 11,0 C 8,0 km/h (2 Bft)
23.05.2020 01:20 11,0 C 10,0 C 90 % 1022,1 hPa 0,0 l/m 6,4 km/h (2 Bft) S-SW 202 0 min 0,0 UV-I 0 W/m 9,4 C 11,0 C 8,0 km/h (2 Bft)
23.05.2020 01:21 10,9 C 10,0 C 90 % 1022,2 hPa 0,0 l/m 8,0 km/h (2 Bft) S-SW 202 0 min 0,0 UV-I 0 W/m 9,3 C 9,8 C 11,3 km/h (2 Bft)
23.05.2020 01:22 10,9 C 10,0 C 90 % 1022,1 hPa 0,0 l/m 8,0 km/h (2 Bft) S-SW 202 0 min 0,0 UV-I 0 W/m 9,3 C 9,8 C 11,3 km/h (2 Bft)
23.05.2020 01:23 11,0 C 10,0 C 90 % 1022,2 hPa 0,0 l/m 6,4 km/h (2 Bft) S-SW 202 0 min 0,0 UV-I 0 W/m 9,4 C 11,0 C 8,0 km/h (2 Bft)
23.05.2020 01:24 10,9 C 10,0 C 90 % 1022,2 hPa 0,0 l/m 9,7 km/h (2 Bft) S 180 0 min 0,0 UV-I 0 W/m 9,3 C 8,8 C 14,5 km/h (3 Bft)
23.05.2020 01:25 10,9 C 10,0 C 90 % 1022,3 hPa 0,0 l/m 8,0 km/h (2 Bft) S-SW 202 0 min 0,0 UV-I 0 W/m 9,3 C 9,8 C 12,9 km/h (3 Bft)
23.05.2020 01:26 10,9 C 10,0 C 90 % 1022,3 hPa 0,0 l/m 8,0 km/h (2 Bft) S-SW 202 0 min 0,0 UV-I 0 W/m 9,3 C 9,8 C 9,7 km/h (2 Bft)
23.05.2020 01:27 10,9 C 10,0 C 90 % 1022,4 hPa 0,0 l/m 8,0 km/h (2 Bft) S-SW 202 0 min 0,0 UV-I 0 W/m 9,3 C 9,8 C 12,9 km/h (3 Bft)
23.05.2020 01:28 10,9 C 10,0 C 90 % 1022,4 hPa 0,0 l/m 9,7 km/h (2 Bft) S-SW 202 0 min 0,0 UV-I 0 W/m 9,3 C 8,8 C 11,3 km/h (2 Bft)
23.05.2020 01:29 10,9 C 10,0 C 90 % 1022,2 hPa 0,0 l/m 9,7 km/h (2 Bft) S-SW 202 0 min 0,0 UV-I 0 W/m 9,3 C 8,8 C 11,3 km/h (2 Bft)
23.05.2020 01:30 10,8 C 10,0 C 90 % 1022,3 hPa 0,0 l/m 6,4 km/h (2 Bft) S-SW 202 0 min 0,0 UV-I 0 W/m 9,2 C 10,8 C 9,7 km/h (2 Bft)
23.05.2020 01:31 10,9 C 10,0 C 90 % 1022,2 hPa 0,0 l/m 6,4 km/h (2 Bft) S-SW 202 0 min 0,0 UV-I 0 W/m 9,3 C 10,9 C 11,3 km/h (2 Bft)
23.05.2020 01:32 10,8 C 10,0 C 90 % 1022,3 hPa 0,0 l/m 8,0 km/h (2 Bft) S-SW 202 0 min 0,0 UV-I 0 W/m 9,2 C 9,7 C 9,7 km/h (2 Bft)
23.05.2020 01:33 10,8 C 10,0 C 90 % 1022,2 hPa 0,0 l/m 8,0 km/h (2 Bft) S-SW 202 0 min 0,0 UV-I 0 W/m 9,2 C 9,7 C 11,3 km/h (2 Bft)
23.05.2020 01:34 10,8 C 10,0 C 90 % 1022,3 hPa 0,0 l/m 6,4 km/h (2 Bft) S-SW 202 0 min 0,0 UV-I 0 W/m 9,2 C 10,8 C 8,0 km/h (2 Bft)
23.05.2020 01:35 10,8 C 9,4 C 89 % 1022,2 hPa 0,0 l/m 6,4 km/h (2 Bft) SW 225 0 min 0,0 UV-I 0 W/m 9,1 C 10,8 C 9,7 km/h (2 Bft)
23.05.2020 01:36 10,8 C 9,4 C 89 % 1022,2 hPa 0,0 l/m 8,0 km/h (2 Bft) S-SW 202 0 min 0,0 UV-I 0 W/m 9,1 C 9,7 C 11,3 km/h (2 Bft)
23.05.2020 01:37 10,8 C 9,4 C 89 % 1022,1 hPa 0,0 l/m 6,4 km/h (2 Bft) S-SW 202 0 min 0,0 UV-I 0 W/m 9,1 C 10,8 C 8,0 km/h (2 Bft)
23.05.2020 01:38 10,7 C 9,4 C 89 % 1022,1 hPa 0,0 l/m 6,4 km/h (2 Bft) S-SW 202 0 min 0,0 UV-I 0 W/m 9,0 C 10,7 C 12,9 km/h (3 Bft)
23.05.2020 01:39 10,7 C 9,4 C 89 % 1022,1 hPa 0,0 l/m 6,4 km/h (2 Bft) SW 225 0 min 0,0 UV-I 0 W/m 9,0 C 10,7 C 9,7 km/h (2 Bft)
23.05.2020 01:40 10,7 C 9,4 C 89 % 1022,3 hPa 0,0 l/m 8,0 km/h (2 Bft) S-SW 202 0 min 0,0 UV-I 0 W/m 9,0 C 9,6 C 11,3 km/h (2 Bft)
23.05.2020 01:41 10,7 C 9,4 C 89 % 1022,2 hPa 0,0 l/m 8,0 km/h (2 Bft) S-SW 202 0 min 0,0 UV-I 0 W/m 9,0 C 9,6 C 14,5 km/h (3 Bft)
23.05.2020 01:42 10,6 C 9,4 C 89 % 1022,2 hPa 0,0 l/m 6,4 km/h (2 Bft) S-SW 202 0 min 0,0 UV-I 0 W/m 8,9 C 10,6 C 9,7 km/h (2 Bft)
23.05.2020 01:43 10,6 C 9,4 C 89 % 1022,3 hPa 0,0 l/m 8,0 km/h (2 Bft) S-SW 202 0 min 0,0 UV-I 0 W/m 8,9 C 9,5 C 11,3 km/h (2 Bft)
23.05.2020 01:44 10,6 C 9,4 C 89 % 1022,3 hPa 0,0 l/m 6,4 km/h (2 Bft) S-SW 202 0 min 0,0 UV-I 0 W/m 8,9 C 10,6 C 8,0 km/h (2 Bft)
23.05.2020 01:45 10,6 C 9,4 C 89 % 1022,3 hPa 0,0 l/m 9,7 km/h (2 Bft) S-SW 202 0 min 0,0 UV-I 0 W/m 8,9 C 8,4 C 14,5 km/h (3 Bft)
23.05.2020 01:46 10,6 C 9,4 C 89 % 1022,4 hPa 0,0 l/m 8,0 km/h (2 Bft) S-SW 202 0 min 0,0 UV-I 0 W/m 8,9 C 9,5 C 9,7 km/h (2 Bft)
23.05.2020 01:47 10,6 C 9,4 C 89 % 1022,4 hPa 0,0 l/m 8,0 km/h (2 Bft) S-SW 202 0 min 0,0 UV-I 0 W/m 8,9 C 9,5 C 12,9 km/h (3 Bft)
23.05.2020 01:48 10,5 C 9,4 C 89 % 1022,2 hPa 0,0 l/m 9,7 km/h (2 Bft) S-SW 202 0 min 0,0 UV-I 0 W/m 8,8 C 8,3 C 12,9 km/h (3 Bft)
23.05.2020 01:49 10,5 C 9,4 C 89 % 1022,4 hPa 0,0 l/m 9,7 km/h (2 Bft) S-SW 202 0 min 0,0 UV-I 0 W/m 8,8 C 8,3 C 14,5 km/h (3 Bft)
23.05.2020 01:50 10,5 C 9,4 C 89 % 1022,4 hPa 0,0 l/m 8,0 km/h (2 Bft) SW 225 0 min 0,0 UV-I 0 W/m 8,8 C 9,4 C 12,9 km/h (3 Bft)
23.05.2020 01:51 10,5 C 9,4 C 89 % 1022,4 hPa 0,0 l/m 6,4 km/h (2 Bft) S-SW 202 0 min 0,0 UV-I 0 W/m 8,8 C 10,5 C 9,7 km/h (2 Bft)
23.05.2020 01:52 10,5 C 9,4 C 89 % 1022,4 hPa 0,0 l/m 6,4 km/h (2 Bft) S-SW 202 0 min 0,0 UV-I 0 W/m 8,8 C 10,5 C 11,3 km/h (2 Bft)
23.05.2020 01:53 10,5 C 9,4 C 89 % 1022,4 hPa 0,0 l/m 8,0 km/h (2 Bft) SW 225 0 min 0,0 UV-I 0 W/m 8,8 C 9,4 C 11,3 km/h (2 Bft)
23.05.2020 01:54 10,5 C 9,4 C 89 % 1022,4 hPa 0,0 l/m 8,0 km/h (2 Bft) S-SW 202 0 min 0,0 UV-I 0 W/m 8,8 C 9,4 C 11,3 km/h (2 Bft)
23.05.2020 01:55 10,5 C 9,4 C 89 % 1022,4 hPa 0,0 l/m 6,4 km/h (2 Bft) S-SW 202 0 min 0,0 UV-I 0 W/m 8,8 C 10,5 C 9,7 km/h (2 Bft)
23.05.2020 01:56 10,5 C 9,4 C 89 % 1022,4 hPa 0,0 l/m 6,4 km/h (2 Bft) S-SW 202 0 min 0,0 UV-I 0 W/m 8,8 C 10,5 C 8,0 km/h (2 Bft)
23.05.2020 01:57 10,5 C 9,4 C 89 % 1022,5 hPa 0,0 l/m 4,8 km/h (1 Bft) S-SW 202 0 min 0,0 UV-I 0 W/m 8,8 C 10,5 C 8,0 km/h (2 Bft)
23.05.2020 01:58 10,5 C 9,4 C 89 % 1022,4 hPa 0,0 l/m 4,8 km/h (1 Bft) SW 225 0 min 0,0 UV-I 0 W/m 8,8 C 10,5 C 8,0 km/h (2 Bft)
23.05.2020 01:59 10,4 C 9,4 C 89 % 1022,3 hPa 0,0 l/m 4,8 km/h (1 Bft) SW 225 0 min 0,0 UV-I 0 W/m 8,7 C 10,4 C 6,4 km/h (2 Bft)
23.05.2020 02:00 10,4 C 9,4 C 89 % 1022,3 hPa 0,0 l/m 4,8 km/h (1 Bft) SW 225 0 min 0,0 UV-I 0 W/m 8,7 C 10,4 C 6,4 km/h (2 Bft)
23.05.2020 02:01 10,4 C 9,4 C 89 % 1022,3 hPa 0,0 l/m 6,4 km/h (2 Bft) S-SW 202 0 min 0,0 UV-I 0 W/m 8,7 C 10,4 C 8,0 km/h (2 Bft)
23.05.2020 02:02 10,5 C 9,4 C 89 % 1022,3 hPa 0,0 l/m 4,8 km/h (1 Bft) SW 225 0 min 0,0 UV-I 0 W/m 8,8 C 10,5 C 8,0 km/h (2 Bft)
23.05.2020 02:03 10,5 C 9,4 C 89 % 1022,3 hPa 0,0 l/m 6,4 km/h (2 Bft) S-SW 202 0 min 0,0 UV-I 0 W/m 8,8 C 10,5 C 8,0 km/h (2 Bft)
23.05.2020 02:04 10,4 C 9,4 C 89 % 1022,4 hPa 0,0 l/m 6,4 km/h (2 Bft) S-SW 202 0 min 0,0 UV-I 0 W/m 8,7 C 10,4 C 9,7 km/h (2 Bft)
23.05.2020 02:05 10,4 C 9,4 C 89 % 1022,3 hPa 0,0 l/m 6,4 km/h (2 Bft) SW 225 0 min 0,0 UV-I 0 W/m 8,7 C 10,4 C 8,0 km/h (2 Bft)
23.05.2020 02:06 10,4 C 9,4 C 89 % 1022,3 hPa 0,0 l/m 8,0 km/h (2 Bft) S-SW 202 0 min 0,0 UV-I 0 W/m 8,7 C 9,3 C 11,3 km/h (2 Bft)
23.05.2020 02:07 10,4 C 9,4 C 89 % 1022,3 hPa 0,0 l/m 4,8 km/h (1 Bft) S-SW 202 0 min 0,0 UV-I 0 W/m 8,7 C 10,4 C 8,0 km/h (2 Bft)
23.05.2020 02:08 10,4 C 9,4 C 89 % 1022,4 hPa 0,0 l/m 4,8 km/h (1 Bft) S-SW 202 0 min 0,0 UV-I 0 W/m 8,7 C 10,4 C 8,0 km/h (2 Bft)
23.05.2020 02:09 10,4 C 9,4 C 89 % 1022,3 hPa 0,0 l/m 4,8 km/h (1 Bft) SW 225 0 min 0,0 UV-I 0 W/m 8,7 C 10,4 C 6,4 km/h (2 Bft)
23.05.2020 02:10 10,4 C 9,4 C 89 % 1022,4 hPa 0,0 l/m 6,4 km/h (2 Bft) S-SW 202 0 min 0,0 UV-I 0 W/m 8,7 C 10,4 C 9,7 km/h (2 Bft)
23.05.2020 02:11 10,4 C 9,4 C 89 % 1022,4 hPa 0,0 l/m 4,8 km/h (1 Bft) SW 225 0 min 0,0 UV-I 0 W/m 8,7 C 10,4 C 6,4 km/h (2 Bft)
23.05.2020 02:12 10,3 C 9,4 C 89 % 1022,2 hPa 0,0 l/m 4,8 km/h (1 Bft) S-SW 202 0 min 0,0 UV-I 0 W/m 8,6 C 10,3 C 9,7 km/h (2 Bft)
23.05.2020 02:13 10,4 C 9,4 C 89 % 1022,4 hPa 0,0 l/m 4,8 km/h (1 Bft) SW 225 0 min 0,0 UV-I 0 W/m 8,7 C 10,4 C 9,7 km/h (2 Bft)
23.05.2020 02:14 10,4 C 9,4 C 89 % 1022,3 hPa 0,0 l/m 6,4 km/h (2 Bft) SW 225 0 min 0,0 UV-I 0 W/m 8,7 C 10,4 C 8,0 km/h (2 Bft)
23.05.2020 02:15 10,4 C 9,4 C 89 % 1022,3 hPa 0,0 l/m 6,4 km/h (2 Bft) SW 225 0 min 0,0 UV-I 0 W/m 8,7 C 10,4 C 9,7 km/h (2 Bft)
23.05.2020 02:16 10,4 C 9,4 C 89 % 1022,3 hPa 0,0 l/m 6,4 km/h (2 Bft) S-SW 202 0 min 0,0 UV-I 0 W/m 8,7 C 10,4 C 9,7 km/h (2 Bft)
23.05.2020 02:17 10,4 C 9,4 C 89 % 1022,4 hPa 0,0 l/m 8,0 km/h (2 Bft) S-SW 202 0 min 0,0 UV-I 0 W/m 8,7 C 9,3 C 12,9 km/h (3 Bft)
23.05.2020 02:18 10,4 C 9,4 C 89 % 1022,4 hPa 0,0 l/m 8,0 km/h (2 Bft) S-SW 202 0 min 0,0 UV-I 0 W/m 8,7 C 9,3 C 11,3 km/h (2 Bft)
23.05.2020 02:19 10,4 C 9,4 C 88 % 1022,4 hPa 0,0 l/m 6,4 km/h (2 Bft) S-SW 202 0 min 0,0 UV-I 0 W/m 8,5 C 10,4 C 9,7 km/h (2 Bft)
23.05.2020 02:20 10,4 C 9,4 C 88 % 1022,4 hPa 0,0 l/m 4,8 km/h (1 Bft) S-SW 202 0 min 0,0 UV-I 0 W/m 8,5 C 10,4 C 9,7 km/h (2 Bft)
23.05.2020 02:21 10,4 C 9,4 C 88 % 1022,3 hPa 0,0 l/m 4,8 km/h (1 Bft) W-SW 247 0 min 0,0 UV-I 0 W/m 8,5 C 10,4 C 6,4 km/h (2 Bft)
23.05.2020 02:22 10,3 C 9,4 C 88 % 1022,4 hPa 0,0 l/m 6,4 km/h (2 Bft) S 180 0 min 0,0 UV-I 0 W/m 8,4 C 10,3 C 8,0 km/h (2 Bft)
23.05.2020 02:23 10,3 C 9,4 C 88 % 1022,2 hPa 0,0 l/m 3,2 km/h (1 Bft) SW 225 0 min 0,0 UV-I 0 W/m 8,4 C 10,3 C 6,4 km/h (2 Bft)
23.05.2020 02:24 10,3 C 9,4 C 88 % 1022,1 hPa 0,0 l/m 3,2 km/h (1 Bft) SW 225 0 min 0,0 UV-I 0 W/m 8,4 C 10,3 C 4,8 km/h (1 Bft)
23.05.2020 02:25 10,3 C 9,4 C 89 % 1022,1 hPa 0,0 l/m 4,8 km/h (1 Bft) SW 225 0 min 0,0 UV-I 0 W/m 8,6 C 10,3 C 6,4 km/h (2 Bft)
23.05.2020 02:26 10,3 C 9,4 C 89 % 1022,2 hPa 0,0 l/m 3,2 km/h (1 Bft) SW 225 0 min 0,0 UV-I 0 W/m 8,6 C 10,3 C 6,4 km/h (2 Bft)
23.05.2020 02:27 10,3 C 9,4 C 89 % 1022,1 hPa 0,0 l/m 3,2 km/h (1 Bft) SW 225 0 min 0,0 UV-I 0 W/m 8,6 C 10,3 C 4,8 km/h (1 Bft)
23.05.2020 02:28 10,3 C 9,4 C 89 % 1022,1 hPa 0,0 l/m 3,2 km/h (1 Bft) S-SW 202 0 min 0,0 UV-I 0 W/m 8,6 C 10,3 C 6,4 km/h (2 Bft)
23.05.2020 02:29 10,3 C 9,4 C 89 % 1022,1 hPa 0,0 l/m 3,2 km/h (1 Bft) S-SW 202 0 min 0,0 UV-I 0 W/m 8,6 C 10,3 C 4,8 km/h (1 Bft)
23.05.2020 02:30 10,3 C 9,4 C 89 % 1022,2 hPa 0,0 l/m 3,2 km/h (1 Bft) S-SW 202 0 min 0,0 UV-I 0 W/m 8,6 C 10,3 C 4,8 km/h (1 Bft)
23.05.2020 02:31 10,3 C 9,4 C 89 % 1022,2 hPa 0,0 l/m 4,8 km/h (1 Bft) SW 225 0 min 0,0 UV-I 0 W/m 8,6 C 10,3 C 8,0 km/h (2 Bft)
23.05.2020 02:32 10,3 C 9,4 C 89 % 1022,1 hPa 0,0 l/m 3,2 km/h (1 Bft) SW 225 0 min 0,0 UV-I 0 W/m 8,6 C 10,3 C 4,8 km/h (1 Bft)
23.05.2020 02:33 10,3 C 9,4 C 89 % 1022,1 hPa 0,0 l/m 4,8 km/h (1 Bft) S-SW 202 0 min 0,0 UV-I 0 W/m 8,6 C 10,3 C 6,4 km/h (2 Bft)
23.05.2020 02:34 10,3 C 9,4 C 89 % 1022,1 hPa 0,0 l/m 1,6 km/h (1 Bft) S-SW 202 0 min 0,0 UV-I 0 W/m 8,6 C 10,3 C 4,8 km/h (1 Bft)
23.05.2020 02:35 10,3 C 9,4 C 89 % 1022,1 hPa 0,0 l/m 3,2 km/h (1 Bft) S-SW 202 0 min 0,0 UV-I 0 W/m 8,6 C 10,3 C 3,2 km/h (1 Bft)
23.05.2020 02:36 10,3 C 9,4 C 89 % 1022,0 hPa 0,0 l/m 3,2 km/h (1 Bft) S-SW 202 0 min 0,0 UV-I 0 W/m 8,6 C 10,3 C 4,8 km/h (1 Bft)
23.05.2020 02:37 10,3 C 9,4 C 89 % 1022,1 hPa 0,0 l/m 3,2 km/h (1 Bft) S-SW 202 0 min 0,0 UV-I 0 W/m 8,6 C 10,3 C 4,8 km/h (1 Bft)
23.05.2020 02:38 10,3 C 9,4 C 89 % 1022,1 hPa 0,0 l/m 4,8 km/h (1 Bft) S-SW 202 0 min 0,0 UV-I 0 W/m 8,6 C 10,3 C 6,4 km/h (2 Bft)
23.05.2020 02:39 10,3 C 9,4 C 89 % 1022,0 hPa 0,0 l/m 3,2 km/h (1 Bft) S-SW 202 0 min 0,0 UV-I 0 W/m 8,6 C 10,3 C 4,8 km/h (1 Bft)
23.05.2020 02:40 10,2 C 9,4 C 89 % 1022,0 hPa 0,0 l/m 3,2 km/h (1 Bft) S-SW 202 0 min 0,0 UV-I 0 W/m 8,5 C 10,2 C 3,2 km/h (1 Bft)
23.05.2020 02:41 10,2 C 9,4 C 89 % 1022,2 hPa 0,0 l/m 1,6 km/h (1 Bft) S-SW 202 0 min 0,0 UV-I 0 W/m 8,5 C 10,2 C 4,8 km/h (1 Bft)
23.05.2020 02:42 10,2 C 9,4 C 89 % 1022,1 hPa 0,0 l/m 3,2 km/h (1 Bft) S-SW 202 0 min 0,0 UV-I 0 W/m 8,5 C 10,2 C 4,8 km/h (1 Bft)
23.05.2020 02:43 10,2 C 9,4 C 89 % 1022,1 hPa 0,0 l/m 3,2 km/h (1 Bft) S-SW 202 0 min 0,0 UV-I 0 W/m 8,5 C 10,2 C 4,8 km/h (1 Bft)
23.05.2020 02:44 10,2 C 9,4 C 89 % 1022,1 hPa 0,0 l/m 4,8 km/h (1 Bft) S-SW 202 0 min 0,0 UV-I 0 W/m 8,5 C 10,2 C 8,0 km/h (2 Bft)
23.05.2020 02:45 10,3 C 9,4 C 89 % 1022,1 hPa 0,0 l/m 4,8 km/h (1 Bft) SW 225 0 min 0,0 UV-I 0 W/m 8,6 C 10,3 C 6,4 km/h (2 Bft)
23.05.2020 02:46 10,2 C 9,4 C 89 % 1022,1 hPa 0,0 l/m 4,8 km/h (1 Bft) W-SW 247 0 min 0,0 UV-I 0 W/m 8,5 C 10,2 C 6,4 km/h (2 Bft)
23.05.2020 02:47 10,2 C 9,4 C 89 % 1022,2 hPa 0,0 l/m 4,8 km/h (1 Bft) SW 225 0 min 0,0 UV-I 0 W/m 8,5 C 10,2 C 8,0 km/h (2 Bft)
23.05.2020 02:48 10,2 C 9,4 C 89 % 1022,2 hPa 0,0 l/m 3,2 km/h (1 Bft) SW 225 0 min 0,0 UV-I 0 W/m 8,5 C 10,2 C 6,4 km/h (2 Bft)
23.05.2020 02:49 10,3 C 9,4 C 89 % 1022,3 hPa 0,0 l/m 6,4 km/h (2 Bft) SW 225 0 min 0,0 UV-I 0 W/m 8,6 C 10,3 C 8,0 km/h (2 Bft)
23.05.2020 02:50 10,3 C 9,4 C 89 % 1022,4 hPa 0,0 l/m 4,8 km/h (1 Bft) SW 225 0 min 0,0 UV-I 0 W/m 8,6 C 10,3 C 11,3 km/h (2 Bft)
23.05.2020 02:51 10,3 C 9,4 C 89 % 1022,3 hPa 0,0 l/m 4,8 km/h (1 Bft) SW 225 0 min 0,0 UV-I 0 W/m 8,6 C 10,3 C 6,4 km/h (2 Bft)
23.05.2020 02:52 10,3 C 9,4 C 89 % 1022,3 hPa 0,0 l/m 3,2 km/h (1 Bft) SW 225 0 min 0,0 UV-I 0 W/m 8,6 C 10,3 C 4,8 km/h (1 Bft)
23.05.2020 02:53 10,3 C 9,4 C 89 % 1022,3 hPa 0,0 l/m 4,8 km/h (1 Bft) SW 225 0 min 0,0 UV-I 0 W/m 8,6 C 10,3 C 6,4 km/h (2 Bft)
23.05.2020 02:54 10,3 C 9,4 C 89 % 1022,4 hPa 0,0 l/m 3,2 km/h (1 Bft) SW 225 0 min 0,0 UV-I 0 W/m 8,6 C 10,3 C 6,4 km/h (2 Bft)
23.05.2020 02:55 10,3 C 9,4 C 89 % 1022,4 hPa 0,0 l/m 6,4 km/h (2 Bft) SW 225 0 min 0,0 UV-I 0 W/m 8,6 C 10,3 C 11,3 km/h (2 Bft)
23.05.2020 02:56 10,3 C 9,4 C 89 % 1022,5 hPa 0,0 l/m 4,8 km/h (1 Bft) SW 225 0 min 0,0 UV-I 0 W/m 8,6 C 10,3 C 6,4 km/h (2 Bft)
23.05.2020 02:57 10,3 C 9,4 C 89 % 1022,4 hPa 0,0 l/m 3,2 km/h (1 Bft) SW 225 0 min 0,0 UV-I 0 W/m 8,6 C 10,3 C 6,4 km/h (2 Bft)
23.05.2020 02:58 10,3 C 9,4 C 89 % 1022,4 hPa 0,0 l/m 4,8 km/h (1 Bft) SW 225 0 min 0,0 UV-I 0 W/m 8,6 C 10,3 C 6,4 km/h (2 Bft)
23.05.2020 02:59 10,2 C 9,4 C 89 % 1022,5 hPa 0,0 l/m 6,4 km/h (2 Bft) SW 225 0 min 0,0 UV-I 0 W/m 8,5 C 10,2 C 9,7 km/h (2 Bft)
23.05.2020 03:00 10,2 C 9,4 C 89 % 1022,5 hPa 0,0 l/m 3,2 km/h (1 Bft) SW 225 0 min 0,0 UV-I 0 W/m 8,5 C 10,2 C 6,4 km/h (2 Bft)
23.05.2020 03:01 10,3 C 9,4 C 89 % 1022,4 hPa 0,0 l/m 3,2 km/h (1 Bft) SW 225 0 min 0,0 UV-I 0 W/m 8,6 C 10,3 C 3,2 km/h (1 Bft)
23.05.2020 03:02 10,3 C 9,4 C 89 % 1022,3 hPa 0,0 l/m 1,6 km/h (1 Bft) SW 225 0 min 0,0 UV-I 0 W/m 8,6 C 10,3 C 6,4 km/h (2 Bft)
23.05.2020 03:03 10,2 C 9,4 C 89 % 1022,4 hPa 0,0 l/m 4,8 km/h (1 Bft) SW 225 0 min 0,0 UV-I 0 W/m 8,5 C 10,2 C 6,4 km/h (2 Bft)
23.05.2020 03:04 10,2 C 9,4 C 89 % 1022,2 hPa 0,0 l/m 6,4 km/h (2 Bft) S-SW 202 0 min 0,0 UV-I 0 W/m 8,5 C 10,2 C 8,0 km/h (2 Bft)
23.05.2020 03:05 10,2 C 9,4 C 89 % 1022,2 hPa 0,2 l/m 4,8 km/h (1 Bft) S-SW 202 0 min 0,0 UV-I 0 W/m 8,5 C 10,2 C 8,0 km/h (2 Bft)
23.05.2020 03:06 10,2 C 9,4 C 89 % 1022,2 hPa 0,0 l/m 4,8 km/h (1 Bft) S-SW 202 0 min 0,0 UV-I 0 W/m 8,5 C 10,2 C 6,4 km/h (2 Bft)
23.05.2020 03:07 10,2 C 9,4 C 89 % 1022,3 hPa 0,0 l/m 4,8 km/h (1 Bft) S-SW 202 0 min 0,0 UV-I 0 W/m 8,5 C 10,2 C 6,4 km/h (2 Bft)
23.05.2020 03:08 10,2 C 9,4 C 89 % 1022,2 hPa 0,0 l/m 4,8 km/h (1 Bft) S-SW 202 0 min 0,0 UV-I 0 W/m 8,5 C 10,2 C 6,4 km/h (2 Bft)
23.05.2020 03:09 10,2 C 9,4 C 89 % 1022,2 hPa 0,0 l/m 6,4 km/h (2 Bft) SW 225 0 min 0,0 UV-I 0 W/m 8,5 C 10,2 C 8,0 km/h (2 Bft)
23.05.2020 03:10 10,2 C 8,9 C 88 % 1022,3 hPa 0,0 l/m 4,8 km/h (1 Bft) SW 225 0 min 0,0 UV-I 0 W/m 8,3 C 10,2 C 6,4 km/h (2 Bft)
23.05.2020 03:11 10,2 C 8,9 C 88 % 1022,2 hPa 0,0 l/m 3,2 km/h (1 Bft) SW 225 0 min 0,0 UV-I 0 W/m 8,3 C 10,2 C 6,4 km/h (2 Bft)
23.05.2020 03:12 10,2 C 8,9 C 88 % 1022,4 hPa 0,0 l/m 4,8 km/h (1 Bft) SW 225 0 min 0,0 UV-I 0 W/m 8,3 C 10,2 C 6,4 km/h (2 Bft)
23.05.2020 03:13 10,2 C 8,9 C 88 % 1022,3 hPa 0,0 l/m 4,8 km/h (1 Bft) SW 225 0 min 0,0 UV-I 0 W/m 8,3 C 10,2 C 6,4 km/h (2 Bft)
23.05.2020 03:14 10,2 C 8,9 C 88 % 1022,3 hPa 0,0 l/m 4,8 km/h (1 Bft) SW 225 0 min 0,0 UV-I 0 W/m 8,3 C 10,2 C 8,0 km/h (2 Bft)
23.05.2020 03:15 10,2 C 8,9 C 88 % 1022,3 hPa 0,0 l/m 4,8 km/h (1 Bft) SW 225 0 min 0,0 UV-I 0 W/m 8,3 C 10,2 C 6,4 km/h (2 Bft)
23.05.2020 03:16 10,2 C 8,9 C 88 % 1022,3 hPa 0,0 l/m 4,8 km/h (1 Bft) S-SW 202 0 min 0,0 UV-I 0 W/m 8,3 C 10,2 C 8,0 km/h (2 Bft)
23.05.2020 03:17 10,2 C 8,9 C 88 % 1022,3 hPa 0,0 l/m 6,4 km/h (2 Bft) S-SW 202 0 min 0,0 UV-I 0 W/m 8,3 C 10,2 C 8,0 km/h (2 Bft)
23.05.2020 03:18 10,2 C 8,9 C 88 % 1022,3 hPa 0,0 l/m 3,2 km/h (1 Bft) S-SW 202 0 min 0,0 UV-I 0 W/m 8,3 C 10,2 C 4,8 km/h (1 Bft)
23.05.2020 03:19 10,2 C 8,9 C 88 % 1022,4 hPa 0,0 l/m 6,4 km/h (2 Bft) S-SW 202 0 min 0,0 UV-I 0 W/m 8,3 C 10,2 C 8,0 km/h (2 Bft)
23.05.2020 03:20 10,1 C 8,9 C 88 % 1022,4 hPa 0,0 l/m 6,4 km/h (2 Bft) SW 225 0 min 0,0 UV-I 0 W/m 8,2 C 10,1 C 9,7 km/h (2 Bft)
23.05.2020 03:21 10,1 C 8,9 C 88 % 1022,4 hPa 0,0 l/m 3,2 km/h (1 Bft) S-SW 202 0 min 0,0 UV-I 0 W/m 8,2 C 10,1 C 8,0 km/h (2 Bft)
23.05.2020 03:22 10,1 C 8,9 C 88 % 1022,3 hPa 0,0 l/m 1,6 km/h (1 Bft) S-SW 202 0 min 0,0 UV-I 0 W/m 8,2 C 10,1 C 6,4 km/h (2 Bft)
23.05.2020 03:23 10,1 C 8,9 C 88 % 1022,2 hPa 0,0 l/m 6,4 km/h (2 Bft) S-SW 202 0 min 0,0 UV-I 0 W/m 8,2 C 10,1 C 8,0 km/h (2 Bft)
23.05.2020 03:24 10,1 C 8,9 C 88 % 1022,2 hPa 0,0 l/m 3,2 km/h (1 Bft) S-SW 202 0 min 0,0 UV-I 0 W/m 8,2 C 10,1 C 6,4 km/h (2 Bft)
23.05.2020 03:25 10,1 C 8,9 C 88 % 1022,2 hPa 0,0 l/m 3,2 km/h (1 Bft) S-SW 202 0 min 0,0 UV-I 0 W/m 8,2 C 10,1 C 4,8 km/h (1 Bft)
23.05.2020 03:26 10,1 C 8,9 C 88 % 1022,2 hPa 0,0 l/m 4,8 km/h (1 Bft) S-SW 202 0 min 0,0 UV-I 0 W/m 8,2 C 10,1 C 6,4 km/h (2 Bft)
23.05.2020 03:27 10,1 C 8,9 C 88 % 1022,2 hPa 0,0 l/m 6,4 km/h (2 Bft) S-SW 202 0 min 0,0 UV-I 0 W/m 8,2 C 10,1 C 9,7 km/h (2 Bft)
23.05.2020 03:28 10,2 C 8,9 C 87 % 1022,2 hPa 0,0 l/m 4,8 km/h (1 Bft) S-SW 202 0 min 0,0 UV-I 0 W/m 8,1 C 10,2 C 6,4 km/h (2 Bft)
23.05.2020 03:29 10,2 C 8,9 C 88 % 1022,2 hPa 0,0 l/m 4,8 km/h (1 Bft) SW 225 0 min 0,0 UV-I 0 W/m 8,3 C 10,2 C 6,4 km/h (2 Bft)
23.05.2020 03:30 10,1 C 8,9 C 88 % 1022,1 hPa 0,0 l/m 4,8 km/h (1 Bft) S-SW 202 0 min 0,0 UV-I 0 W/m 8,2 C 10,1 C 8,0 km/h (2 Bft)
23.05.2020 03:31 10,1 C 8,9 C 88 % 1022,2 hPa 0,0 l/m 4,8 km/h (1 Bft) S-SW 202 0 min 0,0 UV-I 0 W/m 8,2 C 10,1 C 8,0 km/h (2 Bft)
23.05.2020 03:32 10,1 C 8,9 C 88 % 1022,2 hPa 0,0 l/m 4,8 km/h (1 Bft) S-SW 202 0 min 0,0 UV-I 0 W/m 8,2 C 10,1 C 6,4 km/h (2 Bft)
23.05.2020 03:33 10,1 C 8,9 C 88 % 1022,2 hPa 0,0 l/m 6,4 km/h (2 Bft) SW 225 0 min 0,0 UV-I 0 W/m 8,2 C 10,1 C 9,7 km/h (2 Bft)
23.05.2020 03:34 10,1 C 8,9 C 88 % 1022,3 hPa 0,0 l/m 6,4 km/h (2 Bft) S-SW 202 0 min 0,0 UV-I 0 W/m 8,2 C 10,1 C 9,7 km/h (2 Bft)
23.05.2020 03:35 10,1 C 8,9 C 88 % 1022,4 hPa 0,0 l/m 8,0 km/h (2 Bft) SW 225 0 min 0,0 UV-I 0 W/m 8,2 C 9,0 C 9,7 km/h (2 Bft)
23.05.2020 03:36 10,1 C 8,9 C 88 % 1022,5 hPa 0,0 l/m 8,0 km/h (2 Bft) SW 225 0 min 0,0 UV-I 0 W/m 8,2 C 9,0 C 11,3 km/h (2 Bft)
23.05.2020 03:37 10,1 C 8,9 C 88 % 1022,5 hPa 0,0 l/m 8,0 km/h (2 Bft) S-SW 202 0 min 0,0 UV-I 0 W/m 8,2 C 9,0 C 11,3 km/h (2 Bft)
23.05.2020 03:38 10,1 C 8,9 C 88 % 1022,5 hPa 0,0 l/m 6,4 km/h (2 Bft) S-SW 202 0 min 0,0 UV-I 0 W/m 8,2 C 10,1 C 8,0 km/h (2 Bft)
23.05.2020 03:39 10,1 C 8,9 C 88 % 1022,3 hPa 0,0 l/m 6,4 km/h (2 Bft) S-SW 202 0 min 0,0 UV-I 0 W/m 8,2 C 10,1 C 9,7 km/h (2 Bft)
23.05.2020 03:40 10,1 C 8,9 C 88 % 1022,4 hPa 0,0 l/m 6,4 km/h (2 Bft) S-SW 202 0 min 0,0 UV-I 0 W/m 8,2 C 10,1 C 8,0 km/h (2 Bft)
23.05.2020 03:41 10,1 C 8,9 C 88 % 1022,4 hPa 0,0 l/m 4,8 km/h (1 Bft) S-SW 202 0 min 0,0 UV-I 0 W/m 8,2 C 10,1 C 9,7 km/h (2 Bft)
23.05.2020 03:42 10,1 C 8,9 C 88 % 1022,4 hPa 0,0 l/m 6,4 km/h (2 Bft) S-SW 202 0 min 0,0 UV-I 0 W/m 8,2 C 10,1 C 8,0 km/h (2 Bft)
23.05.2020 03:43 10,0 C 8,9 C 88 % 1022,5 hPa 0,0 l/m 6,4 km/h (2 Bft) S-SW 202 0 min 0,0 UV-I 0 W/m 8,1 C 10,0 C 8,0 km/h (2 Bft)
23.05.2020 03:44 9,9 C 8,9 C 87 % 1022,4 hPa 0,0 l/m 8,0 km/h (2 Bft) S-SW 202 0 min 0,0 UV-I 0 W/m 7,8 C 8,7 C 11,3 km/h (2 Bft)
23.05.2020 03:45 9,9 C 8,9 C 87 % 1022,5 hPa 0,0 l/m 4,8 km/h (1 Bft) S-SW 202 0 min 0,0 UV-I 0 W/m 7,8 C 9,9 C 8,0 km/h (2 Bft)
23.05.2020 03:46 10,0 C 8,9 C 87 % 1022,4 hPa 0,0 l/m 8,0 km/h (2 Bft) SW 225 0 min 0,0 UV-I 0 W/m 7,9 C 8,9 C 12,9 km/h (3 Bft)
23.05.2020 03:47 9,9 C 8,9 C 87 % 1022,5 hPa 0,0 l/m 6,4 km/h (2 Bft) S-SW 202 0 min 0,0 UV-I 0 W/m 7,8 C 9,9 C 8,0 km/h (2 Bft)
23.05.2020 03:48 9,9 C 8,9 C 87 % 1022,4 hPa 0,0 l/m 6,4 km/h (2 Bft) S-SW 202 0 min 0,0 UV-I 0 W/m 7,8 C 9,9 C 9,7 km/h (2 Bft)
23.05.2020 03:49 10,0 C 8,9 C 87 % 1022,5 hPa 0,0 l/m 4,8 km/h (1 Bft) SW 225 0 min 0,0 UV-I 0 W/m 7,9 C 10,0 C 6,4 km/h (2 Bft)
23.05.2020 03:50 10,0 C 8,9 C 87 % 1022,4 hPa 0,0 l/m 4,8 km/h (1 Bft) S-SW 202 0 min 0,0 UV-I 0 W/m 7,9 C 10,0 C 11,3 km/h (2 Bft)
23.05.2020 03:51 10,0 C 8,9 C 86 % 1022,4 hPa 0,0 l/m 8,0 km/h (2 Bft) SW 225 0 min 0,0 UV-I 0 W/m 7,8 C 8,9 C 12,9 km/h (3 Bft)
23.05.2020 03:52 9,9 C 8,9 C 86 % 1022,5 hPa 0,0 l/m 4,8 km/h (1 Bft) SW 225 0 min 0,0 UV-I 0 W/m 7,7 C 9,9 C 9,7 km/h (2 Bft)
23.05.2020 03:53 10,0 C 8,9 C 86 % 1022,5 hPa 0,0 l/m 8,0 km/h (2 Bft) S-SW 202 0 min 0,0 UV-I 0 W/m 7,8 C 8,9 C 11,3 km/h (2 Bft)
23.05.2020 03:54 10,0 C 8,9 C 86 % 1022,4 hPa 0,0 l/m 8,0 km/h (2 Bft) S-SW 202 0 min 0,0 UV-I 0 W/m 7,8 C 8,9 C 11,3 km/h (2 Bft)
23.05.2020 03:55 10,0 C 8,9 C 86 % 1022,4 hPa 0,0 l/m 8,0 km/h (2 Bft) S-SW 202 0 min 0,0 UV-I 0 W/m 7,8 C 8,9 C 9,7 km/h (2 Bft)
23.05.2020 03:56 10,0 C 8,9 C 86 % 1022,4 hPa 0,0 l/m 4,8 km/h (1 Bft) SW 225 0 min 0,0 UV-I 0 W/m 7,8 C 10,0 C 6,4 km/h (2 Bft)
23.05.2020 03:57 9,9 C 8,9 C 86 % 1022,4 hPa 0,0 l/m 6,4 km/h (2 Bft) SW 225 0 min 0,0 UV-I 0 W/m 7,7 C 9,9 C 8,0 km/h (2 Bft)
23.05.2020 03:58 9,9 C 8,9 C 86 % 1022,4 hPa 0,0 l/m 8,0 km/h (2 Bft) S-SW 202 0 min 0,0 UV-I 0 W/m 7,7 C 8,7 C 9,7 km/h (2 Bft)
23.05.2020 03:59 9,9 C 8,9 C 86 % 1022,3 hPa 0,0 l/m 4,8 km/h (1 Bft) S-SW 202 0 min 0,0 UV-I 0 W/m 7,7 C 9,9 C 8,0 km/h (2 Bft)
23.05.2020 04:00 9,9 C 8,9 C 86 % 1022,4 hPa 0,0 l/m 6,4 km/h (2 Bft) S-SW 202 0 min 0,0 UV-I 0 W/m 7,7 C 9,9 C 8,0 km/h (2 Bft)
23.05.2020 04:01 9,9 C 8,9 C 86 % 1022,4 hPa 0,0 l/m 4,8 km/h (1 Bft) S-SW 202 0 min 0,0 UV-I 0 W/m 7,7 C 9,9 C 8,0 km/h (2 Bft)
23.05.2020 04:02 9,9 C 8,9 C 86 % 1022,4 hPa 0,0 l/m 4,8 km/h (1 Bft) SW 225 0 min 0,0 UV-I 0 W/m 7,7 C 9,9 C 8,0 km/h (2 Bft)
23.05.2020 04:03 9,9 C 8,9 C 86 % 1022,5 hPa 0,0 l/m 6,4 km/h (2 Bft) S-SW 202 0 min 0,0 UV-I 0 W/m 7,7 C 9,9 C 8,0 km/h (2 Bft)
23.05.2020 04:04 9,9 C 8,9 C 86 % 1022,4 hPa 0,0 l/m 6,4 km/h (2 Bft) SW 225 0 min 0,0 UV-I 0 W/m 7,7 C 9,9 C 8,0 km/h (2 Bft)
23.05.2020 04:05 9,8 C 8,9 C 86 % 1022,3 hPa 0,0 l/m 4,8 km/h (1 Bft) SW 225 0 min 0,0 UV-I 0 W/m 7,6 C 9,8 C 6,4 km/h (2 Bft)
23.05.2020 04:06 9,9 C 8,9 C 86 % 1022,4 hPa 0,0 l/m 3,2 km/h (1 Bft) S-SW 202 0 min 0,0 UV-I 0 W/m 7,7 C 9,9 C 6,4 km/h (2 Bft)
23.05.2020 04:07 9,8 C 8,9 C 86 % 1022,4 hPa 0,0 l/m 3,2 km/h (1 Bft) S-SW 202 0 min 0,0 UV-I 0 W/m 7,6 C 9,8 C 6,4 km/h (2 Bft)
23.05.2020 04:08 9,8 C 8,9 C 86 % 1022,4 hPa 0,0 l/m 6,4 km/h (2 Bft) S-SW 202 0 min 0,0 UV-I 0 W/m 7,6 C 9,8 C 12,9 km/h (3 Bft)
23.05.2020 04:09 9,8 C 8,9 C 86 % 1022,3 hPa 0,0 l/m 6,4 km/h (2 Bft) SW 225 0 min 0,0 UV-I 0 W/m 7,6 C 9,8 C 9,7 km/h (2 Bft)
23.05.2020 04:10 9,8 C 8,9 C 86 % 1022,4 hPa 0,0 l/m 4,8 km/h (1 Bft) W-SW 247 0 min 0,0 UV-I 0 W/m 7,6 C 9,8 C 8,0 km/h (2 Bft)
23.05.2020 04:11 9,8 C 8,9 C 87 % 1022,4 hPa 0,0 l/m 4,8 km/h (1 Bft) SW 225 0 min 0,0 UV-I 0 W/m 7,7 C 9,8 C 8,0 km/h (2 Bft)
23.05.2020 04:12 9,8 C 8,9 C 86 % 1022,4 hPa 0,0 l/m 3,2 km/h (1 Bft) SW 225 0 min 0,0 UV-I 0 W/m 7,6 C 9,8 C 4,8 km/h (1 Bft)
23.05.2020 04:13 9,8 C 8,9 C 87 % 1022,4 hPa 0,0 l/m 3,2 km/h (1 Bft) S-SW 202 0 min 0,0 UV-I 0 W/m 7,7 C 9,8 C 6,4 km/h (2 Bft)
23.05.2020 04:14 9,8 C 8,9 C 87 % 1022,2 hPa 0,0 l/m 1,6 km/h (1 Bft) S-SW 202 0 min 0,0 UV-I 0 W/m 7,7 C 9,8 C 4,8 km/h (1 Bft)
23.05.2020 04:15 9,7 C 8,9 C 87 % 1022,2 hPa 0,0 l/m 3,2 km/h (1 Bft) S-SW 202 0 min 0,0 UV-I 0 W/m 7,6 C 9,7 C 4,8 km/h (1 Bft)
23.05.2020 04:16 9,7 C 8,9 C 87 % 1022,2 hPa 0,0 l/m 3,2 km/h (1 Bft) SW 225 0 min 0,0 UV-I 0 W/m 7,6 C 9,7 C 6,4 km/h (2 Bft)
23.05.2020 04:17 9,7 C 8,9 C 87 % 1022,2 hPa 0,0 l/m 3,2 km/h (1 Bft) SW 225 0 min 0,0 UV-I 0 W/m 7,6 C 9,7 C 6,4 km/h (2 Bft)
23.05.2020 04:18 9,7 C 8,9 C 87 % 1022,2 hPa 0,0 l/m 3,2 km/h (1 Bft) SW 225 0 min 0,0 UV-I 0 W/m 7,6 C 9,7 C 6,4 km/h (2 Bft)
23.05.2020 04:19 9,7 C 8,9 C 87 % 1022,2 hPa 0,0 l/m 4,8 km/h (1 Bft) SW 225 0 min 0,0 UV-I 0 W/m 7,6 C 9,7 C 6,4 km/h (2 Bft)
23.05.2020 04:20 9,7 C 8,9 C 87 % 1022,2 hPa 0,0 l/m 4,8 km/h (1 Bft) SW 225 0 min 0,0 UV-I 0 W/m 7,6 C 9,7 C 4,8 km/h (1 Bft)
23.05.2020 04:21 9,7 C 8,9 C 87 % 1022,2 hPa 0,0 l/m 4,8 km/h (1 Bft) SW 225 0 min 0,0 UV-I 0 W/m 7,6 C 9,7 C 8,0 km/h (2 Bft)
23.05.2020 04:22 9,7 C 8,9 C 87 % 1022,2 hPa 0,0 l/m 6,4 km/h (2 Bft) SW 225 0 min 0,0 UV-I 0 W/m 7,6 C 9,7 C 9,7 km/h (2 Bft)
23.05.2020 04:23 9,7 C 8,9 C 87 % 1022,2 hPa 0,0 l/m 3,2 km/h (1 Bft) S-SW 202 0 min 0,0 UV-I 0 W/m 7,6 C 9,7 C 4,8 km/h (1 Bft)
23.05.2020 04:24 9,7 C 8,9 C 87 % 1022,2 hPa 0,0 l/m 3,2 km/h (1 Bft) S-SW 202 0 min 0,0 UV-I 0 W/m 7,6 C 9,7 C 4,8 km/h (1 Bft)
23.05.2020 04:25 9,7 C 8,9 C 87 % 1022,2 hPa 0,0 l/m 3,2 km/h (1 Bft) S-SW 202 0 min 0,0 UV-I 0 W/m 7,6 C 9,7 C 6,4 km/h (2 Bft)
23.05.2020 04:26 9,7 C 8,9 C 87 % 1022,2 hPa 0,0 l/m 3,2 km/h (1 Bft) S-SW 202 0 min 0,0 UV-I 0 W/m 7,6 C 9,7 C 4,8 km/h (1 Bft)
23.05.2020 04:27 9,7 C 8,9 C 87 % 1022,2 hPa 0,0 l/m 4,8 km/h (1 Bft) S-SW 202 0 min 0,0 UV-I 0 W/m 7,6 C 9,7 C 6,4 km/h (2 Bft)
23.05.2020 04:28 9,7 C 8,9 C 87 % 1022,1 hPa 0,0 l/m 3,2 km/h (1 Bft) S-SW 202 0 min 0,0 UV-I 0 W/m 7,6 C 9,7 C 6,4 km/h (2 Bft)
23.05.2020 04:29 9,6 C 8,9 C 87 % 1022,1 hPa 0,0 l/m 4,8 km/h (1 Bft) S-SW 202 0 min 0,0 UV-I 0 W/m 7,5 C 9,6 C 6,4 km/h (2 Bft)
23.05.2020 04:30 9,6 C 8,9 C 87 % 1022,2 hPa 0,0 l/m 4,8 km/h (1 Bft) W-SW 247 0 min 0,0 UV-I 0 W/m 7,5 C 9,6 C 8,0 km/h (2 Bft)
23.05.2020 04:31 9,6 C 8,9 C 87 % 1022,2 hPa 0,0 l/m 3,2 km/h (1 Bft) W-SW 247 0 min 0,0 UV-I 0 W/m 7,5 C 9,6 C 4,8 km/h (1 Bft)
23.05.2020 04:32 9,6 C 8,9 C 87 % 1022,1 hPa 0,0 l/m 3,2 km/h (1 Bft) W-SW 247 0 min 0,0 UV-I 0 W/m 7,5 C 9,6 C 4,8 km/h (1 Bft)
23.05.2020 04:33 9,6 C 8,9 C 87 % 1022,1 hPa 0,0 l/m 3,2 km/h (1 Bft) W-SW 247 0 min 0,0 UV-I 0 W/m 7,5 C 9,6 C 4,8 km/h (1 Bft)
23.05.2020 04:34 9,6 C 8,9 C 87 % 1022,1 hPa 0,0 l/m 1,6 km/h (1 Bft) W-SW 247 0 min 0,0 UV-I 0 W/m 7,5 C 9,6 C 1,6 km/h (1 Bft)
23.05.2020 04:35 9,6 C 8,9 C 88 % 1022,1 hPa 0,0 l/m 1,6 km/h (1 Bft) W-SW 247 0 min 0,0 UV-I 0 W/m 7,7 C 9,6 C 3,2 km/h (1 Bft)
23.05.2020 04:36 9,6 C 8,9 C 88 % 1022,2 hPa 0,0 l/m 1,6 km/h (1 Bft) W-SW 247 0 min 0,0 UV-I 0 W/m 7,7 C 9,6 C 3,2 km/h (1 Bft)
23.05.2020 04:37 9,6 C 8,9 C 88 % 1022,1 hPa 0,0 l/m 1,6 km/h (1 Bft) W-SW 247 0 min 0,0 UV-I 0 W/m 7,7 C 9,6 C 3,2 km/h (1 Bft)
23.05.2020 04:38 9,6 C 8,9 C 88 % 1022,2 hPa 0,0 l/m 3,2 km/h (1 Bft) SW 225 0 min 0,0 UV-I 0 W/m 7,7 C 9,6 C 6,4 km/h (2 Bft)
23.05.2020 04:39 9,6 C 8,9 C 88 % 1022,2 hPa 0,0 l/m 4,8 km/h (1 Bft) SW 225 0 min 0,0 UV-I 0 W/m 7,7 C 9,6 C 8,0 km/h (2 Bft)
23.05.2020 04:40 9,6 C 8,3 C 88 % 1022,2 hPa 0,0 l/m 3,2 km/h (1 Bft) SW 225 0 min 0,0 UV-I 0 W/m 7,7 C 9,6 C 4,8 km/h (1 Bft)
23.05.2020 04:41 9,6 C 8,9 C 88 % 1022,1 hPa 0,0 l/m 4,8 km/h (1 Bft) SW 225 0 min 0,0 UV-I 0 W/m 7,7 C 9,6 C 6,4 km/h (2 Bft)
23.05.2020 04:42 9,6 C 8,3 C 88 % 1022,2 hPa 0,0 l/m 3,2 km/h (1 Bft) SW 225 0 min 0,0 UV-I 0 W/m 7,7 C 9,6 C 6,4 km/h (2 Bft)
23.05.2020 04:43 9,6 C 8,9 C 88 % 1022,1 hPa 0,0 l/m 4,8 km/h (1 Bft) SW 225 0 min 0,0 UV-I 0 W/m 7,7 C 9,6 C 8,0 km/h (2 Bft)
23.05.2020 04:44 9,6 C 8,9 C 88 % 1022,2 hPa 0,0 l/m 6,4 km/h (2 Bft) S-SW 202 0 min 0,0 UV-I 0 W/m 7,7 C 9,6 C 11,3 km/h (2 Bft)
23.05.2020 04:45 9,6 C 8,9 C 88 % 1022,2 hPa 0,0 l/m 6,4 km/h (2 Bft) SW 225 0 min 0,0 UV-I 0 W/m 7,7 C 9,6 C 6,4 km/h (2 Bft)
23.05.2020 04:46 9,6 C 8,9 C 88 % 1022,2 hPa 0,0 l/m 4,8 km/h (1 Bft) SW 225 0 min 0,0 UV-I 0 W/m 7,7 C 9,6 C 6,4 km/h (2 Bft)
23.05.2020 04:47 9,6 C 8,9 C 88 % 1022,2 hPa 0,0 l/m 4,8 km/h (1 Bft) SW 225 0 min 0,0 UV-I 0 W/m 7,7 C 9,6 C 6,4 km/h (2 Bft)
23.05.2020 04:48 9,6 C 8,9 C 88 % 1022,1 hPa 0,0 l/m 4,8 km/h (1 Bft) SW 225 0 min 0,0 UV-I 0 W/m 7,7 C 9,6 C 8,0 km/h (2 Bft)
23.05.2020 04:49 9,6 C 8,9 C 88 % 1022,2 hPa 0,0 l/m 6,4 km/h (2 Bft) SW 225 0 min 0,0 UV-I 0 W/m 7,7 C 9,6 C 8,0 km/h (2 Bft)
23.05.2020 04:50 9,6 C 8,9 C 88 % 1022,2 hPa 0,0 l/m 3,2 km/h (1 Bft) SW 225 0 min 0,0 UV-I 0 W/m 7,7 C 9,6 C 4,8 km/h (1 Bft)
23.05.2020 04:51 9,6 C 8,9 C 88 % 1022,2 hPa 0,0 l/m 4,8 km/h (1 Bft) SW 225 0 min 0,0 UV-I 0 W/m 7,7 C 9,6 C 6,4 km/h (2 Bft)
23.05.2020 04:52 9,6 C 8,9 C 88 % 1022,2 hPa 0,0 l/m 3,2 km/h (1 Bft) SW 225 0 min 0,0 UV-I 0 W/m 7,7 C 9,6 C 6,4 km/h (2 Bft)
23.05.2020 04:53 9,6 C 8,9 C 88 % 1022,2 hPa 0,0 l/m 3,2 km/h (1 Bft) SW 225 0 min 0,0 UV-I 0 W/m 7,7 C 9,6 C 6,4 km/h (2 Bft)
23.05.2020 04:54 9,7 C 8,9 C 88 % 1022,2 hPa 0,0 l/m 4,8 km/h (1 Bft) SW 225 0 min 0,0 UV-I 0 W/m 7,8 C 9,7 C 6,4 km/h (2 Bft)
23.05.2020 04:55 9,6 C 8,9 C 88 % 1022,1 hPa 0,0 l/m 3,2 km/h (1 Bft) S-SW 202 0 min 0,0 UV-I 0 W/m 7,7 C 9,6 C 6,4 km/h (2 Bft)
23.05.2020 04:56 9,6 C 8,9 C 88 % 1022,2 hPa 0,0 l/m 4,8 km/h (1 Bft) SW 225 0 min 0,0 UV-I 0 W/m 7,7 C 9,6 C 8,0 km/h (2 Bft)
23.05.2020 04:57 9,6 C 8,9 C 88 % 1022,2 hPa 0,0 l/m 6,4 km/h (2 Bft) SW 225 0 min 0,0 UV-I 0 W/m 7,7 C 9,6 C 9,7 km/h (2 Bft)
23.05.2020 04:58 9,6 C 8,9 C 88 % 1022,2 hPa 0,0 l/m 3,2 km/h (1 Bft) SW 225 0 min 0,0 UV-I 0 W/m 7,7 C 9,6 C 4,8 km/h (1 Bft)
23.05.2020 04:59 9,7 C 8,9 C 88 % 1022,2 hPa 0,0 l/m 9,7 km/h (2 Bft) S-SW 202 0 min 0,0 UV-I 0 W/m 7,8 C 7,4 C 14,5 km/h (3 Bft)
23.05.2020 05:00 9,7 C 8,9 C 88 % 1022,2 hPa 0,0 l/m 6,4 km/h (2 Bft) S-SW 202 0 min 0,0 UV-I 0 W/m 7,8 C 9,7 C 9,7 km/h (2 Bft)
23.05.2020 05:01 9,7 C 8,9 C 87 % 1022,1 hPa 0,0 l/m 6,4 km/h (2 Bft) S-SW 202 0 min 0,0 UV-I 0 W/m 7,6 C 9,7 C 8,0 km/h (2 Bft)
23.05.2020 05:02 9,7 C 8,9 C 87 % 1022,1 hPa 0,0 l/m 4,8 km/h (1 Bft) S-SW 202 0 min 0,0 UV-I 0 W/m 7,6 C 9,7 C 9,7 km/h (2 Bft)
23.05.2020 05:03 9,8 C 8,9 C 87 % 1022,1 hPa 0,0 l/m 6,4 km/h (2 Bft) S-SW 202 0 min 0,0 UV-I 0 W/m 7,7 C 9,8 C 8,0 km/h (2 Bft)
23.05.2020 05:04 9,7 C 8,9 C 87 % 1022,1 hPa 0,0 l/m 3,2 km/h (1 Bft) S-SW 202 0 min 0,0 UV-I 0 W/m 7,6 C 9,7 C 8,0 km/h (2 Bft)
23.05.2020 05:05 9,8 C 8,9 C 87 % 1022,1 hPa 0,0 l/m 3,2 km/h (1 Bft) S-SW 202 0 min 0,0 UV-I 0 W/m 7,7 C 9,8 C 6,4 km/h (2 Bft)
23.05.2020 05:06 9,8 C 8,9 C 87 % 1022,1 hPa 0,0 l/m 1,6 km/h (1 Bft) S-SW 202 0 min 0,0 UV-I 0 W/m 7,7 C 9,8 C 3,2 km/h (1 Bft)
23.05.2020 05:07 9,8 C 8,9 C 87 % 1022,0 hPa 0,0 l/m 3,2 km/h (1 Bft) S-SW 202 0 min 0,0 UV-I 0 W/m 7,7 C 9,8 C 4,8 km/h (1 Bft)
23.05.2020 05:08 9,8 C 8,9 C 87 % 1022,1 hPa 0,0 l/m 1,6 km/h (1 Bft) S-SW 202 0 min 0,0 UV-I 0 W/m 7,7 C 9,8 C 3,2 km/h (1 Bft)
23.05.2020 05:09 9,8 C 8,9 C 87 % 1022,0 hPa 0,0 l/m 3,2 km/h (1 Bft) S-SW 202 0 min 0,0 UV-I 0 W/m 7,7 C 9,8 C 4,8 km/h (1 Bft)
23.05.2020 05:10 9,7 C 8,9 C 87 % 1022,0 hPa 0,0 l/m 3,2 km/h (1 Bft) S-SW 202 0 min 0,0 UV-I 0 W/m 7,6 C 9,7 C 6,4 km/h (2 Bft)
23.05.2020 05:11 9,7 C 8,9 C 87 % 1022,0 hPa 0,0 l/m 4,8 km/h (1 Bft) S-SW 202 0 min 0,0 UV-I 0 W/m 7,6 C 9,7 C 6,4 km/h (2 Bft)
23.05.2020 05:12 9,7 C 8,9 C 88 % 1022,0 hPa 0,0 l/m 6,4 km/h (2 Bft) SW 225 0 min 0,0 UV-I 0 W/m 7,8 C 9,7 C 9,7 km/h (2 Bft)
23.05.2020 05:13 9,7 C 8,9 C 88 % 1022,0 hPa 0,0 l/m 6,4 km/h (2 Bft) SW 225 0 min 0,0 UV-I 0 W/m 7,8 C 9,7 C 9,7 km/h (2 Bft)
23.05.2020 05:14 9,7 C 8,9 C 88 % 1022,1 hPa 0,0 l/m 6,4 km/h (2 Bft) SW 225 0 min 0,0 UV-I 0 W/m 7,8 C 9,7 C 9,7 km/h (2 Bft)
23.05.2020 05:15 9,7 C 8,9 C 88 % 1022,0 hPa 0,0 l/m 4,8 km/h (1 Bft) SW 225 0 min 0,0 UV-I 0 W/m 7,8 C 9,7 C 6,4 km/h (2 Bft)
23.05.2020 05:16 9,7 C 8,9 C 88 % 1022,0 hPa 0,0 l/m 8,0 km/h (2 Bft) S-SW 202 0 min 0,0 UV-I 0 W/m 7,8 C 8,5 C 9,7 km/h (2 Bft)
23.05.2020 05:17 9,7 C 8,9 C 88 % 1022,1 hPa 0,0 l/m 6,4 km/h (2 Bft) S-SW 202 0 min 0,0 UV-I 0 W/m 7,8 C 9,7 C 8,0 km/h (2 Bft)
23.05.2020 05:18 9,7 C 8,9 C 88 % 1022,1 hPa 0,0 l/m 8,0 km/h (2 Bft) S-SW 202 0 min 0,0 UV-I 0 W/m 7,8 C 8,5 C 11,3 km/h (2 Bft)
23.05.2020 05:19 9,7 C 8,9 C 88 % 1022,1 hPa 0,0 l/m 8,0 km/h (2 Bft) SW 225 0 min 0,0 UV-I 0 W/m 7,8 C 8,5 C 11,3 km/h (2 Bft)
23.05.2020 05:20 9,7 C 8,9 C 88 % 1022,1 hPa 0,0 l/m 6,4 km/h (2 Bft) SW 225 0 min 0,0 UV-I 0 W/m 7,8 C 9,7 C 9,7 km/h (2 Bft)
23.05.2020 05:21 9,7 C 8,9 C 88 % 1022,1 hPa 0,0 l/m 6,4 km/h (2 Bft) SW 225 0 min 0,0 UV-I 0 W/m 7,8 C 9,7 C 9,7 km/h (2 Bft)
23.05.2020 05:22 9,7 C 8,9 C 88 % 1022,1 hPa 0,0 l/m 8,0 km/h (2 Bft) S-SW 202 0 min 0,0 UV-I 0 W/m 7,8 C 8,5 C 9,7 km/h (2 Bft)
23.05.2020 05:23 9,7 C 8,9 C 88 % 1022,1 hPa 0,0 l/m 8,0 km/h (2 Bft) SW 225 0 min 0,0 UV-I 0 W/m 7,8 C 8,5 C 11,3 km/h (2 Bft)
23.05.2020 05:24 9,7 C 8,9 C 88 % 1022,1 hPa 0,0 l/m 6,4 km/h (2 Bft) SW 225 0 min 0,0 UV-I 0 W/m 7,8 C 9,7 C 8,0 km/h (2 Bft)
23.05.2020 05:25 9,7 C 8,9 C 88 % 1022,1 hPa 0,0 l/m 6,4 km/h (2 Bft) S-SW 202 0 min 0,0 UV-I 0 W/m 7,8 C 9,7 C 14,5 km/h (3 Bft)
23.05.2020 05:26 9,7 C 8,9 C 88 % 1022,2 hPa 0,0 l/m 6,4 km/h (2 Bft) S-SW 202 0 min 0,0 UV-I 0 W/m 7,8 C 9,7 C 9,7 km/h (2 Bft)
23.05.2020 05:27 9,7 C 8,9 C 88 % 1022,2 hPa 0,0 l/m 6,4 km/h (2 Bft) S-SW 202 0 min 0,0 UV-I 0 W/m 7,8 C 9,7 C 9,7 km/h (2 Bft)
23.05.2020 05:28 9,8 C 8,9 C 88 % 1022,2 hPa 0,0 l/m 4,8 km/h (1 Bft) S 180 0 min 0,0 UV-I 0 W/m 7,9 C 9,8 C 8,0 km/h (2 Bft)
23.05.2020 05:29 9,8 C 8,9 C 88 % 1022,2 hPa 0,0 l/m 9,7 km/h (2 Bft) SW 225 0 min 0,0 UV-I 0 W/m 7,9 C 7,6 C 14,5 km/h (3 Bft)
23.05.2020 05:30 9,8 C 8,9 C 87 % 1022,2 hPa 0,0 l/m 8,0 km/h (2 Bft) S-SW 202 0 min 0,0 UV-I 0 W/m 7,7 C 8,6 C 9,7 km/h (2 Bft)
23.05.2020 05:31 9,8 C 8,9 C 87 % 1022,2 hPa 0,0 l/m 6,4 km/h (2 Bft) S-SW 202 0 min 0,0 UV-I 0 W/m 7,7 C 9,8 C 11,3 km/h (2 Bft)
23.05.2020 05:32 9,8 C 8,9 C 87 % 1022,3 hPa 0,0 l/m 8,0 km/h (2 Bft) S-SW 202 0 min 0,0 UV-I 0 W/m 7,7 C 8,6 C 16,1 km/h (3 Bft)
23.05.2020 05:33 9,9 C 8,9 C 87 % 1022,3 hPa 0,0 l/m 9,7 km/h (2 Bft) S-SW 202 0 min 0,0 UV-I 0 W/m 7,8 C 7,7 C 16,1 km/h (3 Bft)
23.05.2020 05:34 9,9 C 8,9 C 87 % 1022,2 hPa 0,0 l/m 9,7 km/h (2 Bft) S-SW 202 0 min 0,0 UV-I 0 W/m 7,8 C 7,7 C 14,5 km/h (3 Bft)
23.05.2020 05:35 9,9 C 8,9 C 87 % 1022,3 hPa 0,0 l/m 8,0 km/h (2 Bft) S-SW 202 0 min 0,0 UV-I 0 W/m 7,8 C 8,7 C 8,0 km/h (2 Bft)
23.05.2020 05:36 9,8 C 8,9 C 87 % 1022,3 hPa 0,0 l/m 8,0 km/h (2 Bft) S-SW 202 0 min 0,0 UV-I 0 W/m 7,7 C 8,6 C 11,3 km/h (2 Bft)
23.05.2020 05:37 9,8 C 8,9 C 87 % 1022,2 hPa 0,0 l/m 9,7 km/h (2 Bft) S-SW 202 0 min 0,0 UV-I 0 W/m 7,7 C 7,6 C 19,3 km/h (3 Bft)
23.05.2020 05:38 9,9 C 8,9 C 86 % 1022,3 hPa 0,0 l/m 11,3 km/h (2 Bft) S-SW 202 0 min 0,0 UV-I 0 W/m 7,7 C 6,8 C 16,1 km/h (3 Bft)
23.05.2020 05:39 9,9 C 8,9 C 86 % 1022,2 hPa 0,0 l/m 8,0 km/h (2 Bft) SW 225 0 min 0,0 UV-I 0 W/m 7,7 C 8,7 C 14,5 km/h (3 Bft)
23.05.2020 05:40 9,9 C 8,9 C 86 % 1022,2 hPa 0,0 l/m 8,0 km/h (2 Bft) S-SW 202 0 min 0,0 UV-I 0 W/m 7,7 C 8,7 C 12,9 km/h (3 Bft)
23.05.2020 05:41 9,9 C 8,9 C 86 % 1022,2 hPa 0,0 l/m 6,4 km/h (2 Bft) S-SW 202 0 min 0,0 UV-I 0 W/m 7,7 C 9,9 C 9,7 km/h (2 Bft)
23.05.2020 05:42 9,9 C 8,9 C 86 % 1022,2 hPa 0,0 l/m 8,0 km/h (2 Bft) S-SW 202 0 min 0,0 UV-I 0 W/m 7,7 C 8,7 C 11,3 km/h (2 Bft)
23.05.2020 05:43 9,9 C 8,9 C 86 % 1022,2 hPa 0,0 l/m 8,0 km/h (2 Bft) S-SW 202 0 min 0,0 UV-I 0 W/m 7,7 C 8,7 C 9,7 km/h (2 Bft)
23.05.2020 05:44 9,8 C 8,9 C 86 % 1022,2 hPa 0,0 l/m 9,7 km/h (2 Bft) S-SW 202 0 min 0,0 UV-I 0 W/m 7,6 C 7,6 C 12,9 km/h (3 Bft)
23.05.2020 05:45 9,8 C 8,9 C 86 % 1022,2 hPa 0,0 l/m 9,7 km/h (2 Bft) S-SW 202 0 min 0,0 UV-I 0 W/m 7,6 C 7,6 C 12,9 km/h (3 Bft)
23.05.2020 05:46 9,8 C 8,9 C 86 % 1022,4 hPa 0,0 l/m 8,0 km/h (2 Bft) SW 225 0 min 0,0 UV-I 0 W/m 7,6 C 8,6 C 14,5 km/h (3 Bft)
23.05.2020 05:47 9,8 C 8,9 C 86 % 1022,4 hPa 0,0 l/m 11,3 km/h (2 Bft) S-SW 202 0 min 0,0 UV-I 0 W/m 7,6 C 6,6 C 14,5 km/h (3 Bft)
23.05.2020 05:48 9,8 C 8,9 C 86 % 1022,3 hPa 0,0 l/m 9,7 km/h (2 Bft) S-SW 202 0 min 0,0 UV-I 0 W/m 7,6 C 7,6 C 14,5 km/h (3 Bft)
23.05.2020 05:49 9,9 C 8,9 C 86 % 1022,3 hPa 0,0 l/m 9,7 km/h (2 Bft) S-SW 202 0 min 0,0 UV-I 0 W/m 7,7 C 7,7 C 17,7 km/h (3 Bft)
23.05.2020 05:50 9,9 C 8,9 C 86 % 1022,4 hPa 0,0 l/m 9,7 km/h (2 Bft) S-SW 202 0 min 0,0 UV-I 0 W/m 7,7 C 7,7 C 14,5 km/h (3 Bft)
23.05.2020 05:51 9,9 C 8,9 C 86 % 1022,4 hPa 0,0 l/m 6,4 km/h (2 Bft) S-SW 202 0 min 0,0 UV-I 0 W/m 7,7 C 9,9 C 11,3 km/h (2 Bft)
23.05.2020 05:52 9,9 C 8,9 C 86 % 1022,4 hPa 0,0 l/m 9,7 km/h (2 Bft) S-SW 202 0 min 0,0 UV-I 0 W/m 7,7 C 7,7 C 14,5 km/h (3 Bft)
23.05.2020 05:53 9,9 C 8,9 C 86 % 1022,3 hPa 0,0 l/m 8,0 km/h (2 Bft) S-SW 202 0 min 0,0 UV-I 0 W/m 7,7 C 8,7 C 12,9 km/h (3 Bft)
23.05.2020 05:54 9,9 C 8,9 C 86 % 1022,3 hPa 0,0 l/m 11,3 km/h (2 Bft) S 180 0 min 0,0 UV-I 5 W/m 7,7 C 6,8 C 19,3 km/h (3 Bft)
23.05.2020 05:55 9,9 C 8,9 C 86 % 1022,3 hPa 0,0 l/m 12,9 km/h (3 Bft) S-SW 202 0 min 0,0 UV-I 5 W/m 7,7 C 6,0 C 17,7 km/h (3 Bft)
23.05.2020 05:56 9,9 C 8,9 C 85 % 1022,2 hPa 0,0 l/m 11,3 km/h (2 Bft) SW 225 0 min 0,0 UV-I 5 W/m 7,5 C 6,8 C 12,9 km/h (3 Bft)
23.05.2020 05:57 9,9 C 8,9 C 85 % 1022,2 hPa 0,0 l/m 11,3 km/h (2 Bft) S-SW 202 0 min 0,0 UV-I 5 W/m 7,5 C 6,8 C 16,1 km/h (3 Bft)
23.05.2020 05:58 9,9 C 8,9 C 85 % 1022,2 hPa 0,0 l/m 9,7 km/h (2 Bft) SW 225 0 min 0,0 UV-I 7 W/m 7,5 C 7,7 C 14,5 km/h (3 Bft)
23.05.2020 05:59 9,9 C 8,9 C 86 % 1022,2 hPa 0,0 l/m 8,0 km/h (2 Bft) S-SW 202 0 min 0,0 UV-I 9 W/m 7,7 C 8,7 C 11,3 km/h (2 Bft)
23.05.2020 06:00 9,9 C 8,9 C 86 % 1022,2 hPa 0,0 l/m 8,0 km/h (2 Bft) SW 225 0 min 0,0 UV-I 11 W/m 7,7 C 8,7 C 11,3 km/h (2 Bft)
23.05.2020 06:01 9,9 C 8,9 C 86 % 1022,2 hPa 0,0 l/m 8,0 km/h (2 Bft) SW 225 0 min 0,0 UV-I 11 W/m 7,7 C 8,7 C 11,3 km/h (2 Bft)
23.05.2020 06:02 9,8 C 8,9 C 86 % 1022,3 hPa 0,0 l/m 6,4 km/h (2 Bft) SW 225 0 min 0,0 UV-I 12 W/m 7,6 C 9,8 C 9,7 km/h (2 Bft)
23.05.2020 06:03 9,8 C 8,9 C 86 % 1022,2 hPa 0,0 l/m 6,4 km/h (2 Bft) S-SW 202 0 min 0,0 UV-I 12 W/m 7,6 C 9,8 C 9,7 km/h (2 Bft)
23.05.2020 06:04 9,8 C 8,9 C 87 % 1022,3 hPa 0,0 l/m 8,0 km/h (2 Bft) SW 225 0 min 0,0 UV-I 14 W/m 7,7 C 8,6 C 9,7 km/h (2 Bft)
23.05.2020 06:05 9,8 C 8,9 C 87 % 1022,2 hPa 0,0 l/m 4,8 km/h (1 Bft) S-SW 202 0 min 0,0 UV-I 14 W/m 7,7 C 9,8 C 8,0 km/h (2 Bft)
23.05.2020 06:06 9,7 C 8,9 C 87 % 1022,2 hPa 0,0 l/m 6,4 km/h (2 Bft) S-SW 202 0 min 0,0 UV-I 14 W/m 7,6 C 9,7 C 9,7 km/h (2 Bft)
23.05.2020 06:07 9,8 C 8,9 C 87 % 1022,2 hPa 0,0 l/m 6,4 km/h (2 Bft) S-SW 202 0 min 0,0 UV-I 14 W/m 7,7 C 9,8 C 9,7 km/h (2 Bft)
23.05.2020 06:08 9,7 C 8,9 C 87 % 1022,2 hPa 0,0 l/m 3,2 km/h (1 Bft) SW 225 0 min 0,0 UV-I 14 W/m 7,6 C 9,7 C 6,4 km/h (2 Bft)
23.05.2020 06:09 9,7 C 8,9 C 87 % 1022,2 hPa 0,0 l/m 3,2 km/h (1 Bft) SW 225 0 min 0,0 UV-I 14 W/m 7,6 C 9,7 C 6,4 km/h (2 Bft)
23.05.2020 06:10 9,7 C 8,9 C 87 % 1022,2 hPa 0,0 l/m 4,8 km/h (1 Bft) SW 225 0 min 0,0 UV-I 14 W/m 7,6 C 9,7 C 8,0 km/h (2 Bft)
23.05.2020 06:11 9,7 C 8,9 C 87 % 1022,2 hPa 0,0 l/m 4,8 km/h (1 Bft) SW 225 0 min 0,0 UV-I 14 W/m 7,6 C 9,7 C 9,7 km/h (2 Bft)
23.05.2020 06:12 9,7 C 8,9 C 87 % 1022,2 hPa 0,0 l/m 6,4 km/h (2 Bft) SW 225 0 min 0,0 UV-I 14 W/m 7,6 C 9,7 C 8,0 km/h (2 Bft)
23.05.2020 06:13 9,7 C 8,9 C 87 % 1022,2 hPa 0,0 l/m 3,2 km/h (1 Bft) W-SW 247 0 min 0,0 UV-I 14 W/m 7,6 C 9,7 C 4,8 km/h (1 Bft)
23.05.2020 06:14 9,7 C 8,9 C 87 % 1022,2 hPa 0,0 l/m 4,8 km/h (1 Bft) S 180 0 min 0,0 UV-I 16 W/m 7,6 C 9,7 C 6,4 km/h (2 Bft)
23.05.2020 06:15 9,7 C 8,9 C 87 % 1022,2 hPa 0,0 l/m 3,2 km/h (1 Bft) S 180 0 min 0,0 UV-I 16 W/m 7,6 C 9,7 C 4,8 km/h (1 Bft)
23.05.2020 06:16 9,7 C 8,9 C 88 % 1022,2 hPa 0,0 l/m 3,2 km/h (1 Bft) S-SW 202 0 min 0,0 UV-I 16 W/m 7,8 C 9,7 C 6,4 km/h (2 Bft)
23.05.2020 06:17 9,7 C 8,9 C 87 % 1022,2 hPa 0,0 l/m 6,4 km/h (2 Bft) SW 225 0 min 0,0 UV-I 16 W/m 7,6 C 9,7 C 9,7 km/h (2 Bft)
23.05.2020 06:18 9,7 C 8,9 C 87 % 1022,2 hPa 0,0 l/m 6,4 km/h (2 Bft) SW 225 0 min 0,0 UV-I 16 W/m 7,6 C 9,7 C 8,0 km/h (2 Bft)
23.05.2020 06:19 9,7 C 8,9 C 87 % 1022,3 hPa 0,0 l/m 3,2 km/h (1 Bft) W-SW 247 0 min 0,0 UV-I 14 W/m 7,6 C 9,7 C 6,4 km/h (2 Bft)
23.05.2020 06:20 9,7 C 8,9 C 87 % 1022,3 hPa 0,0 l/m 4,8 km/h (1 Bft) SW 225 0 min 0,0 UV-I 14 W/m 7,6 C 9,7 C 6,4 km/h (2 Bft)
23.05.2020 06:21 9,7 C 8,9 C 87 % 1022,2 hPa 0,0 l/m 4,8 km/h (1 Bft) SW 225 0 min 0,0 UV-I 14 W/m 7,6 C 9,7 C 6,4 km/h (2 Bft)
23.05.2020 06:22 9,7 C 8,9 C 87 % 1022,2 hPa 0,0 l/m 4,8 km/h (1 Bft) SW 225 0 min 0,0 UV-I 15 W/m 7,6 C 9,7 C 8,0 km/h (2 Bft)
23.05.2020 06:23 9,7 C 8,9 C 87 % 1022,2 hPa 0,0 l/m 6,4 km/h (2 Bft) SW 225 0 min 0,0 UV-I 16 W/m 7,6 C 9,7 C 8,0 km/h (2 Bft)
23.05.2020 06:24 9,7 C 8,9 C 87 % 1022,4 hPa 0,0 l/m 3,2 km/h (1 Bft) SW 225 0 min 0,0 UV-I 16 W/m 7,6 C 9,7 C 6,4 km/h (2 Bft)
23.05.2020 06:25 9,7 C 8,9 C 87 % 1022,5 hPa 0,0 l/m 3,2 km/h (1 Bft) SW 225 0 min 0,0 UV-I 16 W/m 7,6 C 9,7 C 6,4 km/h (2 Bft)
23.05.2020 06:26 9,7 C 8,9 C 87 % 1022,4 hPa 0,0 l/m 4,8 km/h (1 Bft) S-SW 202 0 min 0,0 UV-I 18 W/m 7,6 C 9,7 C 6,4 km/h (2 Bft)
23.05.2020 06:27 9,7 C 8,9 C 87 % 1022,5 hPa 0,0 l/m 4,8 km/h (1 Bft) S-SW 202 0 min 0,0 UV-I 18 W/m 7,6 C 9,7 C 6,4 km/h (2 Bft)
23.05.2020 06:28 9,8 C 8,9 C 87 % 1022,4 hPa 0,0 l/m 3,2 km/h (1 Bft) S-SW 202 0 min 0,0 UV-I 18 W/m 7,7 C 9,8 C 6,4 km/h (2 Bft)
23.05.2020 06:29 9,7 C 8,9 C 87 % 1022,5 hPa 0,0 l/m 6,4 km/h (2 Bft) S-SW 202 0 min 0,0 UV-I 18 W/m 7,6 C 9,7 C 9,7 km/h (2 Bft)
23.05.2020 06:30 9,7 C 8,9 C 87 % 1022,5 hPa 0,0 l/m 4,8 km/h (1 Bft) S-SW 202 0 min 0,0 UV-I 18 W/m 7,6 C 9,7 C 8,0 km/h (2 Bft)
23.05.2020 06:31 9,7 C 8,9 C 87 % 1022,5 hPa 0,0 l/m 3,2 km/h (1 Bft) S-SW 202 0 min 0,0 UV-I 19 W/m 7,6 C 9,7 C 6,4 km/h (2 Bft)
23.05.2020 06:32 9,7 C 8,9 C 87 % 1022,4 hPa 0,0 l/m 3,2 km/h (1 Bft) S-SW 202 0 min 0,0 UV-I 19 W/m 7,6 C 9,7 C 4,8 km/h (1 Bft)
23.05.2020 06:33 9,8 C 8,9 C 87 % 1022,5 hPa 0,0 l/m 3,2 km/h (1 Bft) S-SW 202 0 min 0,0 UV-I 20 W/m 7,7 C 9,8 C 4,8 km/h (1 Bft)
23.05.2020 06:34 9,7 C 8,9 C 87 % 1022,5 hPa 0,0 l/m 4,8 km/h (1 Bft) S-SW 202 0 min 0,0 UV-I 21 W/m 7,6 C 9,7 C 8,0 km/h (2 Bft)
23.05.2020 06:35 9,8 C 8,9 C 87 % 1022,5 hPa 0,0 l/m 6,4 km/h (2 Bft) SW 225 0 min 0,0 UV-I 21 W/m 7,7 C 9,8 C 9,7 km/h (2 Bft)
23.05.2020 06:36 9,7 C 8,9 C 87 % 1022,5 hPa 0,0 l/m 8,0 km/h (2 Bft) S-SW 202 0 min 0,0 UV-I 21 W/m 7,6 C 8,5 C 11,3 km/h (2 Bft)
23.05.2020 06:37 9,8 C 8,9 C 87 % 1022,6 hPa 0,0 l/m 6,4 km/h (2 Bft) S-SW 202 0 min 0,0 UV-I 21 W/m 7,7 C 9,8 C 8,0 km/h (2 Bft)
23.05.2020 06:38 9,8 C 8,9 C 87 % 1022,6 hPa 0,0 l/m 6,4 km/h (2 Bft) S-SW 202 0 min 0,0 UV-I 21 W/m 7,7 C 9,8 C 8,0 km/h (2 Bft)
23.05.2020 06:39 9,7 C 8,9 C 87 % 1022,6 hPa 0,0 l/m 3,2 km/h (1 Bft) S-SW 202 0 min 0,0 UV-I 19 W/m 7,6 C 9,7 C 4,8 km/h (1 Bft)
23.05.2020 06:40 9,8 C 8,9 C 87 % 1022,6 hPa 0,0 l/m 6,4 km/h (2 Bft) SW 225 0 min 0,0 UV-I 19 W/m 7,7 C 9,8 C 9,7 km/h (2 Bft)
23.05.2020 06:41 9,8 C 8,9 C 87 % 1022,5 hPa 0,0 l/m 6,4 km/h (2 Bft) SW 225 0 min 0,0 UV-I 21 W/m 7,7 C 9,8 C 6,4 km/h (2 Bft)
23.05.2020 06:42 9,7 C 8,9 C 87 % 1022,5 hPa 0,0 l/m 3,2 km/h (1 Bft) SW 225 0 min 0,0 UV-I 21 W/m 7,6 C 9,7 C 4,8 km/h (1 Bft)
23.05.2020 06:43 9,7 C 8,9 C 87 % 1022,5 hPa 0,0 l/m 4,8 km/h (1 Bft) S-SW 202 0 min 0,0 UV-I 21 W/m 7,6 C 9,7 C 8,0 km/h (2 Bft)
23.05.2020 06:44 9,7 C 8,9 C 87 % 1022,5 hPa 0,0 l/m 3,2 km/h (1 Bft) S-SW 202 0 min 0,0 UV-I 21 W/m 7,6 C 9,7 C 6,4 km/h (2 Bft)
23.05.2020 06:45 9,8 C 8,9 C 87 % 1022,5 hPa 0,0 l/m 6,4 km/h (2 Bft) S-SW 202 0 min 0,0 UV-I 23 W/m 7,7 C 9,8 C 8,0 km/h (2 Bft)
23.05.2020 06:46 9,7 C 8,9 C 87 % 1022,5 hPa 0,0 l/m 4,8 km/h (1 Bft) S-SW 202 0 min 0,0 UV-I 25 W/m 7,6 C 9,7 C 6,4 km/h (2 Bft)
23.05.2020 06:47 9,7 C 8,9 C 87 % 1022,6 hPa 0,0 l/m 6,4 km/h (2 Bft) S-SW 202 0 min 0,0 UV-I 26 W/m 7,6 C 9,7 C 9,7 km/h (2 Bft)
23.05.2020 06:48 9,7 C 8,9 C 87 % 1022,6 hPa 0,0 l/m 9,7 km/h (2 Bft) S-SW 202 0 min 0,0 UV-I 28 W/m 7,6 C 7,4 C 11,3 km/h (2 Bft)
23.05.2020 06:49 9,7 C 8,9 C 87 % 1022,6 hPa 0,0 l/m 6,4 km/h (2 Bft) S-SW 202 0 min 0,0 UV-I 32 W/m 7,6 C 9,7 C 9,7 km/h (2 Bft)
23.05.2020 06:50 9,7 C 9,4 C 86 % 1022,5 hPa 0,0 l/m 6,4 km/h (2 Bft) SW 225 0 min 0,0 UV-I 32 W/m 7,5 C 9,7 C 8,0 km/h (2 Bft)
23.05.2020 06:51 9,7 C 9,4 C 86 % 1022,5 hPa 0,0 l/m 6,4 km/h (2 Bft) S-SW 202 0 min 0,0 UV-I 31 W/m 7,5 C 9,7 C 9,7 km/h (2 Bft)
23.05.2020 06:52 9,7 C 9,4 C 86 % 1022,5 hPa 0,0 l/m 6,4 km/h (2 Bft) SW 225 0 min 0,0 UV-I 28 W/m 7,5 C 9,7 C 11,3 km/h (2 Bft)
23.05.2020 06:53 9,7 C 9,4 C 86 % 1022,5 hPa 0,0 l/m 4,8 km/h (1 Bft) S-SW 202 0 min 0,0 UV-I 28 W/m 7,5 C 9,7 C 6,4 km/h (2 Bft)
23.05.2020 06:54 9,8 C 9,4 C 86 % 1022,5 hPa 0,0 l/m 6,4 km/h (2 Bft) SW 225 0 min 0,0 UV-I 26 W/m 7,6 C 9,8 C 9,7 km/h (2 Bft)
23.05.2020 06:55 9,8 C 9,4 C 86 % 1022,5 hPa 0,0 l/m 6,4 km/h (2 Bft) SW 225 0 min 0,0 UV-I 25 W/m 7,6 C 9,8 C 9,7 km/h (2 Bft)
23.05.2020 06:56 9,7 C 9,4 C 86 % 1022,6 hPa 0,0 l/m 11,3 km/h (2 Bft) S-SW 202 0 min 0,0 UV-I 23 W/m 7,5 C 6,5 C 14,5 km/h (3 Bft)
23.05.2020 06:57 9,7 C 9,4 C 86 % 1022,6 hPa 0,0 l/m 6,4 km/h (2 Bft) S-SW 202 0 min 0,0 UV-I 20 W/m 7,5 C 9,7 C 12,9 km/h (3 Bft)
23.05.2020 06:58 9,8 C 9,4 C 86 % 1022,6 hPa 0,0 l/m 4,8 km/h (1 Bft) SW 225 0 min 0,0 UV-I 18 W/m 7,6 C 9,8 C 6,4 km/h (2 Bft)
23.05.2020 06:59 9,7 C 9,4 C 86 % 1022,6 hPa 0,0 l/m 4,8 km/h (1 Bft) S-SW 202 0 min 0,0 UV-I 18 W/m 7,5 C 9,7 C 8,0 km/h (2 Bft)
23.05.2020 07:00 9,8 C 9,4 C 87 % 1022,6 hPa 0,0 l/m 4,8 km/h (1 Bft) SW 225 0 min 0,0 UV-I 18 W/m 7,7 C 9,8 C 9,7 km/h (2 Bft)
23.05.2020 07:01 9,7 C 9,4 C 86 % 1022,6 hPa 0,0 l/m 8,0 km/h (2 Bft) SW 225 0 min 0,0 UV-I 19 W/m 7,5 C 8,5 C 11,3 km/h (2 Bft)
23.05.2020 07:02 9,7 C 9,4 C 86 % 1022,6 hPa 0,0 l/m 8,0 km/h (2 Bft) SW 225 0 min 0,0 UV-I 18 W/m 7,5 C 8,5 C 9,7 km/h (2 Bft)
23.05.2020 07:03 9,7 C 9,4 C 86 % 1022,6 hPa 0,0 l/m 4,8 km/h (1 Bft) SW 225 0 min 0,0 UV-I 20 W/m 7,5 C 9,7 C 8,0 km/h (2 Bft)
23.05.2020 07:04 9,7 C 9,4 C 87 % 1022,5 hPa 0,0 l/m 6,4 km/h (2 Bft) SW 225 0 min 0,0 UV-I 23 W/m 7,6 C 9,7 C 8,0 km/h (2 Bft)
23.05.2020 07:05 9,7 C 9,4 C 86 % 1022,5 hPa 0,0 l/m 4,8 km/h (1 Bft) SW 225 0 min 0,0 UV-I 26 W/m 7,5 C 9,7 C 11,3 km/h (2 Bft)
23.05.2020 07:06 9,7 C 9,4 C 87 % 1022,6 hPa 0,0 l/m 4,8 km/h (1 Bft) SW 225 0 min 0,0 UV-I 30 W/m 7,6 C 9,7 C 6,4 km/h (2 Bft)
23.05.2020 07:07 9,7 C 9,4 C 87 % 1022,6 hPa 0,0 l/m 4,8 km/h (1 Bft) SW 225 0 min 0,0 UV-I 33 W/m 7,6 C 9,7 C 8,0 km/h (2 Bft)
23.05.2020 07:08 9,7 C 9,4 C 87 % 1022,6 hPa 0,0 l/m 4,8 km/h (1 Bft) S-SW 202 0 min 0,0 UV-I 35 W/m 7,6 C 9,7 C 6,4 km/h (2 Bft)
23.05.2020 07:09 9,7 C 9,4 C 87 % 1022,5 hPa 0,0 l/m 6,4 km/h (2 Bft) S-SW 202 0 min 0,0 UV-I 36 W/m 7,6 C 9,7 C 9,7 km/h (2 Bft)
23.05.2020 07:10 9,7 C 9,4 C 87 % 1022,6 hPa 0,0 l/m 4,8 km/h (1 Bft) S-SW 202 0 min 0,0 UV-I 33 W/m 7,6 C 9,7 C 8,0 km/h (2 Bft)
23.05.2020 07:11 9,7 C 9,4 C 87 % 1022,6 hPa 0,0 l/m 4,8 km/h (1 Bft) S-SW 202 0 min 0,0 UV-I 30 W/m 7,6 C 9,7 C 8,0 km/h (2 Bft)
23.05.2020 07:12 9,7 C 9,4 C 87 % 1022,7 hPa 0,0 l/m 4,8 km/h (1 Bft) S-SW 202 0 min 0,0 UV-I 28 W/m 7,6 C 9,7 C 8,0 km/h (2 Bft)
23.05.2020 07:13 9,7 C 9,4 C 87 % 1022,7 hPa 0,0 l/m 3,2 km/h (1 Bft) S-SW 202 0 min 0,0 UV-I 26 W/m 7,6 C 9,7 C 4,8 km/h (1 Bft)
23.05.2020 07:14 9,7 C 9,4 C 87 % 1022,6 hPa 0,0 l/m 3,2 km/h (1 Bft) S-SW 202 0 min 0,0 UV-I 26 W/m 7,6 C 9,7 C 4,8 km/h (1 Bft)
23.05.2020 07:15 9,6 C 9,4 C 87 % 1022,7 hPa 0,0 l/m 3,2 km/h (1 Bft) SW 225 0 min 0,0 UV-I 26 W/m 7,5 C 9,6 C 4,8 km/h (1 Bft)
23.05.2020 07:16 9,6 C 9,4 C 87 % 1022,7 hPa 0,0 l/m 3,2 km/h (1 Bft) SW 225 0 min 0,0 UV-I 26 W/m 7,5 C 9,6 C 4,8 km/h (1 Bft)
23.05.2020 07:17 9,7 C 9,4 C 87 % 1022,6 hPa 0,0 l/m 4,8 km/h (1 Bft) S-SW 202 0 min 0,0 UV-I 26 W/m 7,6 C 9,7 C 6,4 km/h (2 Bft)
23.05.2020 07:18 9,6 C 9,4 C 87 % 1022,7 hPa 0,0 l/m 3,2 km/h (1 Bft) SW 225 0 min 0,0 UV-I 26 W/m 7,5 C 9,6 C 6,4 km/h (2 Bft)
23.05.2020 07:19 9,6 C 9,4 C 87 % 1022,7 hPa 0,0 l/m 4,8 km/h (1 Bft) SW 225 0 min 0,0 UV-I 26 W/m 7,5 C 9,6 C 6,4 km/h (2 Bft)
23.05.2020 07:20 9,6 C 9,4 C 87 % 1022,7 hPa 0,0 l/m 3,2 km/h (1 Bft) SW 225 0 min 0,0 UV-I 26 W/m 7,5 C 9,6 C 4,8 km/h (1 Bft)
23.05.2020 07:21 9,6 C 9,4 C 87 % 1022,8 hPa 0,0 l/m 3,2 km/h (1 Bft) SW 225 0 min 0,0 UV-I 26 W/m 7,5 C 9,6 C 4,8 km/h (1 Bft)
23.05.2020 07:22 9,6 C 9,4 C 87 % 1022,8 hPa 0,0 l/m 4,8 km/h (1 Bft) SW 225 0 min 0,0 UV-I 25 W/m 7,5 C 9,6 C 8,0 km/h (2 Bft)
23.05.2020 07:23 9,6 C 9,4 C 87 % 1022,9 hPa 0,0 l/m 6,4 km/h (2 Bft) S-SW 202 0 min 0,0 UV-I 25 W/m 7,5 C 9,6 C 8,0 km/h (2 Bft)
23.05.2020 07:24 9,6 C 9,4 C 87 % 1022,9 hPa 0,0 l/m 4,8 km/h (1 Bft) S-SW 202 0 min 0,0 UV-I 23 W/m 7,5 C 9,6 C 6,4 km/h (2 Bft)
23.05.2020 07:25 9,6 C 9,4 C 87 % 1022,9 hPa 0,0 l/m 1,6 km/h (1 Bft) S-SW 202 0 min 0,0 UV-I 21 W/m 7,5 C 9,6 C 3,2 km/h (1 Bft)
23.05.2020 07:26 9,6 C 9,4 C 87 % 1022,9 hPa 0,0 l/m 1,6 km/h (1 Bft) S-SW 202 0 min 0,0 UV-I 19 W/m 7,5 C 9,6 C 3,2 km/h (1 Bft)
23.05.2020 07:27 9,6 C 9,4 C 87 % 1022,9 hPa 0,0 l/m 3,2 km/h (1 Bft) S-SW 202 0 min 0,0 UV-I 21 W/m 7,5 C 9,6 C 6,4 km/h (2 Bft)
23.05.2020 07:28 9,6 C 9,4 C 87 % 1022,9 hPa 0,0 l/m 4,8 km/h (1 Bft) S 180 0 min 0,0 UV-I 23 W/m 7,5 C 9,6 C 8,0 km/h (2 Bft)
23.05.2020 07:29 9,6 C 9,4 C 87 % 1022,9 hPa 0,0 l/m 3,2 km/h (1 Bft) S-SW 202 0 min 0,0 UV-I 25 W/m 7,5 C 9,6 C 6,4 km/h (2 Bft)
23.05.2020 07:30 9,6 C 9,4 C 86 % 1023,0 hPa 0,0 l/m 4,8 km/h (1 Bft) S-SW 202 0 min 0,0 UV-I 25 W/m 7,4 C 9,6 C 8,0 km/h (2 Bft)
23.05.2020 07:31 9,6 C 9,4 C 86 % 1022,9 hPa 0,0 l/m 6,4 km/h (2 Bft) SW 225 0 min 0,0 UV-I 26 W/m 7,4 C 9,6 C 9,7 km/h (2 Bft)
23.05.2020 07:32 9,6 C 9,4 C 86 % 1022,9 hPa 0,0 l/m 3,2 km/h (1 Bft) SW 225 0 min 0,0 UV-I 26 W/m 7,4 C 9,6 C 4,8 km/h (1 Bft)
23.05.2020 07:33 9,6 C 9,4 C 86 % 1022,9 hPa 0,0 l/m 4,8 km/h (1 Bft) SW 225 0 min 0,0 UV-I 26 W/m 7,4 C 9,6 C 6,4 km/h (2 Bft)
23.05.2020 07:34 9,6 C 9,4 C 86 % 1022,9 hPa 0,0 l/m 4,8 km/h (1 Bft) S-SW 202 0 min 0,0 UV-I 26 W/m 7,4 C 9,6 C 6,4 km/h (2 Bft)
23.05.2020 07:35 9,6 C 9,4 C 86 % 1023,1 hPa 0,0 l/m 4,8 km/h (1 Bft) S-SW 202 0 min 0,0 UV-I 26 W/m 7,4 C 9,6 C 6,4 km/h (2 Bft)
23.05.2020 07:36 9,7 C 9,4 C 86 % 1023,1 hPa 0,0 l/m 4,8 km/h (1 Bft) S-SW 202 0 min 0,0 UV-I 28 W/m 7,5 C 9,7 C 6,4 km/h (2 Bft)
23.05.2020 07:37 9,6 C 9,4 C 86 % 1023,1 hPa 0,0 l/m 6,4 km/h (2 Bft) S-SW 202 0 min 0,0 UV-I 28 W/m 7,4 C 9,6 C 8,0 km/h (2 Bft)
23.05.2020 07:38 9,6 C 9,4 C 87 % 1023,2 hPa 0,0 l/m 4,8 km/h (1 Bft) S-SW 202 0 min 0,0 UV-I 26 W/m 7,5 C 9,6 C 8,0 km/h (2 Bft)
23.05.2020 07:39 9,6 C 9,4 C 87 % 1023,2 hPa 0,0 l/m 4,8 km/h (1 Bft) S-SW 202 0 min 0,0 UV-I 25 W/m 7,5 C 9,6 C 4,8 km/h (1 Bft)
23.05.2020 07:40 9,6 C 9,4 C 87 % 1023,3 hPa 0,0 l/m 6,4 km/h (2 Bft) S-SW 202 0 min 0,0 UV-I 23 W/m 7,5 C 9,6 C 8,0 km/h (2 Bft)
23.05.2020 07:41 9,6 C 9,4 C 87 % 1023,2 hPa 0,0 l/m 4,8 km/h (1 Bft) SW 225 0 min 0,0 UV-I 21 W/m 7,5 C 9,6 C 6,4 km/h (2 Bft)
23.05.2020 07:42 9,6 C 9,4 C 87 % 1023,3 hPa 0,0 l/m 3,2 km/h (1 Bft) SW 225 0 min 0,0 UV-I 19 W/m 7,5 C 9,6 C 6,4 km/h (2 Bft)
23.05.2020 07:43 9,6 C 9,4 C 87 % 1023,3 hPa 0,0 l/m 8,0 km/h (2 Bft) S-SW 202 0 min 0,0 UV-I 18 W/m 7,5 C 8,4 C 14,5 km/h (3 Bft)
23.05.2020 07:44 9,6 C 8,9 C 87 % 1023,3 hPa 0,0 l/m 9,7 km/h (2 Bft) SW 225 0 min 0,0 UV-I 17 W/m 7,5 C 7,3 C 16,1 km/h (3 Bft)
23.05.2020 07:45 9,6 C 8,9 C 86 % 1023,2 hPa 0,0 l/m 3,2 km/h (1 Bft) SW 225 0 min 0,0 UV-I 16 W/m 7,4 C 9,6 C 4,8 km/h (1 Bft)
23.05.2020 07:46 9,6 C 8,9 C 87 % 1023,2 hPa 0,0 l/m 3,2 km/h (1 Bft) SW 225 0 min 0,0 UV-I 16 W/m 7,5 C 9,6 C 8,0 km/h (2 Bft)
23.05.2020 07:47 9,6 C 8,9 C 86 % 1023,2 hPa 0,0 l/m 4,8 km/h (1 Bft) S-SW 202 0 min 0,0 UV-I 16 W/m 7,4 C 9,6 C 6,4 km/h (2 Bft)
23.05.2020 07:48 9,6 C 8,9 C 86 % 1023,2 hPa 0,0 l/m 4,8 km/h (1 Bft) S-SW 202 0 min 0,0 UV-I 16 W/m 7,4 C 9,6 C 8,0 km/h (2 Bft)
23.05.2020 07:49 9,6 C 8,9 C 86 % 1023,2 hPa 0,0 l/m 4,8 km/h (1 Bft) S-SW 202 0 min 0,0 UV-I 19 W/m 7,4 C 9,6 C 6,4 km/h (2 Bft)
23.05.2020 07:50 9,6 C 8,9 C 86 % 1023,3 hPa 0,0 l/m 3,2 km/h (1 Bft) SW 225 0 min 0,0 UV-I 21 W/m 7,4 C 9,6 C 4,8 km/h (1 Bft)
23.05.2020 07:51 9,6 C 8,9 C 86 % 1023,2 hPa 0,0 l/m 3,2 km/h (1 Bft) SW 225 0 min 0,0 UV-I 23 W/m 7,4 C 9,6 C 6,4 km/h (2 Bft)
23.05.2020 07:52 9,5 C 8,9 C 86 % 1023,2 hPa 0,0 l/m 4,8 km/h (1 Bft) S-SW 202 0 min 0,0 UV-I 25 W/m 7,3 C 9,5 C 6,4 km/h (2 Bft)
23.05.2020 07:53 9,5 C 8,9 C 87 % 1023,3 hPa 0,0 l/m 6,4 km/h (2 Bft) S-SW 202 0 min 0,0 UV-I 26 W/m 7,4 C 9,5 C 9,7 km/h (2 Bft)
23.05.2020 07:54 9,4 C 8,9 C 86 % 1023,4 hPa 0,0 l/m 6,4 km/h (2 Bft) S-SW 202 0 min 0,0 UV-I 26 W/m 7,2 C 9,4 C 11,3 km/h (2 Bft)
23.05.2020 07:55 9,5 C 8,9 C 86 % 1023,3 hPa 0,0 l/m 6,4 km/h (2 Bft) S-SW 202 0 min 0,0 UV-I 26 W/m 7,3 C 9,5 C 8,0 km/h (2 Bft)
23.05.2020 07:56 9,4 C 8,9 C 86 % 1023,3 hPa 0,0 l/m 6,4 km/h (2 Bft) S-SW 202 0 min 0,0 UV-I 25 W/m 7,2 C 9,4 C 11,3 km/h (2 Bft)
23.05.2020 07:57 9,5 C 8,9 C 86 % 1023,4 hPa 0,0 l/m 6,4 km/h (2 Bft) S-SW 202 0 min 0,0 UV-I 25 W/m 7,3 C 9,5 C 12,9 km/h (3 Bft)
23.05.2020 07:58 9,4 C 8,9 C 86 % 1023,4 hPa 0,0 l/m 4,8 km/h (1 Bft) S 180 0 min 0,0 UV-I 25 W/m 7,2 C 9,4 C 8,0 km/h (2 Bft)
23.05.2020 07:59 9,4 C 8,9 C 85 % 1023,4 hPa 0,0 l/m 6,4 km/h (2 Bft) S-SW 202 0 min 0,0 UV-I 25 W/m 7,0 C 9,4 C 11,3 km/h (2 Bft)
23.05.2020 08:00 9,5 C 8,9 C 85 % 1023,5 hPa 0,0 l/m 6,4 km/h (2 Bft) S-SW 202 0 min 0,0 UV-I 25 W/m 7,1 C 9,5 C 9,7 km/h (2 Bft)
23.05.2020 08:01 9,4 C 8,9 C 85 % 1023,5 hPa 0,0 l/m 9,7 km/h (2 Bft) SW 225 0 min 0,0 UV-I 26 W/m 7,0 C 7,1 C 12,9 km/h (3 Bft)
23.05.2020 08:02 9,5 C 8,9 C 85 % 1023,5 hPa 0,0 l/m 6,4 km/h (2 Bft) SW 225 0 min 0,0 UV-I 30 W/m 7,1 C 9,5 C 11,3 km/h (2 Bft)
23.05.2020 08:03 9,4 C 8,9 C 85 % 1023,4 hPa 0,0 l/m 4,8 km/h (1 Bft) S-SW 202 0 min 0,0 UV-I 35 W/m 7,0 C 9,4 C 8,0 km/h (2 Bft)
23.05.2020 08:04 9,5 C 8,9 C 85 % 1023,5 hPa 0,0 l/m 4,8 km/h (1 Bft) S-SW 202 0 min 0,0 UV-I 39 W/m 7,1 C 9,5 C 8,0 km/h (2 Bft)
23.05.2020 08:05 9,4 C 9,4 C 85 % 1023,5 hPa 0,0 l/m 3,2 km/h (1 Bft) SW 225 0 min 0,0 UV-I 42 W/m 7,0 C 9,4 C 8,0 km/h (2 Bft)
23.05.2020 08:06 9,5 C 9,4 C 85 % 1023,5 hPa 0,0 l/m 4,8 km/h (1 Bft) W-SW 247 0 min 0,0 UV-I 46 W/m 7,1 C 9,5 C 6,4 km/h (2 Bft)
23.05.2020 08:07 9,5 C 9,4 C 85 % 1023,5 hPa 0,0 l/m 1,6 km/h (1 Bft) W-SW 247 0 min 0,0 UV-I 49 W/m 7,1 C 9,5 C 3,2 km/h (1 Bft)
23.05.2020 08:08 9,5 C 9,4 C 85 % 1023,5 hPa 0,0 l/m 1,6 km/h (1 Bft) W-SW 247 0 min 0,0 UV-I 47 W/m 7,1 C 9,5 C 6,4 km/h (2 Bft)
23.05.2020 08:09 9,5 C 9,4 C 85 % 1023,5 hPa 0,0 l/m 4,8 km/h (1 Bft) SW 225 0 min 0,0 UV-I 42 W/m 7,1 C 9,5 C 8,0 km/h (2 Bft)
23.05.2020 08:10 9,5 C 9,4 C 85 % 1023,6 hPa 0,0 l/m 3,2 km/h (1 Bft) SW 225 0 min 0,0 UV-I 40 W/m 7,1 C 9,5 C 6,4 km/h (2 Bft)
23.05.2020 08:11 9,6 C 9,4 C 85 % 1023,5 hPa 0,0 l/m 4,8 km/h (1 Bft) S-SW 202 0 min 0,0 UV-I 39 W/m 7,2 C 9,6 C 6,4 km/h (2 Bft)
23.05.2020 08:12 9,6 C 9,4 C 85 % 1023,6 hPa 0,0 l/m 8,0 km/h (2 Bft) SW 225 0 min 0,0 UV-I 40 W/m 7,2 C 8,4 C 9,7 km/h (2 Bft)
23.05.2020 08:13 9,6 C 9,4 C 85 % 1023,6 hPa 0,0 l/m 6,4 km/h (2 Bft) SW 225 0 min 0,0 UV-I 48 W/m 7,2 C 9,6 C 9,7 km/h (2 Bft)
23.05.2020 08:14 9,6 C 9,4 C 85 % 1023,6 hPa 0,0 l/m 4,8 km/h (1 Bft) SW 225 0 min 0,0 UV-I 62 W/m 7,2 C 9,6 C 8,0 km/h (2 Bft)
23.05.2020 08:15 9,6 C 9,4 C 85 % 1023,6 hPa 0,0 l/m 9,7 km/h (2 Bft) S-SW 202 0 min 0,0 UV-I 67 W/m 7,2 C 7,3 C 12,9 km/h (3 Bft)
23.05.2020 08:16 9,6 C 9,4 C 85 % 1023,7 hPa 0,0 l/m 4,8 km/h (1 Bft) S-SW 202 0 min 0,0 UV-I 69 W/m 7,2 C 9,6 C 11,3 km/h (2 Bft)
23.05.2020 08:17 9,6 C 9,4 C 85 % 1023,6 hPa 0,0 l/m 4,8 km/h (1 Bft) S-SW 202 0 min 0,0 UV-I 74 W/m 7,2 C 9,6 C 9,7 km/h (2 Bft)
23.05.2020 08:18 9,6 C 9,4 C 85 % 1023,7 hPa 0,0 l/m 8,0 km/h (2 Bft) SW 225 0 min 0,5 UV-I 77 W/m 7,2 C 8,4 C 9,7 km/h (2 Bft)
23.05.2020 08:19 9,6 C 9,4 C 85 % 1023,6 hPa 0,0 l/m 4,8 km/h (1 Bft) SW 225 0 min 0,5 UV-I 83 W/m 7,2 C 9,6 C 11,3 km/h (2 Bft)
23.05.2020 08:20 9,6 C 9,4 C 85 % 1023,8 hPa 0,0 l/m 6,4 km/h (2 Bft) W-SW 247 0 min 0,5 UV-I 90 W/m 7,2 C 9,6 C 9,7 km/h (2 Bft)
23.05.2020 08:21 9,7 C 10,0 C 85 % 1023,8 hPa 0,0 l/m 4,8 km/h (1 Bft) SW 225 0 min 0,5 UV-I 91 W/m 7,3 C 9,7 C 6,4 km/h (2 Bft)
23.05.2020 08:22 9,7 C 10,0 C 85 % 1023,8 hPa 0,0 l/m 6,4 km/h (2 Bft) SW 225 0 min 0,5 UV-I 90 W/m 7,3 C 9,7 C 6,4 km/h (2 Bft)
23.05.2020 08:23 9,7 C 10,0 C 85 % 1023,8 hPa 0,0 l/m 3,2 km/h (1 Bft) SW 225 0 min 0,5 UV-I 84 W/m 7,3 C 9,7 C 6,4 km/h (2 Bft)
23.05.2020 08:24 9,7 C 10,0 C 85 % 1023,8 hPa 0,0 l/m 4,8 km/h (1 Bft) W-SW 247 0 min 0,5 UV-I 81 W/m 7,3 C 9,7 C 8,0 km/h (2 Bft)
23.05.2020 08:25 9,7 C 10,0 C 85 % 1023,8 hPa 0,0 l/m 4,8 km/h (1 Bft) W-SW 247 0 min 0,0 UV-I 73 W/m 7,3 C 9,7 C 11,3 km/h (2 Bft)
23.05.2020 08:26 9,7 C 10,0 C 85 % 1023,8 hPa 0,0 l/m 6,4 km/h (2 Bft) SW 225 0 min 0,0 UV-I 67 W/m 7,3 C 9,7 C 9,7 km/h (2 Bft)
23.05.2020 08:27 9,7 C 10,0 C 85 % 1023,7 hPa 0,0 l/m 8,0 km/h (2 Bft) S-SW 202 0 min 0,0 UV-I 65 W/m 7,3 C 8,5 C 9,7 km/h (2 Bft)
23.05.2020 08:28 9,7 C 10,0 C 84 % 1023,8 hPa 0,0 l/m 8,0 km/h (2 Bft) SW 225 0 min 0,0 UV-I 63 W/m 7,1 C 8,5 C 12,9 km/h (3 Bft)
23.05.2020 08:29 9,7 C 10,0 C 85 % 1023,9 hPa 0,0 l/m 6,4 km/h (2 Bft) W 270 0 min 0,0 UV-I 62 W/m 7,3 C 9,7 C 11,3 km/h (2 Bft)
23.05.2020 08:30 9,7 C 10,0 C 85 % 1023,7 hPa 0,0 l/m 6,4 km/h (2 Bft) S-SW 202 0 min 0,0 UV-I 60 W/m 7,3 C 9,7 C 9,7 km/h (2 Bft)
23.05.2020 08:31 9,7 C 10,0 C 84 % 1023,7 hPa 0,0 l/m 6,4 km/h (2 Bft) S-SW 202 0 min 0,0 UV-I 60 W/m 7,1 C 9,7 C 8,0 km/h (2 Bft)
23.05.2020 08:32 9,7 C 10,0 C 84 % 1023,7 hPa 0,0 l/m 6,4 km/h (2 Bft) S-SW 202 0 min 0,0 UV-I 60 W/m 7,1 C 9,7 C 9,7 km/h (2 Bft)
23.05.2020 08:33 9,7 C 9,4 C 84 % 1023,8 hPa 0,0 l/m 6,4 km/h (2 Bft) S 180 0 min 0,0 UV-I 63 W/m 7,1 C 9,7 C 12,9 km/h (3 Bft)
23.05.2020 08:34 9,7 C 9,4 C 83 % 1023,6 hPa 0,0 l/m 6,4 km/h (2 Bft) S-SW 202 0 min 0,0 UV-I 65 W/m 7,0 C 9,7 C 9,7 km/h (2 Bft)
23.05.2020 08:35 9,7 C 9,4 C 84 % 1023,7 hPa 0,0 l/m 8,0 km/h (2 Bft) S-SW 202 0 min 0,0 UV-I 67 W/m 7,1 C 8,5 C 11,3 km/h (2 Bft)
23.05.2020 08:36 9,7 C 9,4 C 83 % 1023,7 hPa 0,0 l/m 8,0 km/h (2 Bft) SW 225 0 min 0,0 UV-I 67 W/m 7,0 C 8,5 C 11,3 km/h (2 Bft)
23.05.2020 08:37 9,7 C 9,4 C 83 % 1023,6 hPa 0,0 l/m 6,4 km/h (2 Bft) S-SW 202 0 min 0,0 UV-I 69 W/m 7,0 C 9,7 C 8,0 km/h (2 Bft)
23.05.2020 08:38 9,6 C 9,4 C 83 % 1023,5 hPa 0,0 l/m 6,4 km/h (2 Bft) S-SW 202 0 min 0,0 UV-I 72 W/m 6,9 C 9,6 C 8,0 km/h (2 Bft)
23.05.2020 08:39 9,6 C 9,4 C 83 % 1023,6 hPa 0,0 l/m 4,8 km/h (1 Bft) S-SW 202 0 min 0,5 UV-I 74 W/m 6,9 C 9,6 C 8,0 km/h (2 Bft)
23.05.2020 08:40 9,6 C 9,4 C 84 % 1023,6 hPa 0,0 l/m 4,8 km/h (1 Bft) S-SW 202 0 min 0,5 UV-I 76 W/m 7,0 C 9,6 C 8,0 km/h (2 Bft)
23.05.2020 08:41 9,6 C 9,4 C 84 % 1023,7 hPa 0,0 l/m 6,4 km/h (2 Bft) SW 225 0 min 0,5 UV-I 76 W/m 7,0 C 9,6 C 9,7 km/h (2 Bft)
23.05.2020 08:42 9,6 C 9,4 C 84 % 1023,7 hPa 0,0 l/m 4,8 km/h (1 Bft) W-SW 247 0 min 0,5 UV-I 75 W/m 7,0 C 9,6 C 4,8 km/h (1 Bft)
23.05.2020 08:43 9,6 C 9,4 C 84 % 1023,8 hPa 0,0 l/m 4,8 km/h (1 Bft) SW 225 0 min 0,5 UV-I 79 W/m 7,0 C 9,6 C 8,0 km/h (2 Bft)
23.05.2020 08:44 9,6 C 10,0 C 84 % 1023,7 hPa 0,0 l/m 3,2 km/h (1 Bft) SW 225 0 min 0,5 UV-I 83 W/m 7,0 C 9,6 C 4,8 km/h (1 Bft)
23.05.2020 08:45 9,6 C 10,0 C 84 % 1023,7 hPa 0,0 l/m 6,4 km/h (2 Bft) SW 225 0 min 0,5 UV-I 84 W/m 7,0 C 9,6 C 11,3 km/h (2 Bft)
23.05.2020 08:46 9,6 C 10,0 C 84 % 1023,7 hPa 0,0 l/m 6,4 km/h (2 Bft) SW 225 0 min 0,5 UV-I 83 W/m 7,0 C 9,6 C 8,0 km/h (2 Bft)
23.05.2020 08:47 9,6 C 10,0 C 83 % 1023,7 hPa 0,0 l/m 8,0 km/h (2 Bft) W-SW 247 0 min 0,5 UV-I 81 W/m 6,9 C 8,4 C 11,3 km/h (2 Bft)
23.05.2020 08:48 9,6 C 10,0 C 83 % 1023,7 hPa 0,0 l/m 9,7 km/h (2 Bft) W-SW 247 0 min 0,5 UV-I 79 W/m 6,9 C 7,3 C 12,9 km/h (3 Bft)
23.05.2020 08:49 9,6 C 9,4 C 83 % 1023,8 hPa 0,0 l/m 4,8 km/h (1 Bft) W-SW 247 0 min 0,5 UV-I 81 W/m 6,9 C 9,6 C 6,4 km/h (2 Bft)
23.05.2020 08:50 9,6 C 10,0 C 83 % 1023,7 hPa 0,0 l/m 4,8 km/h (1 Bft) SW 225 0 min 0,6 UV-I 84 W/m 6,9 C 9,6 C 8,0 km/h (2 Bft)
23.05.2020 08:51 9,6 C 10,0 C 83 % 1023,9 hPa 0,0 l/m 6,4 km/h (2 Bft) W-SW 247 0 min 0,6 UV-I 88 W/m 6,9 C 9,6 C 9,7 km/h (2 Bft)
23.05.2020 08:52 9,6 C 10,0 C 83 % 1023,9 hPa 0,0 l/m 9,7 km/h (2 Bft) SW 225 0 min 0,6 UV-I 91 W/m 6,9 C 7,3 C 16,1 km/h (3 Bft)
23.05.2020 08:53 9,6 C 10,0 C 83 % 1023,9 hPa 0,0 l/m 4,8 km/h (1 Bft) SW 225 0 min 0,7 UV-I 97 W/m 6,9 C 9,6 C 8,0 km/h (2 Bft)
23.05.2020 08:54 9,6 C 10,0 C 83 % 1023,8 hPa 0,0 l/m 6,4 km/h (2 Bft) W-SW 247 0 min 0,7 UV-I 98 W/m 6,9 C 9,6 C 8,0 km/h (2 Bft)
23.05.2020 08:55 9,6 C 10,0 C 83 % 1023,9 hPa 0,0 l/m 4,8 km/h (1 Bft) SW 225 0 min 0,7 UV-I 91 W/m 6,9 C 9,6 C 6,4 km/h (2 Bft)
23.05.2020 08:56 9,6 C 10,0 C 83 % 1023,9 hPa 0,0 l/m 4,8 km/h (1 Bft) W-SW 247 0 min 0,6 UV-I 86 W/m 6,9 C 9,6 C 8,0 km/h (2 Bft)
23.05.2020 08:57 9,6 C 10,0 C 83 % 1023,8 hPa 0,0 l/m 3,2 km/h (1 Bft) W 270 0 min 0,6 UV-I 81 W/m 6,9 C 9,6 C 6,4 km/h (2 Bft)
23.05.2020 08:58 9,6 C 10,0 C 84 % 1023,8 hPa 0,0 l/m 6,4 km/h (2 Bft) SW 225 0 min 0,5 UV-I 77 W/m 7,0 C 9,6 C 8,0 km/h (2 Bft)
23.05.2020 08:59 9,6 C 10,0 C 83 % 1023,8 hPa 0,0 l/m 8,0 km/h (2 Bft) SW 225 0 min 0,5 UV-I 74 W/m 6,9 C 8,4 C 12,9 km/h (3 Bft)
23.05.2020 09:00 9,6 C 10,0 C 83 % 1023,9 hPa 0,0 l/m 6,4 km/h (2 Bft) SW 225 0 min 0,5 UV-I 71 W/m 6,9 C 9,6 C 8,0 km/h (2 Bft)
23.05.2020 09:01 9,6 C 10,0 C 83 % 1024,0 hPa 0,0 l/m 4,8 km/h (1 Bft) SW 225 0 min 0,5 UV-I 72 W/m 6,9 C 9,6 C 8,0 km/h (2 Bft)
23.05.2020 09:02 9,6 C 10,0 C 83 % 1023,9 hPa 0,0 l/m 8,0 km/h (2 Bft) W-SW 247 0 min 0,5 UV-I 74 W/m 6,9 C 8,4 C 12,9 km/h (3 Bft)
23.05.2020 09:03 9,6 C 9,4 C 83 % 1024,1 hPa 0,0 l/m 6,4 km/h (2 Bft) SW 225 0 min 0,5 UV-I 76 W/m 6,9 C 9,6 C 9,7 km/h (2 Bft)
23.05.2020 09:04 9,6 C 9,4 C 83 % 1023,9 hPa 0,0 l/m 8,0 km/h (2 Bft) SW 225 0 min 0,5 UV-I 77 W/m 6,9 C 8,4 C 11,3 km/h (2 Bft)
23.05.2020 09:05 9,5 C 9,4 C 83 % 1024,2 hPa 0,0 l/m 8,0 km/h (2 Bft) W-SW 247 0 min 0,5 UV-I 79 W/m 6,8 C 8,3 C 12,9 km/h (3 Bft)
23.05.2020 09:06 9,5 C 9,4 C 83 % 1024,1 hPa 0,0 l/m 6,4 km/h (2 Bft) SW 225 0 min 0,5 UV-I 82 W/m 6,8 C 9,5 C 9,7 km/h (2 Bft)
23.05.2020 09:07 9,4 C 9,4 C 83 % 1024,2 hPa 0,0 l/m 11,3 km/h (2 Bft) SW 225 0 min 0,5 UV-I 83 W/m 6,7 C 6,2 C 17,7 km/h (3 Bft)
23.05.2020 09:08 9,4 C 9,4 C 83 % 1024,0 hPa 0,0 l/m 6,4 km/h (2 Bft) S-SW 202 0 min 0,5 UV-I 83 W/m 6,7 C 9,4 C 9,7 km/h (2 Bft)
23.05.2020 09:09 9,4 C 9,4 C 83 % 1024,2 hPa 0,0 l/m 6,4 km/h (2 Bft) SW 225 0 min 0,5 UV-I 81 W/m 6,7 C 9,4 C 9,7 km/h (2 Bft)
23.05.2020 09:10 9,4 C 9,4 C 83 % 1024,1 hPa 0,0 l/m 8,0 km/h (2 Bft) SW 225 0 min 0,5 UV-I 79 W/m 6,7 C 8,2 C 11,3 km/h (2 Bft)
23.05.2020 09:11 9,4 C 9,4 C 83 % 1024,2 hPa 0,0 l/m 9,7 km/h (2 Bft) SW 225 0 min 0,5 UV-I 84 W/m 6,7 C 7,1 C 12,9 km/h (3 Bft)
23.05.2020 09:12 9,4 C 9,4 C 83 % 1024,2 hPa 0,0 l/m 6,4 km/h (2 Bft) SW 225 0 min 0,6 UV-I 84 W/m 6,7 C 9,4 C 9,7 km/h (2 Bft)
23.05.2020 09:13 9,4 C 9,4 C 83 % 1024,1 hPa 0,0 l/m 6,4 km/h (2 Bft) SW 225 0 min 0,6 UV-I 84 W/m 6,7 C 9,4 C 9,7 km/h (2 Bft)
23.05.2020 09:14 9,4 C 9,4 C 83 % 1024,1 hPa 0,0 l/m 9,7 km/h (2 Bft) SW 225 0 min 0,6 UV-I 86 W/m 6,7 C 7,1 C 11,3 km/h (2 Bft)
23.05.2020 09:15 9,4 C 9,4 C 83 % 1024,1 hPa 0,0 l/m 6,4 km/h (2 Bft) SW 225 0 min 0,6 UV-I 91 W/m 6,7 C 9,4 C 8,0 km/h (2 Bft)
23.05.2020 09:16 9,4 C 9,4 C 83 % 1024,1 hPa 0,0 l/m 6,4 km/h (2 Bft) S-SW 202 0 min 0,7 UV-I 97 W/m 6,7 C 9,4 C 8,0 km/h (2 Bft)
23.05.2020 09:17 9,4 C 9,4 C 83 % 1024,0 hPa 0,0 l/m 4,8 km/h (1 Bft) S-SW 202 0 min 0,7 UV-I 104 W/m 6,7 C 9,4 C 8,0 km/h (2 Bft)
23.05.2020 09:18 9,4 C 9,4 C 83 % 1024,1 hPa 0,0 l/m 4,8 km/h (1 Bft) S-SW 202 0 min 0,7 UV-I 105 W/m 6,7 C 9,4 C 8,0 km/h (2 Bft)
23.05.2020 09:19 9,4 C 10,0 C 84 % 1024,1 hPa 0,0 l/m 8,0 km/h (2 Bft) SW 225 0 min 0,7 UV-I 104 W/m 6,8 C 8,2 C 12,9 km/h (3 Bft)
23.05.2020 09:20 9,4 C 9,4 C 83 % 1024,1 hPa 0,0 l/m 9,7 km/h (2 Bft) SW 225 0 min 0,7 UV-I 98 W/m 6,7 C 7,1 C 14,5 km/h (3 Bft)
23.05.2020 09:21 9,4 C 10,0 C 84 % 1024,1 hPa 0,0 l/m 4,8 km/h (1 Bft) SW 225 0 min 0,6 UV-I 97 W/m 6,8 C 9,4 C 9,7 km/h (2 Bft)
23.05.2020 09:22 9,4 C 10,0 C 84 % 1024,1 hPa 0,0 l/m 4,8 km/h (1 Bft) W-SW 247 0 min 0,6 UV-I 93 W/m 6,8 C 9,4 C 8,0 km/h (2 Bft)
23.05.2020 09:23 9,4 C 10,0 C 84 % 1024,1 hPa 0,0 l/m 4,8 km/h (1 Bft) W-SW 247 0 min 0,6 UV-I 90 W/m 6,8 C 9,4 C 6,4 km/h (2 Bft)
23.05.2020 09:24 9,4 C 10,0 C 84 % 1024,1 hPa 0,0 l/m 4,8 km/h (1 Bft) W-SW 247 0 min 0,6 UV-I 88 W/m 6,8 C 9,4 C 9,7 km/h (2 Bft)
23.05.2020 09:25 9,4 C 10,0 C 84 % 1024,1 hPa 0,0 l/m 9,7 km/h (2 Bft) W-SW 247 0 min 0,6 UV-I 90 W/m 6,8 C 7,1 C 12,9 km/h (3 Bft)
23.05.2020 09:26 9,4 C 10,0 C 84 % 1024,0 hPa 0,0 l/m 4,8 km/h (1 Bft) SW 225 0 min 0,6 UV-I 91 W/m 6,8 C 9,4 C 8,0 km/h (2 Bft)
23.05.2020 09:27 9,4 C 10,0 C 84 % 1024,0 hPa 0,0 l/m 6,4 km/h (2 Bft) W-SW 247 0 min 0,7 UV-I 95 W/m 6,8 C 9,4 C 11,3 km/h (2 Bft)
23.05.2020 09:28 9,4 C 10,0 C 84 % 1024,0 hPa 0,0 l/m 3,2 km/h (1 Bft) W-SW 247 0 min 0,7 UV-I 95 W/m 6,8 C 9,4 C 6,4 km/h (2 Bft)
23.05.2020 09:29 9,4 C 10,0 C 85 % 1024,0 hPa 0,0 l/m 3,2 km/h (1 Bft) SW 225 0 min 0,6 UV-I 91 W/m 7,0 C 9,4 C 6,4 km/h (2 Bft)
23.05.2020 09:30 9,4 C 10,0 C 85 % 1024,1 hPa 0,0 l/m 6,4 km/h (2 Bft) W-SW 247 0 min 0,7 UV-I 91 W/m 7,0 C 9,4 C 11,3 km/h (2 Bft)
23.05.2020 09:31 9,4 C 10,0 C 85 % 1024,1 hPa 0,0 l/m 6,4 km/h (2 Bft) SW 225 0 min 0,7 UV-I 95 W/m 7,0 C 9,4 C 11,3 km/h (2 Bft)
23.05.2020 09:32 9,4 C 10,0 C 85 % 1024,0 hPa 0,0 l/m 11,3 km/h (2 Bft) W-SW 247 0 min 0,7 UV-I 100 W/m 7,0 C 6,2 C 17,7 km/h (3 Bft)
23.05.2020 09:33 9,4 C 9,4 C 84 % 1023,9 hPa 0,0 l/m 12,9 km/h (3 Bft) W-SW 247 0 min 0,8 UV-I 109 W/m 6,8 C 5,4 C 20,9 km/h (4 Bft)
23.05.2020 09:34 9,4 C 9,4 C 84 % 1023,9 hPa 0,0 l/m 12,9 km/h (3 Bft) W-SW 247 0 min 0,9 UV-I 121 W/m 6,8 C 5,4 C 17,7 km/h (3 Bft)
23.05.2020 09:35 9,4 C 9,4 C 84 % 1024,0 hPa 0,0 l/m 11,3 km/h (2 Bft) W-SW 247 0 min 1,0 UV-I 140 W/m 6,8 C 6,2 C 17,7 km/h (3 Bft)
23.05.2020 09:36 9,4 C 10,0 C 84 % 1024,0 hPa 0,0 l/m 6,4 km/h (2 Bft) W-SW 247 0 min 1,1 UV-I 158 W/m 6,8 C 9,4 C 11,3 km/h (2 Bft)
23.05.2020 09:37 9,4 C 10,0 C 85 % 1023,9 hPa 0,0 l/m 8,0 km/h (2 Bft) W-SW 247 0 min 1,2 UV-I 171 W/m 7,0 C 8,2 C 12,9 km/h (3 Bft)
23.05.2020 09:38 9,4 C 10,0 C 85 % 1024,0 hPa 0,0 l/m 8,0 km/h (2 Bft) W-SW 247 0 min 1,2 UV-I 179 W/m 7,0 C 8,2 C 16,1 km/h (3 Bft)
23.05.2020 09:39 9,4 C 10,0 C 85 % 1024,0 hPa 0,0 l/m 8,0 km/h (2 Bft) W-SW 247 0 min 1,3 UV-I 186 W/m 7,0 C 8,2 C 14,5 km/h (3 Bft)
23.05.2020 09:40 9,4 C 10,0 C 85 % 1024,1 hPa 0,0 l/m 11,3 km/h (2 Bft) W-SW 247 0 min 1,3 UV-I 188 W/m 7,0 C 6,2 C 16,1 km/h (3 Bft)
23.05.2020 09:41 9,4 C 10,0 C 84 % 1024,1 hPa 0,0 l/m 11,3 km/h (2 Bft) SW 225 0 min 1,2 UV-I 178 W/m 6,8 C 6,2 C 17,7 km/h (3 Bft)
23.05.2020 09:42 9,5 C 10,0 C 84 % 1024,1 hPa 0,0 l/m 8,0 km/h (2 Bft) W-SW 247 0 min 1,2 UV-I 162 W/m 6,9 C 8,3 C 11,3 km/h (2 Bft)
23.05.2020 09:43 9,6 C 10,0 C 84 % 1024,0 hPa 0,0 l/m 6,4 km/h (2 Bft) W-SW 247 0 min 1,1 UV-I 156 W/m 7,0 C 9,6 C 11,3 km/h (2 Bft)
23.05.2020 09:44 9,6 C 10,0 C 84 % 1024,1 hPa 0,0 l/m 9,7 km/h (2 Bft) S-SW 202 0 min 1,1 UV-I 156 W/m 7,0 C 7,3 C 14,5 km/h (3 Bft)
23.05.2020 09:45 9,6 C 10,0 C 85 % 1024,0 hPa 0,0 l/m 4,8 km/h (1 Bft) W-SW 247 0 min 1,2 UV-I 160 W/m 7,2 C 9,6 C 9,7 km/h (2 Bft)
23.05.2020 09:46 9,6 C 10,6 C 85 % 1024,0 hPa 0,0 l/m 9,7 km/h (2 Bft) W-SW 247 0 min 1,2 UV-I 165 W/m 7,2 C 7,3 C 17,7 km/h (3 Bft)
23.05.2020 09:47 9,6 C 10,6 C 84 % 1024,1 hPa 0,0 l/m 14,5 km/h (3 Bft) W 270 0 min 1,2 UV-I 170 W/m 7,0 C 4,9 C 19,3 km/h (3 Bft)
23.05.2020 09:48 9,6 C 10,0 C 83 % 1023,9 hPa 0,0 l/m 14,5 km/h (3 Bft) W-SW 247 0 min 1,3 UV-I 174 W/m 6,9 C 4,9 C 19,3 km/h (3 Bft)
23.05.2020 09:49 9,6 C 10,0 C 83 % 1024,0 hPa 0,0 l/m 9,7 km/h (2 Bft) W-SW 247 0 min 1,3 UV-I 179 W/m 6,9 C 7,3 C 12,9 km/h (3 Bft)
23.05.2020 09:50 9,6 C 10,0 C 83 % 1024,0 hPa 0,0 l/m 11,3 km/h (2 Bft) W-SW 247 0 min 1,3 UV-I 185 W/m 6,9 C 6,4 C 17,7 km/h (3 Bft)
23.05.2020 09:51 9,6 C 10,0 C 83 % 1024,0 hPa 0,0 l/m 9,7 km/h (2 Bft) SW 225 0 min 1,4 UV-I 185 W/m 6,9 C 7,3 C 14,5 km/h (3 Bft)
23.05.2020 09:52 9,6 C 10,6 C 82 % 1024,0 hPa 0,0 l/m 9,7 km/h (2 Bft) SW 225 0 min 1,4 UV-I 202 W/m 6,7 C 7,3 C 16,1 km/h (3 Bft)
23.05.2020 09:53 9,6 C 10,6 C 83 % 1024,2 hPa 0,0 l/m 8,0 km/h (2 Bft) SW 225 0 min 1,4 UV-I 206 W/m 6,9 C 8,4 C 12,9 km/h (3 Bft)
23.05.2020 09:54 9,7 C 10,6 C 83 % 1024,1 hPa 0,0 l/m 11,3 km/h (2 Bft) SW 225 0 min 1,4 UV-I 204 W/m 7,0 C 6,5 C 16,1 km/h (3 Bft)
23.05.2020 09:55 9,6 C 10,6 C 82 % 1024,2 hPa 0,0 l/m 9,7 km/h (2 Bft) W 270 0 min 1,4 UV-I 200 W/m 6,7 C 7,3 C 17,7 km/h (3 Bft)
23.05.2020 09:56 9,6 C 10,6 C 82 % 1024,2 hPa 0,0 l/m 11,3 km/h (2 Bft) W-SW 247 0 min 1,3 UV-I 195 W/m 6,7 C 6,4 C 17,7 km/h (3 Bft)
23.05.2020 09:57 9,7 C 10,6 C 82 % 1024,2 hPa 0,0 l/m 9,7 km/h (2 Bft) SW 225 0 min 1,3 UV-I 190 W/m 6,8 C 7,4 C 16,1 km/h (3 Bft)
23.05.2020 09:58 9,7 C 10,6 C 82 % 1024,1 hPa 0,0 l/m 9,7 km/h (2 Bft) SW 225 0 min 1,2 UV-I 181 W/m 6,8 C 7,4 C 14,5 km/h (3 Bft)
23.05.2020 10:00 9,7 C 10,6 C 82 % 1024,2 hPa 0,0 l/m 11,0 km/h (2 Bft) W-SW 242 0 min 1,2 UV-I 167 W/m 6,8 C 6,7 C 14,5 km/h (3 Bft)
23.05.2020 10:02 9,7 C 10,6 C 82 % 1024,1 hPa 0,0 l/m 9,0 km/h (2 Bft) W-SW 243 0 min 1,2 UV-I 166 W/m 6,8 C 7,9 C 14,5 km/h (3 Bft)
23.05.2020 10:04 9,7 C 10,6 C 82 % 1024,1 hPa 0,0 l/m 8,4 km/h (2 Bft) W-SW 242 0 min 1,2 UV-I 173 W/m 6,8 C 8,3 C 16,1 km/h (3 Bft)
23.05.2020 10:06 9,6 C 10,0 C 81 % 1024,1 hPa 0,0 l/m 10,8 km/h (2 Bft) SW 225 0 min 1,3 UV-I 194 W/m 6,5 C 6,7 C 17,7 km/h (3 Bft)
23.05.2020 10:08 9,6 C 10,6 C 81 % 1024,1 hPa 0,0 l/m 9,3 km/h (2 Bft) SW 215 0 min 1,4 UV-I 201 W/m 6,5 C 7,6 C 14,5 km/h (3 Bft)
23.05.2020 10:10 9,6 C 10,6 C 81 % 1024,2 hPa 0,0 l/m 10,0 km/h (2 Bft) SW 221 0 min 1,4 UV-I 195 W/m 6,5 C 7,2 C 20,9 km/h (4 Bft)
23.05.2020 10:12 9,7 C 10,6 C 82 % 1024,2 hPa 0,0 l/m 5,1 km/h (1 Bft) S-SW 197 0 min 1,4 UV-I 194 W/m 6,8 C 9,7 C 9,7 km/h (2 Bft)
23.05.2020 10:14 9,7 C 10,6 C 81 % 1024,2 hPa 0,0 l/m 7,3 km/h (2 Bft) SW 217 0 min 1,5 UV-I 202 W/m 6,6 C 9,0 C 16,1 km/h (3 Bft)
23.05.2020 10:16 9,7 C 10,6 C 80 % 1024,3 hPa 0,0 l/m 13,1 km/h (3 Bft) SW 215 0 min 1,5 UV-I 203 W/m 6,4 C 5,6 C 19,3 km/h (3 Bft)
23.05.2020 10:18 9,6 C 10,6 C 81 % 1024,3 hPa 0,0 l/m 9,9 km/h (2 Bft) SW 220 0 min 1,4 UV-I 197 W/m 6,5 C 7,2 C 16,1 km/h (3 Bft)
23.05.2020 10:20 9,6 C 10,6 C 80 % 1024,3 hPa 0,0 l/m 11,3 km/h (2 Bft) SW 221 0 min 1,4 UV-I 196 W/m 6,3 C 6,4 C 19,3 km/h (3 Bft)
23.05.2020 10:22 9,6 C 10,6 C 80 % 1024,4 hPa 0,0 l/m 12,0 km/h (2 Bft) W-SW 237 0 min 1,4 UV-I 211 W/m 6,3 C 6,1 C 20,9 km/h (4 Bft)
23.05.2020 10:24 9,6 C 10,0 C 81 % 1024,4 hPa 0,0 l/m 11,1 km/h (2 Bft) S-SW 195 0 min 1,3 UV-I 182 W/m 6,5 C 6,5 C 17,7 km/h (3 Bft)
23.05.2020 10:26 9,4 C 10,0 C 79 % 1024,5 hPa 0,0 l/m 15,2 km/h (3 Bft) W-SW 244 0 min 1,0 UV-I 148 W/m 5,9 C 4,3 C 22,5 km/h (4 Bft)
23.05.2020 10:28 9,4 C 8,9 C 80 % 1024,4 hPa 0,2 l/m 13,6 km/h (3 Bft) SW 223 0 min 0,9 UV-I 114 W/m 6,1 C 5,0 C 22,5 km/h (4 Bft)
23.05.2020 10:30 9,2 C 8,9 C 81 % 1024,5 hPa 0,0 l/m 12,7 km/h (3 Bft) W-SW 242 0 min 0,7 UV-I 93 W/m 6,1 C 5,2 C 20,9 km/h (4 Bft)
23.05.2020 10:32 9,1 C 8,3 C 82 % 1024,6 hPa 0,2 l/m 14,5 km/h (3 Bft) SW 219 0 min 0,7 UV-I 89 W/m 6,2 C 4,3 C 22,5 km/h (4 Bft)
23.05.2020 10:34 8,9 C 7,8 C 83 % 1024,7 hPa 0,0 l/m 14,5 km/h (3 Bft) W-SW 246 0 min 0,7 UV-I 91 W/m 6,2 C 4,0 C 24,1 km/h (4 Bft)
23.05.2020 10:36 8,7 C 7,8 C 83 % 1024,7 hPa 0,2 l/m 14,7 km/h (3 Bft) W-SW 252 0 min 0,7 UV-I 94 W/m 6,0 C 3,7 C 20,9 km/h (4 Bft)
23.05.2020 10:38 8,6 C 7,8 C 84 % 1024,8 hPa 0,0 l/m 10,3 km/h (2 Bft) S-SW 211 0 min 0,7 UV-I 97 W/m 6,1 C 5,9 C 17,7 km/h (3 Bft)
23.05.2020 10:40 8,5 C 7,8 C 85 % 1024,8 hPa 0,2 l/m 15,1 km/h (3 Bft) W-SW 252 0 min 0,8 UV-I 110 W/m 6,1 C 3,3 C 22,5 km/h (4 Bft)
23.05.2020 10:42 8,4 C 7,8 C 86 % 1024,8 hPa 0,0 l/m 10,7 km/h (2 Bft) W 273 0 min 1,0 UV-I 130 W/m 6,2 C 5,4 C 17,7 km/h (3 Bft)
23.05.2020 10:44 8,3 C 7,8 C 86 % 1024,9 hPa 0,2 l/m 10,9 km/h (2 Bft) SW 229 0 min 1,1 UV-I 137 W/m 6,1 C 5,2 C 19,3 km/h (3 Bft)
23.05.2020 10:46 8,3 C 7,8 C 87 % 1024,8 hPa 0,0 l/m 6,1 km/h (2 Bft) W 263 0 min 1,0 UV-I 133 W/m 6,3 C 8,3 C 16,1 km/h (3 Bft)
23.05.2020 10:48 8,3 C 7,8 C 87 % 1024,9 hPa 0,2 l/m 10,0 km/h (2 Bft) W-SW 244 0 min 1,1 UV-I 139 W/m 6,3 C 5,7 C 17,7 km/h (3 Bft)
23.05.2020 10:50 8,2 C 7,8 C 86 % 1024,8 hPa 0,0 l/m 8,8 km/h (2 Bft) S-SW 213 0 min 1,1 UV-I 147 W/m 6,0 C 6,4 C 19,3 km/h (3 Bft)
23.05.2020 10:52 8,2 C 7,8 C 87 % 1024,7 hPa 0,0 l/m 6,1 km/h (2 Bft) SW 222 0 min 1,1 UV-I 137 W/m 6,2 C 8,2 C 11,3 km/h (2 Bft)
23.05.2020 10:54 8,1 C 7,8 C 87 % 1024,8 hPa 0,0 l/m 4,2 km/h (1 Bft) S-SW 211 0 min 1,1 UV-I 137 W/m 6,1 C 8,1 C 6,4 km/h (2 Bft)
23.05.2020 10:56 8,1 C 7,8 C 87 % 1024,7 hPa 0,0 l/m 7,1 km/h (2 Bft) S-SW 207 0 min 1,1 UV-I 139 W/m 6,1 C 7,6 C 9,7 km/h (2 Bft)
23.05.2020 10:58 8,1 C 7,8 C 87 % 1024,8 hPa 0,2 l/m 7,4 km/h (2 Bft) S-SW 206 0 min 1,0 UV-I 125 W/m 6,1 C 7,3 C 11,3 km/h (2 Bft)
23.05.2020 11:00 8,1 C 7,8 C 87 % 1024,8 hPa 0,0 l/m 7,8 km/h (2 Bft) SW 215 0 min 0,9 UV-I 114 W/m 6,1 C 7,0 C 12,9 km/h (3 Bft)
23.05.2020 11:02 8,1 C 7,8 C 88 % 1024,8 hPa 0,0 l/m 6,5 km/h (2 Bft) SW 214 0 min 0,9 UV-I 113 W/m 6,2 C 8,0 C 9,7 km/h (2 Bft)
23.05.2020 11:04 8,1 C 7,8 C 88 % 1024,8 hPa 0,0 l/m 5,2 km/h (1 Bft) S-SW 202 0 min 0,8 UV-I 109 W/m 6,2 C 8,1 C 9,7 km/h (2 Bft)
23.05.2020 11:06 8,2 C 7,8 C 88 % 1024,9 hPa 0,2 l/m 6,2 km/h (2 Bft) S-SW 207 0 min 0,8 UV-I 107 W/m 6,3 C 8,2 C 11,3 km/h (2 Bft)
23.05.2020 11:08 8,2 C 7,8 C 88 % 1024,8 hPa 0,0 l/m 6,4 km/h (2 Bft) SW 219 0 min 0,8 UV-I 101 W/m 6,3 C 8,2 C 9,7 km/h (2 Bft)
23.05.2020 11:10 8,1 C 7,8 C 88 % 1024,8 hPa 0,2 l/m 7,8 km/h (2 Bft) SW 215 0 min 0,7 UV-I 96 W/m 6,2 C 7,0 C 9,7 km/h (2 Bft)
23.05.2020 11:12 8,1 C 7,8 C 89 % 1024,9 hPa 0,2 l/m 6,1 km/h (2 Bft) S-SW 202 0 min 0,7 UV-I 93 W/m 6,4 C 8,1 C 9,7 km/h (2 Bft)
23.05.2020 11:14 8,1 C 7,8 C 89 % 1025,0 hPa 0,0 l/m 6,7 km/h (2 Bft) W-SW 238 0 min 0,6 UV-I 79 W/m 6,4 C 7,9 C 11,3 km/h (2 Bft)
23.05.2020 11:16 8,0 C 7,8 C 89 % 1025,1 hPa 0,2 l/m 6,9 km/h (2 Bft) SW 216 0 min 0,5 UV-I 62 W/m 6,3 C 7,6 C 9,7 km/h (2 Bft)
23.05.2020 11:18 7,9 C 7,8 C 89 % 1025,1 hPa 0,2 l/m 4,9 km/h (1 Bft) SW 217 0 min 0,2 UV-I 54 W/m 6,2 C 7,9 C 8,0 km/h (2 Bft)
23.05.2020 11:20 7,9 C 7,8 C 89 % 1025,0 hPa 0,2 l/m 5,1 km/h (1 Bft) SW 230 0 min 0,1 UV-I 57 W/m 6,2 C 7,9 C 6,4 km/h (2 Bft)
23.05.2020 11:22 7,9 C 7,8 C 90 % 1024,9 hPa 0,2 l/m 4,3 km/h (1 Bft) SW 235 0 min 0,6 UV-I 77 W/m 6,4 C 7,9 C 6,4 km/h (2 Bft)
23.05.2020 11:24 8,0 C 8,3 C 90 % 1025,1 hPa 0,2 l/m 2,9 km/h (1 Bft) SW 222 0 min 0,7 UV-I 88 W/m 6,5 C 8,0 C 4,8 km/h (1 Bft)
23.05.2020 11:26 8,1 C 8,3 C 90 % 1025,3 hPa 0,0 l/m 3,9 km/h (1 Bft) SW 227 0 min 1,0 UV-I 119 W/m 6,6 C 8,1 C 6,4 km/h (2 Bft)
23.05.2020 11:28 8,1 C 8,3 C 90 % 1025,3 hPa 0,0 l/m 9,8 km/h (2 Bft) S-SW 198 0 min 1,1 UV-I 140 W/m 6,6 C 5,6 C 17,7 km/h (3 Bft)
23.05.2020 11:30 8,1 C 8,3 C 90 % 1025,3 hPa 0,0 l/m 7,0 km/h (2 Bft) SW 229 0 min 1,2 UV-I 146 W/m 6,6 C 7,6 C 14,5 km/h (3 Bft)
23.05.2020 11:32 8,2 C 8,3 C 90 % 1025,1 hPa 0,0 l/m 7,4 km/h (2 Bft) S-SW 207 0 min 1,4 UV-I 172 W/m 6,7 C 7,4 C 16,1 km/h (3 Bft)
23.05.2020 11:34 8,2 C 8,3 C 89 % 1025,2 hPa 0,2 l/m 9,8 km/h (2 Bft) SW 220 0 min 2,0 UV-I 251 W/m 6,5 C 5,7 C 19,3 km/h (3 Bft)
23.05.2020 11:36 8,3 C 8,9 C 89 % 1024,9 hPa 0,0 l/m 8,5 km/h (2 Bft) SW 227 0 min 2,1 UV-I 271 W/m 6,6 C 6,7 C 12,9 km/h (3 Bft)
23.05.2020 11:38 8,3 C 9,4 C 89 % 1024,9 hPa 0,0 l/m 6,0 km/h (2 Bft) SW 229 0 min 2,2 UV-I 286 W/m 6,6 C 8,3 C 9,7 km/h (2 Bft)
23.05.2020 11:40 8,5 C 8,9 C 89 % 1024,9 hPa 0,0 l/m 5,4 km/h (1 Bft) S-SW 194 0 min 2,0 UV-I 259 W/m 6,8 C 8,5 C 9,7 km/h (2 Bft)
23.05.2020 11:42 8,5 C 8,9 C 87 % 1025,1 hPa 0,0 l/m 8,6 km/h (2 Bft) W-SW 252 0 min 1,7 UV-I 223 W/m 6,5 C 6,9 C 14,5 km/h (3 Bft)
23.05.2020 11:44 8,6 C 8,9 C 88 % 1025,3 hPa 0,0 l/m 8,1 km/h (2 Bft) W-SW 239 0 min 1,4 UV-I 183 W/m 6,7 C 7,3 C 11,3 km/h (2 Bft)
23.05.2020 11:46 8,6 C 8,9 C 88 % 1025,2 hPa 0,0 l/m 5,0 km/h (1 Bft) SW 223 0 min 1,3 UV-I 161 W/m 6,7 C 8,6 C 11,3 km/h (2 Bft)
23.05.2020 11:48 8,6 C 8,9 C 88 % 1025,2 hPa 0,0 l/m 7,7 km/h (2 Bft) S 191 0 min 1,2 UV-I 151 W/m 6,7 C 7,6 C 11,3 km/h (2 Bft)
23.05.2020 11:50 8,5 C 8,3 C 88 % 1025,0 hPa 0,0 l/m 9,4 km/h (2 Bft) S 190 0 min 1,3 UV-I 160 W/m 6,6 C 6,3 C 14,5 km/h (3 Bft)
23.05.2020 11:52 8,4 C 8,9 C 88 % 1025,1 hPa 0,0 l/m 10,1 km/h (2 Bft) S-SW 203 0 min 1,3 UV-I 168 W/m 6,5 C 5,8 C 19,3 km/h (3 Bft)
23.05.2020 11:54 8,4 C 8,3 C 88 % 1025,2 hPa 0,0 l/m 12,6 km/h (3 Bft) SW 224 0 min 1,3 UV-I 164 W/m 6,5 C 4,4 C 17,7 km/h (3 Bft)
23.05.2020 11:56 8,3 C 8,3 C 88 % 1025,3 hPa 0,0 l/m 11,2 km/h (2 Bft) S-SW 207 0 min 1,2 UV-I 144 W/m 6,4 C 5,0 C 14,5 km/h (3 Bft)
23.05.2020 11:58 8,3 C 8,3 C 88 % 1025,1 hPa 0,0 l/m 11,9 km/h (2 Bft) S-SW 202 0 min 1,1 UV-I 140 W/m 6,4 C 4,6 C 16,1 km/h (3 Bft)
23.05.2020 12:00 8,3 C 8,3 C 89 % 1025,0 hPa 0,0 l/m 10,3 km/h (2 Bft) SW 224 0 min 1,4 UV-I 176 W/m 6,6 C 5,5 C 16,1 km/h (3 Bft)
23.05.2020 12:02 8,3 C 8,9 C 89 % 1025,1 hPa 0,0 l/m 11,1 km/h (2 Bft) SW 218 0 min 1,6 UV-I 193 W/m 6,6 C 5,1 C 16,1 km/h (3 Bft)
23.05.2020 12:04 8,4 C 8,9 C 89 % 1025,2 hPa 0,0 l/m 8,3 km/h (2 Bft) SW 221 0 min 1,5 UV-I 197 W/m 6,7 C 7,0 C 12,9 km/h (3 Bft)
23.05.2020 12:06 8,5 C 8,9 C 89 % 1025,0 hPa 0,0 l/m 8,1 km/h (2 Bft) SW 224 0 min 1,8 UV-I 225 W/m 6,8 C 7,2 C 12,9 km/h (3 Bft)
23.05.2020 12:08 8,6 C 8,9 C 88 % 1025,1 hPa 0,0 l/m 9,8 km/h (2 Bft) S 191 0 min 2,0 UV-I 250 W/m 6,7 C 6,2 C 14,5 km/h (3 Bft)
23.05.2020 12:10 8,6 C 8,9 C 89 % 1025,2 hPa 0,0 l/m 14,8 km/h (3 Bft) SW 227 0 min 1,9 UV-I 235 W/m 6,9 C 3,5 C 19,3 km/h (3 Bft)
23.05.2020 12:12 8,6 C 8,9 C 88 % 1025,1 hPa 0,0 l/m 13,5 km/h (3 Bft) SW 218 0 min 1,8 UV-I 222 W/m 6,7 C 4,1 C 17,7 km/h (3 Bft)
23.05.2020 12:14 8,6 C 8,9 C 87 % 1025,2 hPa 0,0 l/m 12,9 km/h (3 Bft) W-SW 243 0 min 1,9 UV-I 226 W/m 6,6 C 4,4 C 22,5 km/h (4 Bft)
23.05.2020 12:16 8,6 C 8,9 C 88 % 1025,1 hPa 0,0 l/m 7,6 km/h (2 Bft) SW 219 0 min 1,6 UV-I 196 W/m 6,7 C 7,7 C 16,1 km/h (3 Bft)
23.05.2020 12:18 8,6 C 8,9 C 88 % 1025,1 hPa 0,0 l/m 11,1 km/h (2 Bft) SW 217 0 min 1,6 UV-I 196 W/m 6,7 C 5,4 C 17,7 km/h (3 Bft)
23.05.2020 12:20 8,6 C 8,9 C 88 % 1025,2 hPa 0,0 l/m 13,6 km/h (3 Bft) SW 216 0 min 1,7 UV-I 205 W/m 6,7 C 4,1 C 19,3 km/h (3 Bft)
23.05.2020 12:22 8,6 C 8,9 C 87 % 1025,1 hPa 0,0 l/m 14,2 km/h (3 Bft) S-SW 211 0 min 1,6 UV-I 199 W/m 6,6 C 3,8 C 22,5 km/h (4 Bft)
23.05.2020 12:24 8,5 C 8,9 C 88 % 1025,1 hPa 0,0 l/m 12,7 km/h (3 Bft) S-SW 211 0 min 1,6 UV-I 195 W/m 6,6 C 4,4 C 19,3 km/h (3 Bft)
23.05.2020 12:26 8,6 C 8,9 C 88 % 1025,1 hPa 0,0 l/m 11,1 km/h (2 Bft) S 171 0 min 1,5 UV-I 186 W/m 6,7 C 5,4 C 19,3 km/h (3 Bft)
23.05.2020 12:28 8,5 C 8,9 C 88 % 1025,0 hPa 0,0 l/m 13,7 km/h (3 Bft) S-SW 209 0 min 1,6 UV-I 192 W/m 6,6 C 3,9 C 19,3 km/h (3 Bft)
23.05.2020 12:30 8,6 C 8,9 C 88 % 1025,1 hPa 0,0 l/m 9,3 km/h (2 Bft) S-SW 192 0 min 1,7 UV-I 208 W/m 6,7 C 6,5 C 16,1 km/h (3 Bft)
23.05.2020 12:32 8,6 C 9,4 C 88 % 1025,1 hPa 0,0 l/m 11,4 km/h (2 Bft) S 184 0 min 1,8 UV-I 226 W/m 6,7 C 5,2 C 16,1 km/h (3 Bft)
23.05.2020 12:34 8,7 C 9,4 C 88 % 1025,0 hPa 0,0 l/m 7,3 km/h (2 Bft) S 171 0 min 1,7 UV-I 222 W/m 6,8 C 8,0 C 12,9 km/h (3 Bft)
23.05.2020 12:36 8,7 C 9,4 C 88 % 1025,0 hPa 0,0 l/m 9,9 km/h (2 Bft) S 188 0 min 1,7 UV-I 220 W/m 6,8 C 6,2 C 16,1 km/h (3 Bft)
23.05.2020 12:38 8,7 C 9,4 C 88 % 1025,0 hPa 0,0 l/m 11,1 km/h (2 Bft) SW 216 0 min 1,7 UV-I 219 W/m 6,8 C 5,5 C 20,9 km/h (4 Bft)
23.05.2020 12:40 8,7 C 9,4 C 87 % 1025,1 hPa 0,0 l/m 7,0 km/h (2 Bft) S-SW 193 0 min 1,8 UV-I 226 W/m 6,7 C 8,2 C 12,9 km/h (3 Bft)
23.05.2020 12:42 8,7 C 9,4 C 88 % 1025,0 hPa 0,0 l/m 10,2 km/h (2 Bft) S-SW 196 0 min 1,8 UV-I 228 W/m 6,8 C 6,0 C 14,5 km/h (3 Bft)
23.05.2020 12:44 8,8 C 9,4 C 87 % 1025,1 hPa 0,0 l/m 11,9 km/h (2 Bft) S-SW 196 0 min 1,9 UV-I 236 W/m 6,8 C 5,2 C 17,7 km/h (3 Bft)
23.05.2020 12:46 8,8 C 9,4 C 87 % 1025,0 hPa 0,0 l/m 11,9 km/h (2 Bft) S-SW 206 0 min 1,9 UV-I 237 W/m 6,8 C 5,2 C 17,7 km/h (3 Bft)
23.05.2020 12:48 8,8 C 9,4 C 87 % 1025,1 hPa 0,0 l/m 13,8 km/h (3 Bft) S-SW 211 0 min 2,0 UV-I 246 W/m 6,8 C 4,2 C 20,9 km/h (4 Bft)
23.05.2020 12:50 8,8 C 8,9 C 86 % 1024,9 hPa 0,0 l/m 15,4 km/h (3 Bft) S-SW 209 0 min 2,0 UV-I 252 W/m 6,6 C 3,5 C 22,5 km/h (4 Bft)
23.05.2020 12:52 8,8 C 9,4 C 86 % 1024,9 hPa 0,0 l/m 11,7 km/h (2 Bft) SW 214 0 min 2,0 UV-I 250 W/m 6,6 C 5,3 C 16,1 km/h (3 Bft)
23.05.2020 12:54 8,8 C 9,4 C 86 % 1025,1 hPa 0,0 l/m 12,5 km/h (3 Bft) S-SW 213 0 min 1,9 UV-I 242 W/m 6,6 C 4,9 C 19,3 km/h (3 Bft)
23.05.2020 12:56 8,9 C 9,4 C 86 % 1025,0 hPa 0,0 l/m 11,2 km/h (2 Bft) S-SW 203 0 min 1,9 UV-I 237 W/m 6,7 C 5,7 C 19,3 km/h (3 Bft)
23.05.2020 12:58 8,9 C 9,4 C 86 % 1025,1 hPa 0,0 l/m 11,4 km/h (2 Bft) S-SW 195 0 min 2,0 UV-I 247 W/m 6,7 C 5,6 C 16,1 km/h (3 Bft)
23.05.2020 13:00 9,0 C 10,0 C 87 % 1025,2 hPa 0,0 l/m 9,8 km/h (2 Bft) S 188 0 min 2,1 UV-I 254 W/m 7,0 C 6,6 C 14,5 km/h (3 Bft)
23.05.2020 13:02 9,2 C 10,6 C 87 % 1025,2 hPa 0,0 l/m 9,9 km/h (2 Bft) W 265 0 min 2,2 UV-I 279 W/m 7,2 C 6,8 C 14,5 km/h (3 Bft)
23.05.2020 13:04 9,2 C 10,6 C 86 % 1025,2 hPa 0,0 l/m 11,5 km/h (2 Bft) S 179 0 min 2,4 UV-I 293 W/m 7,0 C 5,9 C 17,7 km/h (3 Bft)
23.05.2020 13:06 9,3 C 10,6 C 86 % 1025,3 hPa 0,0 l/m 10,5 km/h (2 Bft) S 175 0 min 2,5 UV-I 311 W/m 7,1 C 6,5 C 20,9 km/h (4 Bft)
23.05.2020 13:08 9,3 C 10,6 C 85 % 1025,1 hPa 0,0 l/m 14,5 km/h (3 Bft) SW 228 0 min 2,9 UV-I 370 W/m 6,9 C 4,5 C 22,5 km/h (4 Bft)
23.05.2020 13:10 9,3 C 11,1 C 85 % 1025,1 hPa 0,0 l/m 10,9 km/h (2 Bft) S 189 0 min 3,3 UV-I 417 W/m 6,9 C 6,3 C 17,7 km/h (3 Bft)
23.05.2020 13:12 9,4 C 11,7 C 85 % 1025,0 hPa 0,0 l/m 11,0 km/h (2 Bft) S-SW 209 0 min 3,7 UV-I 475 W/m 7,0 C 6,4 C 17,7 km/h (3 Bft)
23.05.2020 13:14 9,6 C 12,2 C 85 % 1025,1 hPa 0,0 l/m 10,4 km/h (2 Bft) S-SW 213 0 min 3,6 UV-I 468 W/m 7,2 C 6,9 C 17,7 km/h (3 Bft)
23.05.2020 13:16 9,7 C 12,8 C 85 % 1025,0 hPa 0,0 l/m 10,6 km/h (2 Bft) SW 233 0 min 3,4 UV-I 443 W/m 7,3 C 6,9 C 20,9 km/h (4 Bft)
23.05.2020 13:18 9,8 C 12,2 C 84 % 1025,0 hPa 0,0 l/m 16,7 km/h (3 Bft) SW 218 0 min 3,3 UV-I 448 W/m 7,2 C 4,2 C 24,1 km/h (4 Bft)
23.05.2020 13:20 9,7 C 12,2 C 84 % 1025,0 hPa 0,0 l/m 14,4 km/h (3 Bft) S-SW 211 0 min 3,6 UV-I 478 W/m 7,1 C 5,0 C 22,5 km/h (4 Bft)
23.05.2020 13:22 9,7 C 12,8 C 84 % 1025,1 hPa 0,0 l/m 16,4 km/h (3 Bft) S-SW 207 0 min 3,7 UV-I 490 W/m 7,1 C 4,2 C 22,5 km/h (4 Bft)
23.05.2020 13:24 9,8 C 12,8 C 85 % 1025,2 hPa 0,0 l/m 10,3 km/h (2 Bft) S 182 0 min 3,2 UV-I 439 W/m 7,4 C 7,2 C 16,1 km/h (3 Bft)
23.05.2020 13:26 10,0 C 12,8 C 85 % 1025,2 hPa 0,0 l/m 8,9 km/h (2 Bft) S-SW 213 0 min 1,9 UV-I 259 W/m 7,6 C 8,3 C 14,5 km/h (3 Bft)
23.05.2020 13:28 9,9 C 12,2 C 83 % 1025,1 hPa 0,0 l/m 12,4 km/h (3 Bft) S-SW 211 0 min 2,1 UV-I 281 W/m 7,2 C 6,2 C 17,7 km/h (3 Bft)
23.05.2020 13:30 9,9 C 12,2 C 84 % 1025,1 hPa 0,0 l/m 15,4 km/h (3 Bft) SW 215 0 min 3,1 UV-I 409 W/m 7,3 C 4,8 C 24,1 km/h (4 Bft)
23.05.2020 13:32 10,0 C 12,8 C 85 % 1025,0 hPa 0,0 l/m 9,7 km/h (2 Bft) S-SW 207 0 min 3,2 UV-I 460 W/m 7,6 C 7,8 C 16,1 km/h (3 Bft)
23.05.2020 13:34 10,1 C 13,3 C 84 % 1025,0 hPa 0,0 l/m 11,7 km/h (2 Bft) SW 217 0 min 3,3 UV-I 483 W/m 7,5 C 6,8 C 17,7 km/h (3 Bft)
23.05.2020 13:36 10,0 C 12,8 C 82 % 1025,0 hPa 0,0 l/m 12,8 km/h (3 Bft) S 171 0 min 2,3 UV-I 325 W/m 7,1 C 6,1 C 19,3 km/h (3 Bft)
23.05.2020 13:38 10,1 C 12,8 C 84 % 1025,1 hPa 0,0 l/m 9,7 km/h (2 Bft) SW 217 0 min 2,4 UV-I 325 W/m 7,5 C 7,9 C 12,9 km/h (3 Bft)
23.05.2020 13:40 10,2 C 13,3 C 84 % 1025,0 hPa 0,0 l/m 7,5 km/h (2 Bft) S 178 0 min 3,6 UV-I 491 W/m 7,6 C 9,4 C 11,3 km/h (2 Bft)
23.05.2020 13:42 10,4 C 13,9 C 84 % 1025,0 hPa 0,0 l/m 11,4 km/h (2 Bft) W-SW 242 0 min 4,6 UV-I 531 W/m 7,8 C 7,3 C 16,1 km/h (3 Bft)
23.05.2020 13:44 10,4 C 13,9 C 83 % 1025,1 hPa 0,0 l/m 14,1 km/h (3 Bft) SW 220 0 min 4,2 UV-I 565 W/m 7,6 C 6,0 C 20,9 km/h (4 Bft)
23.05.2020 13:46 10,4 C 13,9 C 83 % 1025,0 hPa 0,0 l/m 14,1 km/h (3 Bft) SW 217 0 min 4,2 UV-I 570 W/m 7,6 C 6,0 C 22,5 km/h (4 Bft)
23.05.2020 13:48 10,5 C 14,4 C 82 % 1025,0 hPa 0,0 l/m 15,0 km/h (3 Bft) SW 223 2 min 4,4 UV-I 613 W/m 7,6 C 5,7 C 22,5 km/h (4 Bft)
23.05.2020 13:50 10,5 C 15,0 C 82 % 1025,1 hPa 0,0 l/m 13,8 km/h (3 Bft) S-SW 202 2 min 4,5 UV-I 641 W/m 7,6 C 6,3 C 19,3 km/h (3 Bft)
23.05.2020 13:52 10,8 C 15,0 C 83 % 1025,0 hPa 0,0 l/m 12,4 km/h (3 Bft) S-SW 205 2 min 4,2 UV-I 663 W/m 8,0 C 7,2 C 22,5 km/h (4 Bft)
23.05.2020 13:54 10,8 C 15,0 C 82 % 1025,1 hPa 0,0 l/m 14,1 km/h (3 Bft) S-SW 197 0 min 3,9 UV-I 476 W/m 7,9 C 6,5 C 19,3 km/h (3 Bft)
23.05.2020 13:56 10,8 C 15,0 C 82 % 1025,1 hPa 0,0 l/m 14,5 km/h (3 Bft) SW 234 2 min 4,4 UV-I 678 W/m 7,9 C 6,3 C 20,9 km/h (4 Bft)
23.05.2020 13:58 10,8 C 14,4 C 80 % 1025,1 hPa 0,0 l/m 14,9 km/h (3 Bft) W-SW 240 0 min 3,6 UV-I 504 W/m 7,5 C 6,1 C 24,1 km/h (4 Bft)
23.05.2020 14:00 10,7 C 13,9 C 81 % 1025,2 hPa 0,0 l/m 13,0 km/h (3 Bft) W 262 0 min 3,1 UV-I 410 W/m 7,6 C 6,8 C 19,3 km/h (3 Bft)
23.05.2020 14:02 10,6 C 13,3 C 80 % 1025,1 hPa 0,0 l/m 19,0 km/h (3 Bft) SW 222 0 min 3,0 UV-I 394 W/m 7,3 C 4,4 C 25,7 km/h (4 Bft)
23.05.2020 14:04 10,6 C 12,8 C 81 % 1025,2 hPa 0,0 l/m 12,8 km/h (3 Bft) S-SW 194 0 min 2,8 UV-I 373 W/m 7,5 C 6,8 C 22,5 km/h (4 Bft)
23.05.2020 14:06 10,6 C 12,8 C 81 % 1025,2 hPa 0,0 l/m 11,4 km/h (2 Bft) W-SW 256 0 min 2,8 UV-I 363 W/m 7,5 C 7,5 C 16,1 km/h (3 Bft)
23.05.2020 14:08 10,7 C 13,3 C 83 % 1025,2 hPa 0,0 l/m 10,6 km/h (2 Bft) S 188 0 min 2,7 UV-I 359 W/m 7,9 C 8,0 C 16,1 km/h (3 Bft)
23.05.2020 14:10 10,8 C 13,9 C 82 % 1025,2 hPa 0,0 l/m 11,6 km/h (2 Bft) SW 217 0 min 2,6 UV-I 364 W/m 7,9 C 7,6 C 17,7 km/h (3 Bft)
23.05.2020 14:12 10,7 C 13,3 C 81 % 1025,2 hPa 0,0 l/m 18,2 km/h (3 Bft) S-SW 211 0 min 2,4 UV-I 335 W/m 7,6 C 4,8 C 22,5 km/h (4 Bft)
23.05.2020 14:14 10,7 C 13,3 C 81 % 1025,3 hPa 0,0 l/m 13,9 km/h (3 Bft) SW 230 0 min 2,6 UV-I 332 W/m 7,6 C 6,4 C 20,9 km/h (4 Bft)
23.05.2020 14:16 10,7 C 13,3 C 81 % 1025,2 hPa 0,0 l/m 9,6 km/h (2 Bft) SW 231 0 min 2,1 UV-I 281 W/m 7,6 C 8,6 C 16,1 km/h (3 Bft)
23.05.2020 14:18 10,6 C 12,8 C 81 % 1025,3 hPa 0,0 l/m 13,1 km/h (3 Bft) SW 218 0 min 1,8 UV-I 241 W/m 7,5 C 6,7 C 20,9 km/h (4 Bft)
23.05.2020 14:20 10,6 C 12,2 C 81 % 1025,3 hPa 0,0 l/m 9,2 km/h (2 Bft) S-SW 209 0 min 1,9 UV-I 249 W/m 7,5 C 8,7 C 14,5 km/h (3 Bft)
23.05.2020 14:22 10,7 C 12,8 C 82 % 1025,3 hPa 0,0 l/m 11,0 km/h (2 Bft) S 179 0 min 2,3 UV-I 305 W/m 7,8 C 7,8 C 16,1 km/h (3 Bft)
23.05.2020 14:24 10,8 C 12,8 C 82 % 1025,2 hPa 0,0 l/m 6,1 km/h (2 Bft) S-SW 192 0 min 2,8 UV-I 385 W/m 7,9 C 10,8 C 9,7 km/h (2 Bft)
23.05.2020 14:26 10,9 C 13,3 C 82 % 1025,2 hPa 0,0 l/m 10,6 km/h (2 Bft) SW 229 0 min 3,1 UV-I 399 W/m 7,9 C 8,3 C 16,1 km/h (3 Bft)
23.05.2020 14:28 10,9 C 13,3 C 82 % 1025,2 hPa 0,0 l/m 9,4 km/h (2 Bft) S-SW 201 0 min 2,6 UV-I 335 W/m 7,9 C 8,9 C 16,1 km/h (3 Bft)
23.05.2020 14:30 11,1 C 13,3 C 80 % 1025,2 hPa 0,0 l/m 10,8 km/h (2 Bft) SW 218 0 min 2,4 UV-I 310 W/m 7,8 C 8,4 C 14,5 km/h (3 Bft)
23.05.2020 14:32 11,0 C 13,3 C 81 % 1025,3 hPa 0,0 l/m 11,3 km/h (2 Bft) W-SW 242 0 min 2,6 UV-I 336 W/m 7,9 C 8,0 C 16,1 km/h (3 Bft)
23.05.2020 14:34 11,2 C 13,3 C 82 % 1025,3 hPa 0,0 l/m 8,4 km/h (2 Bft) SW 221 0 min 2,8 UV-I 369 W/m 8,2 C 9,9 C 12,9 km/h (3 Bft)
23.05.2020 14:36 11,4 C 14,4 C 81 % 1025,4 hPa 0,0 l/m 9,7 km/h (2 Bft) S 182 0 min 3,4 UV-I 412 W/m 8,3 C 9,3 C 17,7 km/h (3 Bft)
23.05.2020 14:38 11,4 C 13,9 C 81 % 1025,3 hPa 0,0 l/m 9,1 km/h (2 Bft) S 180 0 min 3,6 UV-I 464 W/m 8,3 C 9,6 C 11,3 km/h (2 Bft)
23.05.2020 14:40 11,6 C 15,0 C 81 % 1025,3 hPa 0,0 l/m 8,2 km/h (2 Bft) S-SW 199 0 min 4,1 UV-I 578 W/m 8,5 C 10,4 C 16,1 km/h (3 Bft)
23.05.2020 14:42 11,7 C 16,1 C 81 % 1025,3 hPa 0,0 l/m 9,0 km/h (2 Bft) W-SW 258 2 min 5,0 UV-I 650 W/m 8,5 C 10,0 C 17,7 km/h (3 Bft)
23.05.2020 14:44 12,1 C 16,7 C 80 % 1025,2 hPa 0,0 l/m 9,2 km/h (2 Bft) W-SW 245 2 min 4,4 UV-I 761 W/m 8,8 C 10,3 C 14,5 km/h (3 Bft)
23.05.2020 14:46 12,0 C 16,1 C 79 % 1025,3 hPa 0,0 l/m 9,6 km/h (2 Bft) SW 230 0 min 4,1 UV-I 571 W/m 8,5 C 10,0 C 14,5 km/h (3 Bft)
23.05.2020 14:48 12,1 C 16,1 C 77 % 1025,2 hPa 0,0 l/m 11,2 km/h (2 Bft) SW 214 0 min 4,0 UV-I 540 W/m 8,2 C 9,3 C 20,9 km/h (4 Bft)
23.05.2020 14:50 12,1 C 16,1 C 77 % 1025,2 hPa 0,0 l/m 12,4 km/h (3 Bft) SW 220 0 min 4,0 UV-I 545 W/m 8,2 C 8,8 C 20,9 km/h (4 Bft)
23.05.2020 14:52 12,1 C 15,6 C 77 % 1025,2 hPa 0,0 l/m 10,1 km/h (2 Bft) S-SW 207 0 min 3,2 UV-I 443 W/m 8,2 C 9,9 C 17,7 km/h (3 Bft)
23.05.2020 14:54 12,0 C 15,0 C 76 % 1025,2 hPa 0,0 l/m 8,4 km/h (2 Bft) SW 231 0 min 2,7 UV-I 375 W/m 7,9 C 10,7 C 16,1 km/h (3 Bft)
23.05.2020 14:56 11,9 C 15,0 C 77 % 1025,2 hPa 0,0 l/m 8,6 km/h (2 Bft) SW 229 0 min 2,7 UV-I 365 W/m 8,0 C 10,5 C 16,1 km/h (3 Bft)
23.05.2020 14:58 11,9 C 15,0 C 78 % 1025,1 hPa 0,0 l/m 10,3 km/h (2 Bft) S-SW 195 0 min 2,6 UV-I 362 W/m 8,2 C 9,5 C 16,1 km/h (3 Bft)
23.05.2020 15:00 11,8 C 14,4 C 77 % 1025,2 hPa 0,0 l/m 11,8 km/h (2 Bft) SW 219 0 min 2,5 UV-I 335 W/m 7,9 C 8,7 C 22,5 km/h (4 Bft)
23.05.2020 15:02 11,8 C 13,9 C 77 % 1025,3 hPa 0,0 l/m 13,0 km/h (3 Bft) W-SW 242 0 min 2,9 UV-I 383 W/m 7,9 C 8,1 C 22,5 km/h (4 Bft)
23.05.2020 15:04 11,8 C 14,4 C 76 % 1025,3 hPa 0,0 l/m 12,1 km/h (2 Bft) W-SW 246 0 min 3,5 UV-I 490 W/m 7,7 C 8,5 C 20,9 km/h (4 Bft)
23.05.2020 15:06 12,2 C 16,1 C 78 % 1025,3 hPa 0,0 l/m 12,1 km/h (2 Bft) W-SW 254 2 min 4,4 UV-I 623 W/m 8,5 C 9,0 C 22,5 km/h (4 Bft)
23.05.2020 15:08 12,4 C 17,2 C 77 % 1025,3 hPa 0,0 l/m 11,7 km/h (2 Bft) S 189 2 min 4,8 UV-I 777 W/m 8,5 C 9,4 C 19,3 km/h (3 Bft)
23.05.2020 15:10 12,5 C 16,7 C 75 % 1025,3 hPa 0,0 l/m 13,7 km/h (3 Bft) S-SW 208 2 min 3,6 UV-I 759 W/m 8,2 C 8,7 C 19,3 km/h (3 Bft)
23.05.2020 15:12 12,4 C 16,1 C 76 % 1025,4 hPa 0,0 l/m 12,7 km/h (3 Bft) S-SW 202 0 min 3,8 UV-I 420 W/m 8,3 C 9,0 C 19,3 km/h (3 Bft)
23.05.2020 15:14 12,4 C 16,1 C 76 % 1025,5 hPa 0,0 l/m 14,2 km/h (3 Bft) W 265 0 min 4,1 UV-I 526 W/m 8,3 C 8,4 C 22,5 km/h (4 Bft)
23.05.2020 15:16 12,4 C 16,1 C 74 % 1025,4 hPa 0,0 l/m 15,3 km/h (3 Bft) S-SW 194 0 min 3,3 UV-I 523 W/m 7,9 C 7,9 C 20,9 km/h (4 Bft)
23.05.2020 15:18 12,3 C 15,0 C 75 % 1025,4 hPa 0,0 l/m 14,9 km/h (3 Bft) SW 233 0 min 2,8 UV-I 400 W/m 8,0 C 8,0 C 24,1 km/h (4 Bft)
23.05.2020 15:20 12,2 C 14,4 C 75 % 1025,4 hPa 0,0 l/m 13,4 km/h (3 Bft) W-SW 238 0 min 2,5 UV-I 344 W/m 7,9 C 8,4 C 20,9 km/h (4 Bft)
23.05.2020 15:22 12,3 C 14,4 C 76 % 1025,5 hPa 0,0 l/m 12,5 km/h (3 Bft) SW 215 0 min 2,6 UV-I 438 W/m 8,2 C 8,9 C 17,7 km/h (3 Bft)
23.05.2020 15:24 12,3 C 15,0 C 76 % 1025,5 hPa 0,0 l/m 17,9 km/h (3 Bft) S-SW 204 0 min 3,6 UV-I 522 W/m 8,2 C 6,9 C 24,1 km/h (4 Bft)
23.05.2020 15:26 12,4 C 16,1 C 77 % 1025,4 hPa 0,0 l/m 13,2 km/h (3 Bft) S 191 0 min 4,4 UV-I 496 W/m 8,5 C 8,8 C 22,5 km/h (4 Bft)
23.05.2020 15:28 12,4 C 16,1 C 76 % 1025,4 hPa 0,0 l/m 12,2 km/h (2 Bft) S-SO 166 0 min 3,9 UV-I 487 W/m 8,3 C 9,2 C 19,3 km/h (3 Bft)
23.05.2020 15:30 12,6 C 15,6 C 77 % 1025,5 hPa 0,0 l/m 11,4 km/h (2 Bft) S 180 0 min 3,3 UV-I 376 W/m 8,7 C 9,8 C 22,5 km/h (4 Bft)
23.05.2020 15:32 12,6 C 16,1 C 75 % 1025,5 hPa 0,0 l/m 13,5 km/h (3 Bft) SW 218 0 min 3,8 UV-I 540 W/m 8,3 C 8,9 C 24,1 km/h (4 Bft)
23.05.2020 15:34 12,4 C 15,0 C 75 % 1025,5 hPa 0,0 l/m 16,4 km/h (3 Bft) SW 219 0 min 3,1 UV-I 461 W/m 8,1 C 7,5 C 22,5 km/h (4 Bft)
23.05.2020 15:36 12,3 C 15,0 C 76 % 1025,4 hPa 0,0 l/m 13,1 km/h (3 Bft) S-SW 202 0 min 3,1 UV-I 398 W/m 8,2 C 8,7 C 19,3 km/h (3 Bft)
23.05.2020 15:38 12,3 C 14,4 C 77 % 1025,5 hPa 0,0 l/m 12,9 km/h (3 Bft) W-SW 238 0 min 2,6 UV-I 340 W/m 8,4 C 8,8 C 20,9 km/h (4 Bft)
23.05.2020 15:40 12,4 C 14,4 C 78 % 1025,5 hPa 0,0 l/m 11,0 km/h (2 Bft) SW 215 0 min 1,9 UV-I 254 W/m 8,7 C 9,7 C 17,7 km/h (3 Bft)
23.05.2020 15:42 12,3 C 13,9 C 77 % 1025,5 hPa 0,0 l/m 15,8 km/h (3 Bft) S 175 0 min 1,1 UV-I 157 W/m 8,4 C 7,6 C 22,5 km/h (4 Bft)
23.05.2020 15:44 12,1 C 12,8 C 76 % 1025,6 hPa 0,0 l/m 15,3 km/h (3 Bft) S 189 0 min 0,7 UV-I 106 W/m 8,0 C 7,6 C 20,9 km/h (4 Bft)
23.05.2020 15:46 11,8 C 12,2 C 77 % 1025,6 hPa 0,0 l/m 16,2 km/h (3 Bft) SW 223 0 min 0,3 UV-I 66 W/m 7,9 C 6,9 C 24,1 km/h (4 Bft)
23.05.2020 15:48 11,7 C 11,7 C 78 % 1025,6 hPa 0,0 l/m 13,8 km/h (3 Bft) S-SW 212 0 min 0,3 UV-I 69 W/m 8,0 C 7,7 C 20,9 km/h (4 Bft)
23.05.2020 15:50 11,5 C 11,7 C 79 % 1025,7 hPa 0,0 l/m 17,4 km/h (3 Bft) S-SW 213 0 min 0,7 UV-I 95 W/m 8,0 C 6,1 C 29,0 km/h (5 Bft)
23.05.2020 15:52 11,3 C 11,1 C 80 % 1025,7 hPa 0,0 l/m 15,6 km/h (3 Bft) SW 223 0 min 0,9 UV-I 121 W/m 8,0 C 6,5 C 22,5 km/h (4 Bft)
23.05.2020 15:54 11,2 C 10,6 C 81 % 1026,0 hPa 0,0 l/m 10,2 km/h (2 Bft) SW 219 0 min 1,0 UV-I 135 W/m 8,1 C 8,8 C 17,7 km/h (3 Bft)
23.05.2020 15:56 11,0 C 10,0 C 82 % 1026,0 hPa 0,0 l/m 15,8 km/h (3 Bft) S-SW 210 0 min 1,0 UV-I 132 W/m 8,0 C 6,0 C 24,1 km/h (4 Bft)
23.05.2020 15:58 10,8 C 10,0 C 82 % 1026,1 hPa 0,0 l/m 12,8 km/h (3 Bft) W-NW 282 0 min 1,0 UV-I 134 W/m 7,9 C 7,1 C 19,3 km/h (3 Bft)
23.05.2020 16:00 10,7 C 10,0 C 82 % 1026,0 hPa 0,0 l/m 17,3 km/h (3 Bft) W 261 0 min 0,9 UV-I 127 W/m 7,8 C 5,1 C 27,4 km/h (4 Bft)
23.05.2020 16:02 10,4 C 9,4 C 82 % 1026,3 hPa 0,2 l/m 15,4 km/h (3 Bft) W-SW 256 0 min 0,9 UV-I 127 W/m 7,5 C 5,5 C 24,1 km/h (4 Bft)
23.05.2020 16:04 10,2 C 8,9 C 83 % 1026,2 hPa 0,2 l/m 18,8 km/h (3 Bft) W 278 0 min 1,0 UV-I 138 W/m 7,4 C 3,9 C 30,6 km/h (5 Bft)
23.05.2020 16:06 9,9 C 9,4 C 85 % 1025,8 hPa 0,2 l/m 9,6 km/h (2 Bft) S-SW 204 0 min 1,4 UV-I 196 W/m 7,5 C 7,7 C 24,1 km/h (4 Bft)
23.05.2020 16:08 9,8 C 10,6 C 86 % 1025,7 hPa 0,0 l/m 2,2 km/h (1 Bft) W 265 0 min 2,1 UV-I 294 W/m 7,6 C 9,8 C 6,4 km/h (2 Bft)
23.05.2020 16:10 9,9 C 10,6 C 87 % 1025,7 hPa 0,0 l/m 4,5 km/h (1 Bft) SW 234 0 min 2,4 UV-I 318 W/m 7,8 C 9,9 C 6,4 km/h (2 Bft)
23.05.2020 16:12 10,0 C 10,6 C 86 % 1025,8 hPa 0,0 l/m 5,5 km/h (1 Bft) S-SW 194 0 min 2,7 UV-I 348 W/m 7,8 C 10,0 C 8,0 km/h (2 Bft)
23.05.2020 16:14 10,2 C 12,2 C 87 % 1025,7 hPa 0,0 l/m 4,6 km/h (1 Bft) S-SW 205 0 min 3,2 UV-I 315 W/m 8,1 C 10,2 C 8,0 km/h (2 Bft)
23.05.2020 16:16 10,6 C 13,9 C 88 % 1025,6 hPa 0,0 l/m 5,0 km/h (1 Bft) S-SW 198 2 min 4,5 UV-I 614 W/m 8,7 C 10,6 C 9,7 km/h (2 Bft)
23.05.2020 16:18 11,0 C 15,0 C 86 % 1025,7 hPa 0,0 l/m 6,5 km/h (2 Bft) S-SW 200 2 min 4,6 UV-I 766 W/m 8,7 C 11,0 C 12,9 km/h (3 Bft)
23.05.2020 16:20 11,2 C 15,0 C 86 % 1025,6 hPa 0,0 l/m 7,5 km/h (2 Bft) S-SO 163 2 min 4,3 UV-I 740 W/m 8,9 C 10,4 C 12,9 km/h (3 Bft)
23.05.2020 16:22 11,5 C 15,6 C 85 % 1025,7 hPa 0,0 l/m 10,2 km/h (2 Bft) SW 221 2 min 4,3 UV-I 718 W/m 9,1 C 9,1 C 14,5 km/h (3 Bft)
23.05.2020 16:24 11,6 C 16,1 C 84 % 1025,8 hPa 0,0 l/m 9,4 km/h (2 Bft) S 175 2 min 4,3 UV-I 711 W/m 9,0 C 9,7 C 12,9 km/h (3 Bft)
23.05.2020 16:26 11,7 C 15,6 C 83 % 1025,7 hPa 0,0 l/m 7,8 km/h (2 Bft) S 175 2 min 3,7 UV-I 734 W/m 8,9 C 10,8 C 12,9 km/h (3 Bft)
23.05.2020 16:28 11,8 C 15,0 C 84 % 1025,7 hPa 0,0 l/m 7,6 km/h (2 Bft) S-SW 213 0 min 3,2 UV-I 553 W/m 9,2 C 11,0 C 12,9 km/h (3 Bft)
23.05.2020 16:30 11,9 C 15,6 C 83 % 1025,7 hPa 0,0 l/m 7,8 km/h (2 Bft) S-SW 192 0 min 3,8 UV-I 553 W/m 9,1 C 11,0 C 12,9 km/h (3 Bft)
23.05.2020 16:32 12,1 C 15,6 C 81 % 1025,5 hPa 0,0 l/m 10,5 km/h (2 Bft) S 171 2 min 3,6 UV-I 744 W/m 8,9 C 9,7 C 16,1 km/h (3 Bft)
23.05.2020 16:34 12,3 C 16,1 C 82 % 1025,5 hPa 0,0 l/m 10,2 km/h (2 Bft) S-SW 194 2 min 3,7 UV-I 744 W/m 9,3 C 10,0 C 14,5 km/h (3 Bft)
23.05.2020 16:36 12,5 C 16,7 C 82 % 1025,6 hPa 0,0 l/m 11,0 km/h (2 Bft) S-SW 207 2 min 3,9 UV-I 744 W/m 9,5 C 9,9 C 16,1 km/h (3 Bft)
23.05.2020 16:38 12,6 C 15,0 C 80 % 1025,6 hPa 0,0 l/m 13,7 km/h (3 Bft) S-SW 209 2 min 2,4 UV-I 698 W/m 9,2 C 8,8 C 17,7 km/h (3 Bft)
23.05.2020 16:40 12,3 C 13,9 C 79 % 1025,6 hPa 0,0 l/m 12,3 km/h (3 Bft) SW 219 0 min 1,8 UV-I 181 W/m 8,8 C 9,0 C 19,3 km/h (3 Bft)
23.05.2020 16:42 12,1 C 12,8 C 79 % 1025,6 hPa 0,0 l/m 10,7 km/h (2 Bft) S-SW 203 0 min 1,6 UV-I 183 W/m 8,6 C 9,6 C 16,1 km/h (3 Bft)
23.05.2020 16:44 11,9 C 12,2 C 79 % 1025,7 hPa 0,0 l/m 11,9 km/h (2 Bft) W-SW 252 0 min 1,3 UV-I 155 W/m 8,4 C 8,7 C 14,5 km/h (3 Bft)
23.05.2020 16:46 11,9 C 12,2 C 79 % 1025,7 hPa 0,0 l/m 9,5 km/h (2 Bft) SW 217 0 min 1,0 UV-I 132 W/m 8,4 C 10,0 C 12,9 km/h (3 Bft)
23.05.2020 16:48 11,8 C 11,7 C 80 % 1025,7 hPa 0,0 l/m 8,2 km/h (2 Bft) SW 225 0 min 0,9 UV-I 130 W/m 8,5 C 10,6 C 12,9 km/h (3 Bft)
23.05.2020 16:50 11,8 C 11,7 C 80 % 1025,9 hPa 0,0 l/m 10,8 km/h (2 Bft) SW 224 0 min 0,7 UV-I 98 W/m 8,5 C 9,2 C 20,9 km/h (4 Bft)
23.05.2020 16:52 11,7 C 11,1 C 81 % 1026,2 hPa 0,0 l/m 14,6 km/h (3 Bft) S-SW 198 0 min 0,6 UV-I 81 W/m 8,5 C 7,4 C 20,9 km/h (4 Bft)
23.05.2020 16:54 11,4 C 10,6 C 81 % 1026,2 hPa 0,2 l/m 17,7 km/h (3 Bft) SW 225 0 min 0,1 UV-I 65 W/m 8,3 C 5,8 C 29,0 km/h (5 Bft)
23.05.2020 16:56 11,2 C 8,9 C 76 % 1026,5 hPa 0,0 l/m 23,0 km/h (4 Bft) W-SW 248 0 min 0,0 UV-I 54 W/m 7,1 C 4,0 C 33,8 km/h (5 Bft)
23.05.2020 16:58 10,9 C 8,9 C 79 % 1026,7 hPa 0,2 l/m 15,5 km/h (3 Bft) W-SW 247 0 min 0,0 UV-I 64 W/m 7,4 C 6,0 C 24,1 km/h (4 Bft)
23.05.2020 17:00 10,6 C 8,9 C 81 % 1026,6 hPa 0,4 l/m 15,1 km/h (3 Bft) SW 232 0 min 0,4 UV-I 79 W/m 7,5 C 5,8 C 27,4 km/h (4 Bft)
23.05.2020 17:02 10,1 C 8,9 C 82 % 1026,6 hPa 0,2 l/m 15,2 km/h (3 Bft) SW 226 0 min 0,7 UV-I 114 W/m 7,2 C 5,2 C 22,5 km/h (4 Bft)
23.05.2020 17:04 9,8 C 8,9 C 85 % 1026,6 hPa 0,0 l/m 9,0 km/h (2 Bft) W-SW 242 0 min 0,9 UV-I 136 W/m 7,4 C 8,0 C 17,7 km/h (3 Bft)
23.05.2020 17:06 9,7 C 9,4 C 86 % 1026,5 hPa 0,0 l/m 9,1 km/h (2 Bft) W-SW 251 0 min 0,9 UV-I 138 W/m 7,5 C 7,8 C 14,5 km/h (3 Bft)
23.05.2020 17:08 9,7 C 9,4 C 87 % 1026,3 hPa 0,2 l/m 6,6 km/h (2 Bft) SW 222 0 min 1,0 UV-I 151 W/m 7,6 C 9,6 C 12,9 km/h (3 Bft)
23.05.2020 17:10 9,7 C 10,0 C 88 % 1026,2 hPa 0,0 l/m 5,4 km/h (1 Bft) S-SW 205 0 min 1,3 UV-I 209 W/m 7,8 C 9,7 C 8,0 km/h (2 Bft)
23.05.2020 17:12 9,9 C 11,7 C 89 % 1026,1 hPa 0,0 l/m 4,5 km/h (1 Bft) SW 215 0 min 2,2 UV-I 283 W/m 8,2 C 9,9 C 6,4 km/h (2 Bft)
23.05.2020 17:14 10,3 C 13,3 C 88 % 1026,0 hPa 0,0 l/m 3,5 km/h (1 Bft) S-SW 202 2 min 3,5 UV-I 805 W/m 8,4 C 10,3 C 4,8 km/h (1 Bft)
23.05.2020 17:16 10,8 C 14,4 C 88 % 1026,0 hPa 0,0 l/m 5,4 km/h (1 Bft) SW 232 2 min 3,5 UV-I 779 W/m 8,9 C 10,8 C 9,7 km/h (2 Bft)
23.05.2020 17:18 11,1 C 13,9 C 86 % 1026,0 hPa 0,0 l/m 5,9 km/h (2 Bft) S-SW 208 2 min 2,8 UV-I 772 W/m 8,8 C 11,1 C 9,7 km/h (2 Bft)
23.05.2020 17:20 11,4 C 14,4 C 86 % 1025,9 hPa 0,0 l/m 7,4 km/h (2 Bft) SW 215 2 min 3,0 UV-I 671 W/m 9,1 C 10,7 C 12,9 km/h (3 Bft)
23.05.2020 17:22 11,8 C 15,6 C 85 % 1025,9 hPa 0,0 l/m 8,5 km/h (2 Bft) S-SW 210 0 min 3,0 UV-I 577 W/m 9,4 C 10,4 C 17,7 km/h (3 Bft)
23.05.2020 17:24 12,0 C 15,0 C 82 % 1025,9 hPa 0,0 l/m 9,5 km/h (2 Bft) SW 232 0 min 2,9 UV-I 563 W/m 9,0 C 10,1 C 14,5 km/h (3 Bft)
23.05.2020 17:26 12,1 C 15,6 C 82 % 1025,9 hPa 0,0 l/m 11,4 km/h (2 Bft) W-SW 253 0 min 2,9 UV-I 555 W/m 9,1 C 9,2 C 20,9 km/h (4 Bft)
23.05.2020 17:28 12,3 C 15,6 C 81 % 1025,9 hPa 0,0 l/m 9,6 km/h (2 Bft) SW 232 0 min 2,9 UV-I 554 W/m 9,1 C 10,3 C 16,1 km/h (3 Bft)
23.05.2020 17:30 12,4 C 16,1 C 82 % 1025,9 hPa 0,0 l/m 10,2 km/h (2 Bft) W-SW 240 0 min 2,9 UV-I 551 W/m 9,4 C 10,1 C 17,7 km/h (3 Bft)
23.05.2020 17:32 12,6 C 16,1 C 82 % 1025,9 hPa 0,0 l/m 12,1 km/h (2 Bft) W-SW 258 0 min 2,8 UV-I 543 W/m 9,6 C 9,5 C 20,9 km/h (4 Bft)
23.05.2020 17:34 12,6 C 15,6 C 79 % 1025,9 hPa 0,0 l/m 15,2 km/h (3 Bft) SW 219 0 min 2,8 UV-I 535 W/m 9,1 C 8,2 C 24,1 km/h (4 Bft)
23.05.2020 17:36 12,6 C 16,1 C 81 % 1025,9 hPa 0,0 l/m 9,3 km/h (2 Bft) SW 233 0 min 2,7 UV-I 525 W/m 9,4 C 10,8 C 16,1 km/h (3 Bft)
23.05.2020 17:38 12,8 C 16,1 C 80 % 1025,9 hPa 0,0 l/m 9,1 km/h (2 Bft) W-SW 252 0 min 2,6 UV-I 520 W/m 9,4 C 11,2 C 14,5 km/h (3 Bft)
23.05.2020 17:40 12,8 C 15,6 C 78 % 1025,9 hPa 0,0 l/m 12,0 km/h (2 Bft) S-SW 194 0 min 2,6 UV-I 519 W/m 9,1 C 9,7 C 24,1 km/h (4 Bft)
23.05.2020 17:42 12,7 C 15,6 C 79 % 1025,9 hPa 0,0 l/m 10,8 km/h (2 Bft) S-SW 196 0 min 2,2 UV-I 520 W/m 9,2 C 10,2 C 17,7 km/h (3 Bft)
23.05.2020 17:44 12,6 C 15,0 C 78 % 1025,9 hPa 0,0 l/m 11,6 km/h (2 Bft) SW 215 0 min 2,2 UV-I 520 W/m 8,9 C 9,7 C 16,1 km/h (3 Bft)
23.05.2020 17:46 12,6 C 15,0 C 79 % 1025,9 hPa 0,0 l/m 9,8 km/h (2 Bft) S-SW 212 0 min 2,6 UV-I 527 W/m 9,1 C 10,6 C 17,7 km/h (3 Bft)
23.05.2020 17:48 12,6 C 15,6 C 78 % 1026,0 hPa 0,0 l/m 11,5 km/h (2 Bft) W-SW 241 0 min 2,4 UV-I 528 W/m 8,9 C 9,7 C 17,7 km/h (3 Bft)
23.05.2020 17:50 12,7 C 16,1 C 79 % 1025,9 hPa 0,0 l/m 12,4 km/h (3 Bft) SW 223 0 min 2,5 UV-I 520 W/m 9,2 C 9,4 C 19,3 km/h (3 Bft)
23.05.2020 17:52 12,8 C 16,7 C 78 % 1025,9 hPa 0,0 l/m 13,0 km/h (3 Bft) W-SW 246 0 min 2,4 UV-I 502 W/m 9,1 C 9,3 C 22,5 km/h (4 Bft)
23.05.2020 17:54 12,9 C 17,8 C 78 % 1026,0 hPa 0,0 l/m 11,0 km/h (2 Bft) W-SW 242 0 min 2,4 UV-I 498 W/m 9,2 C 10,3 C 20,9 km/h (4 Bft)
23.05.2020 17:56 13,0 C 18,3 C 78 % 1025,9 hPa 0,0 l/m 11,7 km/h (2 Bft) S-SW 208 0 min 2,3 UV-I 497 W/m 9,3 C 10,1 C 17,7 km/h (3 Bft)
23.05.2020 17:58 13,1 C 18,9 C 79 % 1026,0 hPa 0,0 l/m 7,8 km/h (2 Bft) W-SW 250 0 min 2,3 UV-I 490 W/m 9,5 C 12,2 C 12,9 km/h (3 Bft)
23.05.2020 18:00 13,3 C 18,9 C 77 % 1025,9 hPa 0,0 l/m 13,2 km/h (3 Bft) W-SW 242 0 min 2,2 UV-I 489 W/m 9,4 C 9,8 C 20,9 km/h (4 Bft)
23.05.2020 18:02 13,2 C 18,3 C 76 % 1026,0 hPa 0,0 l/m 11,7 km/h (2 Bft) SW 223 0 min 2,2 UV-I 483 W/m 9,1 C 10,3 C 17,7 km/h (3 Bft)
23.05.2020 18:04 13,2 C 18,3 C 76 % 1026,1 hPa 0,0 l/m 10,9 km/h (2 Bft) W 277 0 min 2,2 UV-I 481 W/m 9,1 C 10,7 C 16,1 km/h (3 Bft)
23.05.2020 18:06 13,2 C 18,9 C 76 % 1026,0 hPa 0,0 l/m 11,0 km/h (2 Bft) SW 224 0 min 1,9 UV-I 435 W/m 9,1 C 10,6 C 19,3 km/h (3 Bft)
23.05.2020 18:08 13,0 C 16,7 C 75 % 1026,2 hPa 0,0 l/m 8,9 km/h (2 Bft) W 262 0 min 1,2 UV-I 185 W/m 8,7 C 11,5 C 14,5 km/h (3 Bft)
23.05.2020 18:10 12,7 C 15,6 C 75 % 1026,2 hPa 0,0 l/m 11,2 km/h (2 Bft) SW 215 0 min 1,8 UV-I 246 W/m 8,4 C 10,0 C 25,7 km/h (4 Bft)
23.05.2020 18:12 12,8 C 17,2 C 77 % 1026,1 hPa 0,0 l/m 9,6 km/h (2 Bft) W 261 0 min 2,1 UV-I 503 W/m 8,9 C 10,9 C 17,7 km/h (3 Bft)
23.05.2020 18:14 12,9 C 17,8 C 77 % 1026,1 hPa 0,0 l/m 10,5 km/h (2 Bft) SW 217 0 min 2,0 UV-I 483 W/m 9,0 C 10,5 C 16,1 km/h (3 Bft)
23.05.2020 18:16 13,0 C 18,3 C 77 % 1026,2 hPa 0,0 l/m 10,7 km/h (2 Bft) SW 220 0 min 2,0 UV-I 455 W/m 9,1 C 10,6 C 16,1 km/h (3 Bft)
23.05.2020 18:18 13,2 C 18,9 C 75 % 1026,3 hPa 0,0 l/m 11,4 km/h (2 Bft) W-SW 254 0 min 1,9 UV-I 448 W/m 8,9 C 10,5 C 22,5 km/h (4 Bft)
23.05.2020 18:20 13,2 C 18,3 C 75 % 1026,3 hPa 0,0 l/m 10,8 km/h (2 Bft) SW 222 0 min 1,9 UV-I 447 W/m 8,9 C 10,7 C 20,9 km/h (4 Bft)
23.05.2020 18:22 13,4 C 18,3 C 76 % 1026,2 hPa 0,0 l/m 9,7 km/h (2 Bft) SW 225 0 min 1,9 UV-I 436 W/m 9,3 C 11,5 C 22,5 km/h (4 Bft)
23.05.2020 18:24 13,5 C 17,2 C 76 % 1026,2 hPa 0,0 l/m 10,8 km/h (2 Bft) SW 229 0 min 1,9 UV-I 432 W/m 9,4 C 11,1 C 19,3 km/h (3 Bft)
23.05.2020 18:26 13,4 C 16,1 C 72 % 1026,3 hPa 0,0 l/m 15,5 km/h (3 Bft) SW 223 0 min 1,8 UV-I 424 W/m 8,5 C 9,1 C 24,1 km/h (4 Bft)
23.05.2020 18:28 13,4 C 15,0 C 74 % 1026,3 hPa 0,0 l/m 10,0 km/h (2 Bft) S-SW 205 0 min 1,8 UV-I 419 W/m 8,9 C 11,4 C 24,1 km/h (4 Bft)
23.05.2020 18:30 13,6 C 15,0 C 74 % 1026,3 hPa 0,0 l/m 12,5 km/h (3 Bft) W-SW 254 0 min 1,8 UV-I 409 W/m 9,1 C 10,5 C 20,9 km/h (4 Bft)
23.05.2020 18:32 13,5 C 15,0 C 74 % 1026,2 hPa 0,0 l/m 10,5 km/h (2 Bft) S-SW 198 0 min 1,7 UV-I 398 W/m 9,0 C 11,2 C 16,1 km/h (3 Bft)
23.05.2020 18:34 13,6 C 15,0 C 73 % 1026,1 hPa 0,0 l/m 12,7 km/h (3 Bft) W-SW 238 0 min 1,7 UV-I 399 W/m 8,9 C 10,4 C 24,1 km/h (4 Bft)
23.05.2020 18:36 13,6 C 14,4 C 72 % 1026,2 hPa 0,0 l/m 14,3 km/h (3 Bft) SW 214 0 min 1,7 UV-I 393 W/m 8,6 C 9,7 C 20,9 km/h (4 Bft)
23.05.2020 18:38 13,5 C 14,4 C 73 % 1026,0 hPa 0,0 l/m 11,4 km/h (2 Bft) W-SW 237 0 min 1,6 UV-I 387 W/m 8,8 C 10,8 C 19,3 km/h (3 Bft)
23.05.2020 18:40 13,5 C 14,4 C 73 % 1026,2 hPa 0,0 l/m 10,5 km/h (2 Bft) S 188 0 min 1,6 UV-I 381 W/m 8,8 C 11,2 C 19,3 km/h (3 Bft)
23.05.2020 18:42 13,6 C 14,4 C 72 % 1026,1 hPa 0,0 l/m 10,3 km/h (2 Bft) SW 228 0 min 1,6 UV-I 375 W/m 8,6 C 11,4 C 16,1 km/h (3 Bft)
23.05.2020 18:44 13,6 C 14,4 C 72 % 1026,1 hPa 0,0 l/m 11,1 km/h (2 Bft) S-SW 213 0 min 1,5 UV-I 370 W/m 8,6 C 11,1 C 16,1 km/h (3 Bft)
23.05.2020 18:46 13,6 C 14,4 C 71 % 1026,2 hPa 0,0 l/m 14,3 km/h (3 Bft) W 270 0 min 1,5 UV-I 369 W/m 8,4 C 9,7 C 22,5 km/h (4 Bft)
23.05.2020 18:48 13,6 C 14,4 C 72 % 1026,3 hPa 0,0 l/m 9,2 km/h (2 Bft) SW 228 0 min 1,5 UV-I 366 W/m 8,6 C 12,0 C 17,7 km/h (3 Bft)
23.05.2020 18:50 13,7 C 15,0 C 70 % 1026,1 hPa 0,0 l/m 11,9 km/h (2 Bft) SW 236 0 min 1,4 UV-I 360 W/m 8,3 C 10,8 C 20,9 km/h (4 Bft)
23.05.2020 18:52 13,7 C 15,6 C 70 % 1026,2 hPa 0,0 l/m 10,3 km/h (2 Bft) W-SW 246 0 min 1,4 UV-I 353 W/m 8,3 C 11,5 C 17,7 km/h (3 Bft)
23.05.2020 18:54 13,7 C 15,6 C 69 % 1026,3 hPa 0,0 l/m 11,1 km/h (2 Bft) S-SW 212 0 min 1,4 UV-I 349 W/m 8,1 C 11,2 C 19,3 km/h (3 Bft)
23.05.2020 18:56 13,6 C 16,1 C 69 % 1026,3 hPa 0,0 l/m 14,9 km/h (3 Bft) S-SW 213 0 min 1,3 UV-I 346 W/m 8,0 C 9,5 C 20,9 km/h (4 Bft)
23.05.2020 18:58 13,6 C 17,2 C 69 % 1026,3 hPa 0,0 l/m 12,7 km/h (3 Bft) W-SW 256 0 min 1,3 UV-I 342 W/m 8,0 C 10,4 C 24,1 km/h (4 Bft)
23.05.2020 19:00 13,6 C 17,2 C 67 % 1026,3 hPa 0,0 l/m 14,8 km/h (3 Bft) W-SW 249 0 min 1,3 UV-I 337 W/m 7,6 C 9,6 C 24,1 km/h (4 Bft)
23.05.2020 19:02 13,6 C 17,8 C 66 % 1026,4 hPa 0,0 l/m 15,1 km/h (3 Bft) W-SW 246 0 min 1,3 UV-I 332 W/m 7,4 C 9,5 C 22,5 km/h (4 Bft)
23.05.2020 19:04 13,6 C 18,3 C 67 % 1026,3 hPa 0,0 l/m 9,6 km/h (2 Bft) SW 234 0 min 1,2 UV-I 328 W/m 7,6 C 11,8 C 17,7 km/h (3 Bft)
23.05.2020 19:06 13,7 C 18,3 C 67 % 1026,3 hPa 0,0 l/m 12,2 km/h (2 Bft) SW 229 0 min 1,2 UV-I 321 W/m 7,7 C 10,7 C 22,5 km/h (4 Bft)
23.05.2020 19:08 13,6 C 17,8 C 65 % 1026,4 hPa 0,0 l/m 14,2 km/h (3 Bft) SW 229 0 min 1,1 UV-I 312 W/m 7,1 C 9,8 C 25,7 km/h (4 Bft)
23.05.2020 19:10 13,6 C 17,8 C 65 % 1026,5 hPa 0,0 l/m 15,3 km/h (3 Bft) SW 227 0 min 1,1 UV-I 306 W/m 7,1 C 9,4 C 24,1 km/h (4 Bft)
23.05.2020 19:12 13,6 C 17,2 C 65 % 1026,5 hPa 0,0 l/m 17,0 km/h (3 Bft) W-SW 246 0 min 1,1 UV-I 306 W/m 7,1 C 8,8 C 29,0 km/h (5 Bft)
23.05.2020 19:14 13,6 C 17,2 C 65 % 1026,6 hPa 0,0 l/m 17,3 km/h (3 Bft) W-SW 244 0 min 1,1 UV-I 308 W/m 7,1 C 8,7 C 29,0 km/h (5 Bft)
23.05.2020 19:16 13,6 C 16,1 C 66 % 1026,7 hPa 0,0 l/m 11,2 km/h (2 Bft) W-SW 245 0 min 0,8 UV-I 219 W/m 7,4 C 11,0 C 20,9 km/h (4 Bft)
23.05.2020 19:18 13,5 C 16,7 C 66 % 1026,7 hPa 0,0 l/m 11,8 km/h (2 Bft) SW 233 0 min 1,0 UV-I 224 W/m 7,3 C 10,6 C 16,1 km/h (3 Bft)
23.05.2020 19:20 13,5 C 17,2 C 66 % 1026,7 hPa 0,0 l/m 10,9 km/h (2 Bft) W-SW 250 0 min 0,9 UV-I 289 W/m 7,3 C 11,0 C 22,5 km/h (4 Bft)
23.05.2020 19:22 13,6 C 17,2 C 65 % 1026,7 hPa 0,0 l/m 11,0 km/h (2 Bft) SW 227 0 min 0,9 UV-I 294 W/m 7,1 C 11,1 C 19,3 km/h (3 Bft)
23.05.2020 19:24 13,6 C 16,7 C 65 % 1026,6 hPa 0,0 l/m 14,0 km/h (3 Bft) W 266 0 min 0,9 UV-I 287 W/m 7,1 C 9,9 C 25,7 km/h (4 Bft)
23.05.2020 19:26 13,6 C 15,6 C 63 % 1026,6 hPa 0,0 l/m 14,1 km/h (3 Bft) W 264 0 min 0,9 UV-I 278 W/m 6,7 C 9,8 C 20,9 km/h (4 Bft)
23.05.2020 19:28 13,6 C 15,0 C 61 % 1026,6 hPa 0,0 l/m 17,8 km/h (3 Bft) SW 235 0 min 0,9 UV-I 267 W/m 6,2 C 8,6 C 29,0 km/h (5 Bft)
23.05.2020 19:30 13,6 C 15,0 C 61 % 1026,6 hPa 0,0 l/m 17,5 km/h (3 Bft) W-NW 290 0 min 0,8 UV-I 250 W/m 6,2 C 8,7 C 30,6 km/h (5 Bft)
23.05.2020 19:32 13,5 C 15,6 C 62 % 1026,7 hPa 0,0 l/m 12,3 km/h (3 Bft) W-SW 241 0 min 0,8 UV-I 238 W/m 6,4 C 10,4 C 20,9 km/h (4 Bft)
23.05.2020 19:34 13,4 C 16,1 C 61 % 1026,6 hPa 0,0 l/m 14,5 km/h (3 Bft) W 265 0 min 0,8 UV-I 228 W/m 6,0 C 9,4 C 22,5 km/h (4 Bft)
23.05.2020 19:36 13,3 C 16,1 C 61 % 1026,7 hPa 0,0 l/m 13,2 km/h (3 Bft) SW 224 0 min 0,8 UV-I 219 W/m 5,9 C 9,8 C 20,9 km/h (4 Bft)
23.05.2020 19:38 13,3 C 16,1 C 61 % 1026,6 hPa 0,0 l/m 13,3 km/h (3 Bft) W-SW 246 0 min 0,7 UV-I 212 W/m 5,9 C 9,8 C 17,7 km/h (3 Bft)
23.05.2020 19:40 13,2 C 16,7 C 61 % 1026,8 hPa 0,0 l/m 10,5 km/h (2 Bft) W 267 0 min 0,7 UV-I 207 W/m 5,8 C 10,9 C 16,1 km/h (3 Bft)
23.05.2020 19:42 13,2 C 16,7 C 61 % 1026,8 hPa 0,0 l/m 7,6 km/h (2 Bft) S 190 0 min 0,7 UV-I 201 W/m 5,8 C 12,5 C 12,9 km/h (3 Bft)
23.05.2020 19:44 13,2 C 16,7 C 61 % 1026,8 hPa 0,0 l/m 8,7 km/h (2 Bft) SW 232 0 min 0,7 UV-I 196 W/m 5,8 C 11,8 C 19,3 km/h (3 Bft)
23.05.2020 19:46 13,2 C 16,7 C 61 % 1027,0 hPa 0,0 l/m 8,0 km/h (2 Bft) W-SW 249 0 min 0,6 UV-I 189 W/m 5,8 C 12,2 C 16,1 km/h (3 Bft)
23.05.2020 19:48 13,1 C 16,7 C 60 % 1026,9 hPa 0,0 l/m 11,8 km/h (2 Bft) SW 235 0 min 0,6 UV-I 185 W/m 5,5 C 10,2 C 19,3 km/h (3 Bft)
23.05.2020 19:50 13,1 C 16,7 C 61 % 1026,9 hPa 0,0 l/m 7,5 km/h (2 Bft) W-SW 250 0 min 0,6 UV-I 180 W/m 5,8 C 12,4 C 14,5 km/h (3 Bft)
23.05.2020 19:52 13,0 C 16,1 C 60 % 1027,0 hPa 0,0 l/m 16,2 km/h (3 Bft) W-SW 244 0 min 0,6 UV-I 173 W/m 5,4 C 8,3 C 33,8 km/h (5 Bft)
23.05.2020 19:54 13,0 C 14,4 C 58 % 1026,9 hPa 0,0 l/m 17,7 km/h (3 Bft) SW 217 0 min 0,6 UV-I 166 W/m 4,9 C 7,9 C 30,6 km/h (5 Bft)
23.05.2020 19:56 12,9 C 13,9 C 59 % 1026,9 hPa 0,0 l/m 13,9 km/h (3 Bft) W-SW 257 0 min 0,5 UV-I 159 W/m 5,1 C 9,1 C 24,1 km/h (4 Bft)
23.05.2020 19:58 12,9 C 13,3 C 59 % 1026,9 hPa 0,0 l/m 12,5 km/h (3 Bft) W-NW 284 0 min 0,5 UV-I 151 W/m 5,1 C 9,6 C 27,4 km/h (4 Bft)
23.05.2020 20:00 12,9 C 13,3 C 59 % 1026,9 hPa 0,0 l/m 9,9 km/h (2 Bft) W-SW 252 0 min 0,5 UV-I 145 W/m 5,1 C 10,8 C 19,3 km/h (3 Bft)
23.05.2020 20:02 12,8 C 12,8 C 59 % 1027,0 hPa 0,0 l/m 12,0 km/h (2 Bft) W-SW 249 0 min 0,5 UV-I 139 W/m 5,0 C 9,7 C 22,5 km/h (4 Bft)
23.05.2020 20:04 12,7 C 12,2 C 59 % 1026,9 hPa 0,0 l/m 7,7 km/h (2 Bft) SW 228 0 min 0,2 UV-I 133 W/m 4,9 C 11,9 C 14,5 km/h (3 Bft)
23.05.2020 20:06 12,7 C 11,7 C 60 % 1027,0 hPa 0,0 l/m 8,5 km/h (2 Bft) W-SW 238 0 min 0,0 UV-I 128 W/m 5,1 C 11,4 C 16,1 km/h (3 Bft)
23.05.2020 20:08 12,6 C 11,7 C 58 % 1026,9 hPa 0,0 l/m 11,4 km/h (2 Bft) W 259 0 min 0,0 UV-I 121 W/m 4,6 C 9,8 C 17,7 km/h (3 Bft)
23.05.2020 20:10 12,6 C 11,7 C 59 % 1027,0 hPa 0,0 l/m 9,3 km/h (2 Bft) S-SW 209 0 min 0,0 UV-I 68 W/m 4,8 C 10,8 C 14,5 km/h (3 Bft)
23.05.2020 20:12 12,4 C 11,7 C 59 % 1027,1 hPa 0,0 l/m 9,5 km/h (2 Bft) S-SW 205 0 min 0,0 UV-I 42 W/m 4,6 C 10,5 C 17,7 km/h (3 Bft)
23.05.2020 20:14 12,4 C 11,1 C 59 % 1027,1 hPa 0,0 l/m 5,8 km/h (2 Bft) W 272 0 min 0,0 UV-I 45 W/m 4,6 C 12,4 C 11,3 km/h (2 Bft)
23.05.2020 20:16 12,2 C 11,1 C 60 % 1027,0 hPa 0,0 l/m 9,0 km/h (2 Bft) SW 234 0 min 0,0 UV-I 42 W/m 4,7 C 10,6 C 20,9 km/h (4 Bft)
23.05.2020 20:18 12,2 C 11,1 C 59 % 1027,4 hPa 0,0 l/m 9,0 km/h (2 Bft) W-SW 254 0 min 0,0 UV-I 41 W/m 4,4 C 10,6 C 16,1 km/h (3 Bft)
23.05.2020 20:20 12,2 C 11,1 C 59 % 1027,4 hPa 0,0 l/m 10,6 km/h (2 Bft) S-SW 212 0 min 0,0 UV-I 49 W/m 4,4 C 9,7 C 19,3 km/h (3 Bft)
23.05.2020 20:22 12,1 C 11,1 C 59 % 1027,3 hPa 0,0 l/m 9,3 km/h (2 Bft) W-SW 243 0 min 0,0 UV-I 48 W/m 4,3 C 10,3 C 19,3 km/h (3 Bft)
23.05.2020 20:24 12,1 C 11,1 C 59 % 1027,3 hPa 0,0 l/m 8,5 km/h (2 Bft) W 275 0 min 0,0 UV-I 34 W/m 4,3 C 10,8 C 16,1 km/h (3 Bft)
23.05.2020 20:26 12,0 C 10,6 C 60 % 1027,5 hPa 0,0 l/m 8,2 km/h (2 Bft) S-SW 201 0 min 0,0 UV-I 29 W/m 4,5 C 10,8 C 14,5 km/h (3 Bft)
23.05.2020 20:28 11,9 C 10,6 C 60 % 1027,5 hPa 0,0 l/m 6,8 km/h (2 Bft) S-SW 209 0 min 0,0 UV-I 26 W/m 4,4 C 11,6 C 14,5 km/h (3 Bft)
23.05.2020 20:30 11,8 C 10,6 C 60 % 1027,5 hPa 0,0 l/m 8,8 km/h (2 Bft) W-SW 238 0 min 0,0 UV-I 26 W/m 4,3 C 10,3 C 16,1 km/h (3 Bft)
23.05.2020 20:32 11,7 C 10,0 C 61 % 1027,5 hPa 0,0 l/m 9,1 km/h (2 Bft) SW 232 0 min 0,0 UV-I 25 W/m 4,4 C 10,0 C 16,1 km/h (3 Bft)
23.05.2020 20:34 11,7 C 10,6 C 60 % 1027,5 hPa 0,0 l/m 9,1 km/h (2 Bft) W-SW 254 0 min 0,0 UV-I 25 W/m 4,2 C 10,0 C 17,7 km/h (3 Bft)
23.05.2020 20:36 11,6 C 10,6 C 61 % 1027,6 hPa 0,0 l/m 5,6 km/h (1 Bft) SW 231 0 min 0,0 UV-I 23 W/m 4,3 C 11,6 C 11,3 km/h (2 Bft)
23.05.2020 20:38 11,7 C 10,6 C 60 % 1027,6 hPa 0,0 l/m 10,2 km/h (2 Bft) SW 230 0 min 0,0 UV-I 23 W/m 4,2 C 9,4 C 19,3 km/h (3 Bft)
23.05.2020 20:40 11,7 C 10,0 C 60 % 1027,7 hPa 0,0 l/m 6,4 km/h (2 Bft) W-SW 237 0 min 0,0 UV-I 22 W/m 4,2 C 11,7 C 12,9 km/h (3 Bft)
23.05.2020 20:42 11,6 C 10,0 C 61 % 1027,8 hPa 0,0 l/m 7,2 km/h (2 Bft) SW 228 0 min 0,0 UV-I 21 W/m 4,3 C 11,1 C 12,9 km/h (3 Bft)
23.05.2020 20:44 11,5 C 10,0 C 61 % 1027,7 hPa 0,0 l/m 6,2 km/h (2 Bft) SW 229 0 min 0,0 UV-I 20 W/m 4,2 C 11,5 C 12,9 km/h (3 Bft)
23.05.2020 20:46 11,4 C 9,4 C 62 % 1027,7 hPa 0,0 l/m 8,0 km/h (2 Bft) SW 225 0 min 0,0 UV-I 19 W/m 4,4 C 10,3 C 14,5 km/h (3 Bft)
23.05.2020 20:48 11,4 C 10,0 C 61 % 1027,8 hPa 0,0 l/m 6,1 km/h (2 Bft) SW 234 0 min 0,0 UV-I 19 W/m 4,2 C 11,4 C 11,3 km/h (2 Bft)
23.05.2020 20:50 11,3 C 10,0 C 60 % 1027,8 hPa 0,0 l/m 9,3 km/h (2 Bft) W-SW 246 0 min 0,0 UV-I 18 W/m 3,8 C 9,4 C 17,7 km/h (3 Bft)
23.05.2020 20:52 11,2 C 10,0 C 60 % 1027,8 hPa 0,0 l/m 9,3 km/h (2 Bft) SW 221 0 min 0,0 UV-I 18 W/m 3,7 C 9,3 C 14,5 km/h (3 Bft)
23.05.2020 20:54 11,2 C 10,0 C 60 % 1027,9 hPa 0,0 l/m 7,9 km/h (2 Bft) W-SW 242 0 min 0,0 UV-I 16 W/m 3,7 C 10,2 C 17,7 km/h (3 Bft)
23.05.2020 20:56 11,1 C 9,4 C 60 % 1027,8 hPa 0,0 l/m 5,0 km/h (1 Bft) SW 217 0 min 0,0 UV-I 16 W/m 3,6 C 11,1 C 9,7 km/h (2 Bft)
23.05.2020 20:58 11,0 C 9,4 C 61 % 1027,9 hPa 0,0 l/m 6,6 km/h (2 Bft) W-SW 238 0 min 0,0 UV-I 15 W/m 3,8 C 10,9 C 12,9 km/h (3 Bft)
23.05.2020 21:00 10,9 C 8,9 C 61 % 1027,9 hPa 0,0 l/m 5,8 km/h (2 Bft) SW 228 0 min 0,0 UV-I 14 W/m 3,7 C 10,9 C 9,7 km/h (2 Bft)
23.05.2020 21:02 10,9 C 8,9 C 61 % 1027,9 hPa 0,0 l/m 7,8 km/h (2 Bft) SW 224 0 min 0,0 UV-I 14 W/m 3,7 C 9,9 C 12,9 km/h (3 Bft)
23.05.2020 21:04 10,8 C 8,9 C 61 % 1028,0 hPa 0,0 l/m 6,7 km/h (2 Bft) SW 233 0 min 0,0 UV-I 13 W/m 3,6 C 10,6 C 12,9 km/h (3 Bft)
23.05.2020 21:06 10,8 C 8,9 C 62 % 1028,0 hPa 0,0 l/m 5,4 km/h (1 Bft) W-SW 238 0 min 0,0 UV-I 12 W/m 3,8 C 10,8 C 9,7 km/h (2 Bft)
23.05.2020 21:08 10,6 C 8,9 C 63 % 1028,1 hPa 0,0 l/m 3,8 km/h (1 Bft) W-SW 237 0 min 0,0 UV-I 11 W/m 3,9 C 10,6 C 6,4 km/h (2 Bft)
23.05.2020 21:10 10,6 C 8,3 C 63 % 1028,2 hPa 0,0 l/m 2,9 km/h (1 Bft) W-SW 237 0 min 0,0 UV-I 11 W/m 3,9 C 10,6 C 4,8 km/h (1 Bft)
23.05.2020 21:12 10,6 C 8,3 C 63 % 1028,1 hPa 0,0 l/m 3,3 km/h (1 Bft) SW 228 0 min 0,0 UV-I 10 W/m 3,9 C 10,6 C 4,8 km/h (1 Bft)
23.05.2020 21:14 10,4 C 7,8 C 63 % 1028,0 hPa 0,0 l/m 2,6 km/h (1 Bft) SW 228 0 min 0,0 UV-I 9 W/m 3,7 C 10,4 C 4,8 km/h (1 Bft)
23.05.2020 21:16 10,4 C 7,2 C 64 % 1028,1 hPa 0,0 l/m 3,0 km/h (1 Bft) SW 228 0 min 0,0 UV-I 8 W/m 3,9 C 10,4 C 4,8 km/h (1 Bft)
23.05.2020 21:18 10,2 C 6,7 C 64 % 1028,1 hPa 0,0 l/m 2,6 km/h (1 Bft) SW 228 0 min 0,0 UV-I 7 W/m 3,7 C 10,2 C 4,8 km/h (1 Bft)
23.05.2020 21:20 10,2 C 6,7 C 64 % 1028,1 hPa 0,0 l/m 4,7 km/h (1 Bft) SW 227 0 min 0,0 UV-I 6 W/m 3,7 C 10,2 C 6,4 km/h (2 Bft)
23.05.2020 21:22 10,1 C 6,7 C 64 % 1028,1 hPa 0,0 l/m 4,8 km/h (1 Bft) S-SW 195 0 min 0,0 UV-I 5 W/m 3,6 C 10,1 C 8,0 km/h (2 Bft)
23.05.2020 21:24 10,0 C 6,7 C 64 % 1028,1 hPa 0,0 l/m 3,5 km/h (1 Bft) SW 222 0 min 0,0 UV-I 5 W/m 3,5 C 10,0 C 9,7 km/h (2 Bft)
23.05.2020 21:26 9,9 C 7,2 C 64 % 1028,1 hPa 0,0 l/m 8,0 km/h (2 Bft) SW 225 0 min 0,0 UV-I 2 W/m 3,4 C 8,7 C 16,1 km/h (3 Bft)
23.05.2020 21:28 9,9 C 7,8 C 63 % 1028,3 hPa 0,0 l/m 8,9 km/h (2 Bft) W 259 0 min 0,0 UV-I 0 W/m 3,2 C 8,2 C 17,7 km/h (3 Bft)
23.05.2020 21:30 9,9 C 7,8 C 63 % 1028,1 hPa 0,0 l/m 7,6 km/h (2 Bft) SW 229 0 min 0,0 UV-I 0 W/m 3,2 C 9,0 C 12,9 km/h (3 Bft)
23.05.2020 21:32 9,9 C 8,3 C 62 % 1028,2 hPa 0,0 l/m 9,3 km/h (2 Bft) S-SW 212 0 min 0,0 UV-I 0 W/m 3,0 C 7,9 C 14,5 km/h (3 Bft)
23.05.2020 21:34 10,0 C 8,3 C 62 % 1028,2 hPa 0,0 l/m 6,6 km/h (2 Bft) W-SW 244 0 min 0,0 UV-I 0 W/m 3,1 C 9,9 C 11,3 km/h (2 Bft)
23.05.2020 21:36 10,0 C 8,3 C 62 % 1028,3 hPa 0,0 l/m 5,7 km/h (1 Bft) S-SW 211 0 min 0,0 UV-I 0 W/m 3,1 C 10,0 C 14,5 km/h (3 Bft)
23.05.2020 21:38 9,9 C 8,3 C 61 % 1028,3 hPa 0,0 l/m 10,2 km/h (2 Bft) S-SW 208 0 min 0,0 UV-I 0 W/m 2,7 C 7,4 C 19,3 km/h (3 Bft)
23.05.2020 21:40 9,9 C 8,3 C 61 % 1028,3 hPa 0,0 l/m 8,5 km/h (2 Bft) SW 227 0 min 0,0 UV-I 0 W/m 2,7 C 8,4 C 16,1 km/h (3 Bft)
23.05.2020 21:42 9,9 C 7,8 C 61 % 1028,3 hPa 0,0 l/m 6,2 km/h (2 Bft) SW 219 0 min 0,0 UV-I 0 W/m 2,7 C 9,9 C 9,7 km/h (2 Bft)
23.05.2020 21:44 9,8 C 7,8 C 61 % 1028,3 hPa 0,0 l/m 6,2 km/h (2 Bft) W-SW 242 0 min 0,0 UV-I 0 W/m 2,6 C 9,8 C 11,3 km/h (2 Bft)
23.05.2020 21:46 9,8 C 7,2 C 61 % 1028,4 hPa 0,0 l/m 5,0 km/h (1 Bft) SW 221 0 min 0,0 UV-I 0 W/m 2,6 C 9,8 C 6,4 km/h (2 Bft)
23.05.2020 21:48 9,7 C 6,7 C 61 % 1028,4 hPa 0,0 l/m 4,8 km/h (1 Bft) SW 225 0 min 0,0 UV-I 0 W/m 2,5 C 9,7 C 9,7 km/h (2 Bft)
23.05.2020 21:50 9,6 C 6,7 C 61 % 1028,4 hPa 0,0 l/m 2,4 km/h (1 Bft) SW 224 0 min 0,0 UV-I 0 W/m 2,5 C 9,6 C 4,8 km/h (1 Bft)
23.05.2020 21:52 9,5 C 6,1 C 62 % 1028,5 hPa 0,0 l/m 4,6 km/h (1 Bft) S-SW 208 0 min 0,0 UV-I 0 W/m 2,6 C 9,5 C 8,0 km/h (2 Bft)
23.05.2020 21:54 9,3 C 6,1 C 62 % 1028,4 hPa 0,0 l/m 4,8 km/h (1 Bft) SW 219 0 min 0,0 UV-I 0 W/m 2,4 C 9,3 C 8,0 km/h (2 Bft)
23.05.2020 21:56 9,2 C 6,1 C 62 % 1028,5 hPa 0,0 l/m 5,9 km/h (2 Bft) SW 232 0 min 0,0 UV-I 0 W/m 2,3 C 9,2 C 12,9 km/h (3 Bft)
23.05.2020 21:58 9,2 C 6,7 C 62 % 1028,5 hPa 0,0 l/m 5,5 km/h (1 Bft) S-SW 212 0 min 0,0 UV-I 0 W/m 2,3 C 9,2 C 8,0 km/h (2 Bft)
23.05.2020 22:00 9,1 C 6,1 C 63 % 1028,5 hPa 0,0 l/m 5,3 km/h (1 Bft) W-SW 238 0 min 0,0 UV-I 0 W/m 2,4 C 9,1 C 9,7 km/h (2 Bft)
23.05.2020 22:02 9,1 C 6,1 C 63 % 1028,6 hPa 0,0 l/m 6,9 km/h (2 Bft) SW 231 0 min 0,0 UV-I 0 W/m 2,4 C 8,7 C 11,3 km/h (2 Bft)
23.05.2020 22:04 9,1 C 6,7 C 63 % 1028,6 hPa 0,0 l/m 3,7 km/h (1 Bft) SW 225 0 min 0,0 UV-I 0 W/m 2,4 C 9,1 C 6,4 km/h (2 Bft)
23.05.2020 22:06 9,1 C 6,7 C 63 % 1028,6 hPa 0,0 l/m 8,4 km/h (2 Bft) SW 231 0 min 0,0 UV-I 0 W/m 2,4 C 7,6 C 19,3 km/h (3 Bft)
23.05.2020 22:08 9,1 C 6,7 C 63 % 1028,6 hPa 0,0 l/m 5,7 km/h (1 Bft) SW 221 0 min 0,0 UV-I 0 W/m 2,4 C 9,1 C 8,0 km/h (2 Bft)
23.05.2020 22:10 8,9 C 6,1 C 64 % 1028,7 hPa 0,0 l/m 4,2 km/h (1 Bft) SW 236 0 min 0,0 UV-I 0 W/m 2,5 C 8,9 C 8,0 km/h (2 Bft)
23.05.2020 22:12 8,9 C 6,1 C 64 % 1028,6 hPa 0,0 l/m 4,4 km/h (1 Bft) SW 227 0 min 0,0 UV-I 0 W/m 2,5 C 8,9 C 8,0 km/h (2 Bft)
23.05.2020 22:14 8,9 C 6,1 C 64 % 1028,7 hPa 0,0 l/m 4,2 km/h (1 Bft) SW 232 0 min 0,0 UV-I 0 W/m 2,5 C 8,9 C 8,0 km/h (2 Bft)
23.05.2020 22:16 8,8 C 6,1 C 64 % 1028,7 hPa 0,0 l/m 4,8 km/h (1 Bft) SW 215 0 min 0,0 UV-I 0 W/m 2,4 C 8,8 C 9,7 km/h (2 Bft)
23.05.2020 22:18 8,8 C 6,1 C 64 % 1028,6 hPa 0,0 l/m 6,9 km/h (2 Bft) SW 236 0 min 0,0 UV-I 0 W/m 2,4 C 8,4 C 16,1 km/h (3 Bft)
23.05.2020 22:20 8,8 C 6,7 C 64 % 1028,8 hPa 0,0 l/m 8,1 km/h (2 Bft) SW 215 0 min 0,0 UV-I 0 W/m 2,4 C 7,5 C 16,1 km/h (3 Bft)
23.05.2020 22:22 9,0 C 6,7 C 64 % 1028,8 hPa 0,0 l/m 6,9 km/h (2 Bft) SW 226 0 min 0,0 UV-I 0 W/m 2,6 C 8,6 C 12,9 km/h (3 Bft)
23.05.2020 22:24 9,0 C 7,2 C 63 % 1028,8 hPa 0,0 l/m 8,9 km/h (2 Bft) SW 217 0 min 0,0 UV-I 0 W/m 2,3 C 7,2 C 14,5 km/h (3 Bft)
23.05.2020 22:26 9,1 C 6,7 C 64 % 1028,8 hPa 0,0 l/m 6,5 km/h (2 Bft) S-SW 205 0 min 0,0 UV-I 0 W/m 2,7 C 9,1 C 16,1 km/h (3 Bft)
23.05.2020 22:28 9,1 C 6,7 C 63 % 1028,7 hPa 0,0 l/m 5,0 km/h (1 Bft) SW 220 0 min 0,0 UV-I 0 W/m 2,4 C 9,1 C 6,4 km/h (2 Bft)
23.05.2020 22:30 9,0 C 6,7 C 64 % 1028,8 hPa 0,0 l/m 6,7 km/h (2 Bft) S-SW 211 0 min 0,0 UV-I 0 W/m 2,6 C 8,8 C 9,7 km/h (2 Bft)
23.05.2020 22:32 8,9 C 6,7 C 64 % 1028,9 hPa 0,0 l/m 7,2 km/h (2 Bft) S-SW 196 0 min 0,0 UV-I 0 W/m 2,5 C 8,3 C 9,7 km/h (2 Bft)
23.05.2020 22:34 8,9 C 6,7 C 64 % 1028,9 hPa 0,0 l/m 8,4 km/h (2 Bft) SW 226 0 min 0,0 UV-I 0 W/m 2,5 C 7,4 C 11,3 km/h (2 Bft)
23.05.2020 22:36 8,8 C 6,7 C 65 % 1028,9 hPa 0,0 l/m 8,0 km/h (2 Bft) S-SW 196 0 min 0,0 UV-I 0 W/m 2,6 C 7,6 C 11,3 km/h (2 Bft)
23.05.2020 22:38 8,7 C 6,7 C 65 % 1028,9 hPa 0,0 l/m 7,0 km/h (2 Bft) SW 232 0 min 0,0 UV-I 0 W/m 2,5 C 8,2 C 11,3 km/h (2 Bft)
23.05.2020 22:40 8,7 C 6,7 C 66 % 1029,1 hPa 0,0 l/m 5,3 km/h (1 Bft) SW 221 0 min 0,0 UV-I 0 W/m 2,7 C 8,7 C 9,7 km/h (2 Bft)
23.05.2020 22:42 8,5 C 6,1 C 67 % 1029,0 hPa 0,0 l/m 5,2 km/h (1 Bft) SW 219 0 min 0,0 UV-I 0 W/m 2,7 C 8,5 C 8,0 km/h (2 Bft)
23.05.2020 22:44 8,4 C 6,1 C 67 % 1029,0 hPa 0,0 l/m 5,8 km/h (2 Bft) SW 220 0 min 0,0 UV-I 0 W/m 2,6 C 8,4 C 8,0 km/h (2 Bft)
23.05.2020 22:46 8,3 C 6,1 C 68 % 1029,1 hPa 0,0 l/m 7,1 km/h (2 Bft) S-SW 209 0 min 0,0 UV-I 0 W/m 2,7 C 7,8 C 9,7 km/h (2 Bft)
23.05.2020 22:48 8,3 C 6,1 C 68 % 1029,0 hPa 0,0 l/m 6,5 km/h (2 Bft) S-SW 213 0 min 0,0 UV-I 0 W/m 2,7 C 8,2 C 9,7 km/h (2 Bft)
23.05.2020 22:50 8,1 C 5,6 C 69 % 1029,0 hPa 0,0 l/m 5,0 km/h (1 Bft) SW 221 0 min 0,0 UV-I 0 W/m 2,8 C 8,1 C 6,4 km/h (2 Bft)
23.05.2020 22:52 8,0 C 5,0 C 70 % 1029,1 hPa 0,0 l/m 5,8 km/h (2 Bft) S-SW 207 0 min 0,0 UV-I 0 W/m 2,9 C 8,0 C 11,3 km/h (2 Bft)
23.05.2020 22:54 7,9 C 5,0 C 71 % 1029,1 hPa 0,0 l/m 3,7 km/h (1 Bft) S-SW 213 0 min 0,0 UV-I 0 W/m 3,0 C 7,9 C 8,0 km/h (2 Bft)
23.05.2020 22:56 7,9 C 5,0 C 71 % 1029,1 hPa 0,0 l/m 4,0 km/h (1 Bft) SW 215 0 min 0,0 UV-I 0 W/m 3,0 C 7,9 C 6,4 km/h (2 Bft)
23.05.2020 22:58 7,9 C 5,6 C 71 % 1029,1 hPa 0,0 l/m 4,8 km/h (1 Bft) S-SW 213 0 min 0,0 UV-I 0 W/m 3,0 C 7,9 C 8,0 km/h (2 Bft)
23.05.2020 23:00 7,8 C 5,0 C 72 % 1029,1 hPa 0,0 l/m 3,6 km/h (1 Bft) SW 228 0 min 0,0 UV-I 0 W/m 3,1 C 7,8 C 4,8 km/h (1 Bft)
23.05.2020 23:02 7,8 C 5,0 C 72 % 1029,1 hPa 0,0 l/m 3,2 km/h (1 Bft) SW 220 0 min 0,0 UV-I 0 W/m 3,1 C 7,8 C 6,4 km/h (2 Bft)
23.05.2020 23:04 7,8 C 5,0 C 72 % 1029,2 hPa 0,0 l/m 4,4 km/h (1 Bft) SW 217 0 min 0,0 UV-I 0 W/m 3,1 C 7,8 C 8,0 km/h (2 Bft)
23.05.2020 23:06 7,8 C 5,0 C 72 % 1029,1 hPa 0,0 l/m 3,6 km/h (1 Bft) SW 216 0 min 0,0 UV-I 0 W/m 3,1 C 7,8 C 6,4 km/h (2 Bft)
23.05.2020 23:08 7,7 C 5,0 C 72 % 1029,1 hPa 0,0 l/m 3,4 km/h (1 Bft) SW 215 0 min 0,0 UV-I 0 W/m 3,0 C 7,7 C 6,4 km/h (2 Bft)
23.05.2020 23:10 7,7 C 4,4 C 72 % 1029,2 hPa 0,0 l/m 3,6 km/h (1 Bft) SW 215 0 min 0,0 UV-I 0 W/m 3,0 C 7,7 C 4,8 km/h (1 Bft)
23.05.2020 23:12 7,7 C 4,4 C 72 % 1029,2 hPa 0,0 l/m 3,5 km/h (1 Bft) SW 215 0 min 0,0 UV-I 0 W/m 3,0 C 7,7 C 6,4 km/h (2 Bft)
23.05.2020 23:14 7,7 C 5,0 C 72 % 1029,2 hPa 0,0 l/m 4,5 km/h (1 Bft) SW 214 0 min 0,0 UV-I 0 W/m 3,0 C 7,7 C 6,4 km/h (2 Bft)
23.05.2020 23:16 7,6 C 4,4 C 72 % 1029,2 hPa 0,0 l/m 4,4 km/h (1 Bft) SW 215 0 min 0,0 UV-I 0 W/m 2,9 C 7,6 C 6,4 km/h (2 Bft)
23.05.2020 23:18 7,5 C 4,4 C 73 % 1029,2 hPa 0,0 l/m 5,3 km/h (1 Bft) S-SW 213 0 min 0,0 UV-I 0 W/m 3,0 C 7,5 C 8,0 km/h (2 Bft)
23.05.2020 23:20 7,4 C 4,4 C 73 % 1029,2 hPa 0,0 l/m 3,7 km/h (1 Bft) S-SW 211 0 min 0,0 UV-I 0 W/m 2,9 C 7,4 C 6,4 km/h (2 Bft)
23.05.2020 23:22 7,4 C 4,4 C 73 % 1029,2 hPa 0,0 l/m 4,2 km/h (1 Bft) S-SW 213 0 min 0,0 UV-I 0 W/m 2,9 C 7,4 C 8,0 km/h (2 Bft)
23.05.2020 23:24 7,3 C 4,4 C 73 % 1029,2 hPa 0,0 l/m 3,6 km/h (1 Bft) SW 215 0 min 0,0 UV-I 0 W/m 2,8 C 7,3 C 6,4 km/h (2 Bft)
23.05.2020 23:26 7,3 C 4,4 C 73 % 1029,2 hPa 0,0 l/m 5,2 km/h (1 Bft) S-SW 213 0 min 0,0 UV-I 0 W/m 2,8 C 7,3 C 9,7 km/h (2 Bft)
23.05.2020 23:28 7,3 C 4,4 C 74 % 1029,3 hPa 0,0 l/m 5,3 km/h (1 Bft) SW 215 0 min 0,0 UV-I 0 W/m 3,0 C 7,3 C 9,7 km/h (2 Bft)
23.05.2020 23:30 7,2 C 4,4 C 74 % 1029,3 hPa 0,0 l/m 4,2 km/h (1 Bft) SW 219 0 min 0,0 UV-I 0 W/m 2,9 C 7,2 C 8,0 km/h (2 Bft)
23.05.2020 23:32 7,1 C 4,4 C 74 % 1029,3 hPa 0,0 l/m 4,1 km/h (1 Bft) SW 232 0 min 0,0 UV-I 0 W/m 2,8 C 7,1 C 8,0 km/h (2 Bft)
23.05.2020 23:34 7,1 C 4,4 C 74 % 1029,3 hPa 0,0 l/m 5,3 km/h (1 Bft) SW 215 0 min 0,0 UV-I 0 W/m 2,8 C 7,1 C 9,7 km/h (2 Bft)
23.05.2020 23:36 7,1 C 4,4 C 75 % 1029,3 hPa 0,0 l/m 5,0 km/h (1 Bft) S-SW 205 0 min 0,0 UV-I 0 W/m 3,0 C 7,1 C 8,0 km/h (2 Bft)
23.05.2020 23:38 7,1 C 4,4 C 75 % 1029,4 hPa 0,0 l/m 4,4 km/h (1 Bft) S-SW 211 0 min 0,0 UV-I 0 W/m 3,0 C 7,1 C 8,0 km/h (2 Bft)
23.05.2020 23:40 7,1 C 4,4 C 75 % 1029,4 hPa 0,0 l/m 5,7 km/h (1 Bft) S-SW 213 0 min 0,0 UV-I 0 W/m 3,0 C 7,1 C 9,7 km/h (2 Bft)
23.05.2020 23:42 7,1 C 4,4 C 76 % 1029,4 hPa 0,0 l/m 4,3 km/h (1 Bft) SW 218 0 min 0,0 UV-I 0 W/m 3,2 C 7,1 C 8,0 km/h (2 Bft)
23.05.2020 23:44 7,0 C 4,4 C 76 % 1029,4 hPa 0,0 l/m 3,8 km/h (1 Bft) SW 220 0 min 0,0 UV-I 0 W/m 3,1 C 7,0 C 6,4 km/h (2 Bft)
23.05.2020 23:46 7,1 C 3,9 C 77 % 1029,4 hPa 0,0 l/m 3,9 km/h (1 Bft) SW 220 0 min 0,0 UV-I 0 W/m 3,3 C 7,1 C 6,4 km/h (2 Bft)
23.05.2020 23:48 7,0 C 4,4 C 77 % 1029,4 hPa 0,0 l/m 3,8 km/h (1 Bft) SW 220 0 min 0,0 UV-I 0 W/m 3,2 C 7,0 C 6,4 km/h (2 Bft)
23.05.2020 23:50 6,9 C 3,9 C 77 % 1029,5 hPa 0,0 l/m 3,7 km/h (1 Bft) SW 220 0 min 0,0 UV-I 0 W/m 3,2 C 6,9 C 4,8 km/h (1 Bft)
23.05.2020 23:52 6,9 C 4,4 C 78 % 1029,4 hPa 0,0 l/m 5,0 km/h (1 Bft) SW 222 0 min 0,0 UV-I 0 W/m 3,3 C 6,9 C 8,0 km/h (2 Bft)
23.05.2020 23:54 6,9 C 4,4 C 79 % 1029,5 hPa 0,0 l/m 4,8 km/h (1 Bft) S-SW 200 0 min 0,0 UV-I 0 W/m 3,5 C 6,9 C 8,0 km/h (2 Bft)
23.05.2020 23:56 6,8 C 4,4 C 79 % 1029,4 hPa 0,0 l/m 5,1 km/h (1 Bft) S-SW 203 0 min 0,0 UV-I 0 W/m 3,4 C 6,8 C 8,0 km/h (2 Bft)
23.05.2020 23:58 6,7 C 4,4 C 80 % 1029,4 hPa 0,0 l/m 5,2 km/h (1 Bft) SW 224 0 min 0,0 UV-I 0 W/m 3,5 C 6,7 C 8,0 km/h (2 Bft)
23.05.2020 23:59 6,7 C 4,4 C 80 % 1029,4 hPa 0,0 l/m 4,8 km/h (1 Bft) SW 225 0 min 0,0 UV-I 0 W/m 3,5 C 6,7 C 9,7 km/h (2 Bft)
_ Min-Zeit 23:58 23:46 19:54 00:18 - 02:34 - - - - - 21:56 10:40 04:34
Minimum _ 6,7 C 3,9 C 58 % 1022,0 hPa - 1,6 km/h (1 Bft) - - - - - 2,3 C 3,3 C 1,6 km/h (1 Bft)
_ Max-Zeit 18:50 17:58 00:57 23:50 17:00 16:56 - - 13:48 14:42 17:14 00:00 00:02 16:56
Maximum _ 13,7 C 18,9 C 91 % 1029,5 hPa 0,4 l/m 23,0 km/h
W-SW (4 Bft)
- - 2 min 5,0 UV-I 805 W/m 10,8 C 12,5 C 33,8 km/h
S-SW (5 Bft)
Durchschnitt _ 10,3 C 10,5 C 81 % 1024,8 hPa #6,2 l/m 8,1 km/h (2 Bft) SW - #46 min. 1,8 UV-I 226 W/m 7,0 C 8,9 C 13,1 km/h (3 Bft)